<?xml version="1.0" encoding="utf-8"?>
<gpx xmlns:xsi="http://www.w3.org/2001/XMLSchema-instance" xmlns:xsd="http://www.w3.org/2001/XMLSchema" version="1.1" creator="Shapelink.com" xmlns="http://www.topografix.com/GPX/1/1" xmlns:gpxtpx="http://www.garmin.com/xmlschemas/TrackPointExtension/v1">
  <metadata>
    <name>Gåing 2.43 km, 2014-06-25</name>
    <desc></desc>
    <author><name>Mikael Blom</name></author> 
    <time>2014-06-25T18:52:06Z</time>
  </metadata>
  <trk>
    <name>Gåing 2.43 km, 2014-06-25</name>
    <trkseg>
      <trkpt lat="59.95396" lon="17.7149336">
        <ele>53.0098</ele>
        <time>2014-06-25T18:52:06Z</time>
      </trkpt>
      <trkpt lat="59.9539549" lon="17.7149316">
        <ele>53.4905</ele>
        <time>2014-06-25T18:52:07Z</time>
      </trkpt>
      <trkpt lat="59.9539507" lon="17.7149218">
        <ele>53.9712</ele>
        <time>2014-06-25T18:52:08Z</time>
      </trkpt>
      <trkpt lat="59.9539467" lon="17.7149239">
        <ele>53.9712</ele>
        <time>2014-06-25T18:52:09Z</time>
      </trkpt>
      <trkpt lat="59.9539377" lon="17.7149266">
        <ele>54.4518</ele>
        <time>2014-06-25T18:52:10Z</time>
      </trkpt>
      <trkpt lat="59.9539272" lon="17.7149291">
        <ele>54.4518</ele>
        <time>2014-06-25T18:52:11Z</time>
      </trkpt>
      <trkpt lat="59.9539146" lon="17.714945">
        <ele>54.9324</ele>
        <time>2014-06-25T18:52:12Z</time>
      </trkpt>
      <trkpt lat="59.9539068" lon="17.7149524">
        <ele>53.9712</ele>
        <time>2014-06-25T18:52:13Z</time>
      </trkpt>
      <trkpt lat="59.9538976" lon="17.7149538">
        <ele>53.4905</ele>
        <time>2014-06-25T18:52:14Z</time>
      </trkpt>
      <trkpt lat="59.9538911" lon="17.7149548">
        <ele>53.9712</ele>
        <time>2014-06-25T18:52:15Z</time>
      </trkpt>
      <trkpt lat="59.9538828" lon="17.7149607">
        <ele>53.9712</ele>
        <time>2014-06-25T18:52:16Z</time>
      </trkpt>
      <trkpt lat="59.9538722" lon="17.714967">
        <ele>53.9712</ele>
        <time>2014-06-25T18:52:17Z</time>
      </trkpt>
      <trkpt lat="59.9538606" lon="17.7149736">
        <ele>54.4518</ele>
        <time>2014-06-25T18:52:18Z</time>
      </trkpt>
      <trkpt lat="59.953849" lon="17.7149815">
        <ele>54.4518</ele>
        <time>2014-06-25T18:52:19Z</time>
      </trkpt>
      <trkpt lat="59.9538401" lon="17.7149906">
        <ele>53.9712</ele>
        <time>2014-06-25T18:52:20Z</time>
      </trkpt>
      <trkpt lat="59.9538332" lon="17.7149955">
        <ele>53.9712</ele>
        <time>2014-06-25T18:52:21Z</time>
      </trkpt>
      <trkpt lat="59.9538182" lon="17.7149942">
        <ele>54.4518</ele>
        <time>2014-06-25T18:52:22Z</time>
      </trkpt>
      <trkpt lat="59.953811" lon="17.7150031">
        <ele>53.4905</ele>
        <time>2014-06-25T18:52:23Z</time>
      </trkpt>
      <trkpt lat="59.9537924" lon="17.7150097">
        <ele>52.5292</ele>
        <time>2014-06-25T18:52:24Z</time>
      </trkpt>
      <trkpt lat="59.9537727" lon="17.7150196">
        <ele>51.5679</ele>
        <time>2014-06-25T18:52:25Z</time>
      </trkpt>
      <trkpt lat="59.9537477" lon="17.7150229">
        <ele>51.0872</ele>
        <time>2014-06-25T18:52:26Z</time>
      </trkpt>
      <trkpt lat="59.953724" lon="17.7150306">
        <ele>50.6066</ele>
        <time>2014-06-25T18:52:27Z</time>
      </trkpt>
      <trkpt lat="59.9537032" lon="17.7150419">
        <ele>50.6066</ele>
        <time>2014-06-25T18:52:28Z</time>
      </trkpt>
      <trkpt lat="59.9536856" lon="17.7150602">
        <ele>51.0872</ele>
        <time>2014-06-25T18:52:29Z</time>
      </trkpt>
      <trkpt lat="59.953666" lon="17.7150773">
        <ele>51.5679</ele>
        <time>2014-06-25T18:52:30Z</time>
      </trkpt>
      <trkpt lat="59.9536473" lon="17.7150911">
        <ele>51.5679</ele>
        <time>2014-06-25T18:52:31Z</time>
      </trkpt>
      <trkpt lat="59.9536321" lon="17.7151109">
        <ele>51.0872</ele>
        <time>2014-06-25T18:52:32Z</time>
      </trkpt>
      <trkpt lat="59.9536127" lon="17.715131">
        <ele>52.0486</ele>
        <time>2014-06-25T18:52:33Z</time>
      </trkpt>
      <trkpt lat="59.953597" lon="17.7151533">
        <ele>52.5292</ele>
        <time>2014-06-25T18:52:34Z</time>
      </trkpt>
      <trkpt lat="59.9535836" lon="17.715176">
        <ele>52.5292</ele>
        <time>2014-06-25T18:52:35Z</time>
      </trkpt>
      <trkpt lat="59.9535676" lon="17.7151775">
        <ele>52.0486</ele>
        <time>2014-06-25T18:52:36Z</time>
      </trkpt>
      <trkpt lat="59.9535531" lon="17.7151895">
        <ele>52.0486</ele>
        <time>2014-06-25T18:52:37Z</time>
      </trkpt>
      <trkpt lat="59.9535389" lon="17.7151996">
        <ele>51.5679</ele>
        <time>2014-06-25T18:52:38Z</time>
      </trkpt>
      <trkpt lat="59.9535254" lon="17.7152155">
        <ele>51.5679</ele>
        <time>2014-06-25T18:52:39Z</time>
      </trkpt>
      <trkpt lat="59.9535153" lon="17.7152273">
        <ele>53.0098</ele>
        <time>2014-06-25T18:52:40Z</time>
      </trkpt>
      <trkpt lat="59.9535081" lon="17.7152492">
        <ele>53.9712</ele>
        <time>2014-06-25T18:52:41Z</time>
      </trkpt>
      <trkpt lat="59.953498" lon="17.7152649">
        <ele>54.4518</ele>
        <time>2014-06-25T18:52:42Z</time>
      </trkpt>
      <trkpt lat="59.9534898" lon="17.7152922">
        <ele>54.4518</ele>
        <time>2014-06-25T18:52:43Z</time>
      </trkpt>
      <trkpt lat="59.9534758" lon="17.715314">
        <ele>54.4518</ele>
        <time>2014-06-25T18:52:44Z</time>
      </trkpt>
      <trkpt lat="59.9534583" lon="17.7153371">
        <ele>53.9712</ele>
        <time>2014-06-25T18:52:45Z</time>
      </trkpt>
      <trkpt lat="59.9534452" lon="17.7153614">
        <ele>53.9712</ele>
        <time>2014-06-25T18:52:46Z</time>
      </trkpt>
      <trkpt lat="59.953438" lon="17.715384">
        <ele>53.9712</ele>
        <time>2014-06-25T18:52:47Z</time>
      </trkpt>
      <trkpt lat="59.9534298" lon="17.7154053">
        <ele>54.4518</ele>
        <time>2014-06-25T18:52:48Z</time>
      </trkpt>
      <trkpt lat="59.9534187" lon="17.7154242">
        <ele>53.9712</ele>
        <time>2014-06-25T18:52:49Z</time>
      </trkpt>
      <trkpt lat="59.9534023" lon="17.7154387">
        <ele>54.4518</ele>
        <time>2014-06-25T18:52:50Z</time>
      </trkpt>
      <trkpt lat="59.953389" lon="17.715454">
        <ele>53.4905</ele>
        <time>2014-06-25T18:52:51Z</time>
      </trkpt>
      <trkpt lat="59.953375" lon="17.7154735">
        <ele>53.0098</ele>
        <time>2014-06-25T18:52:52Z</time>
      </trkpt>
      <trkpt lat="59.9533631" lon="17.7154968">
        <ele>53.0098</ele>
        <time>2014-06-25T18:52:53Z</time>
      </trkpt>
      <trkpt lat="59.9533496" lon="17.7155172">
        <ele>53.0098</ele>
        <time>2014-06-25T18:52:54Z</time>
      </trkpt>
      <trkpt lat="59.9533361" lon="17.71553">
        <ele>52.5292</ele>
        <time>2014-06-25T18:52:55Z</time>
      </trkpt>
      <trkpt lat="59.9533218" lon="17.7155392">
        <ele>52.0486</ele>
        <time>2014-06-25T18:52:56Z</time>
      </trkpt>
      <trkpt lat="59.953305" lon="17.7155459">
        <ele>52.0486</ele>
        <time>2014-06-25T18:52:57Z</time>
      </trkpt>
      <trkpt lat="59.9532909" lon="17.7155625">
        <ele>52.0486</ele>
        <time>2014-06-25T18:52:58Z</time>
      </trkpt>
      <trkpt lat="59.9532801" lon="17.7155839">
        <ele>51.5679</ele>
        <time>2014-06-25T18:52:59Z</time>
      </trkpt>
      <trkpt lat="59.9532709" lon="17.715612">
        <ele>51.0872</ele>
        <time>2014-06-25T18:53:00Z</time>
      </trkpt>
      <trkpt lat="59.9532589" lon="17.7156345">
        <ele>50.6066</ele>
        <time>2014-06-25T18:53:01Z</time>
      </trkpt>
      <trkpt lat="59.9532449" lon="17.7156515">
        <ele>49.6453</ele>
        <time>2014-06-25T18:53:02Z</time>
      </trkpt>
      <trkpt lat="59.9532303" lon="17.7156695">
        <ele>49.1646</ele>
        <time>2014-06-25T18:53:03Z</time>
      </trkpt>
      <trkpt lat="59.9532179" lon="17.7156878">
        <ele>49.1646</ele>
        <time>2014-06-25T18:53:04Z</time>
      </trkpt>
      <trkpt lat="59.9532081" lon="17.715708">
        <ele>49.1646</ele>
        <time>2014-06-25T18:53:05Z</time>
      </trkpt>
      <trkpt lat="59.9531968" lon="17.7157346">
        <ele>50.6066</ele>
        <time>2014-06-25T18:53:06Z</time>
      </trkpt>
      <trkpt lat="59.953183" lon="17.715761">
        <ele>51.5679</ele>
        <time>2014-06-25T18:53:07Z</time>
      </trkpt>
      <trkpt lat="59.9531723" lon="17.7157879">
        <ele>51.0872</ele>
        <time>2014-06-25T18:53:08Z</time>
      </trkpt>
      <trkpt lat="59.9531609" lon="17.7158133">
        <ele>50.6066</ele>
        <time>2014-06-25T18:53:09Z</time>
      </trkpt>
      <trkpt lat="59.9531464" lon="17.7158284">
        <ele>50.6066</ele>
        <time>2014-06-25T18:53:10Z</time>
      </trkpt>
      <trkpt lat="59.95313" lon="17.7158393">
        <ele>51.0872</ele>
        <time>2014-06-25T18:53:11Z</time>
      </trkpt>
      <trkpt lat="59.9531148" lon="17.7158588">
        <ele>50.6066</ele>
        <time>2014-06-25T18:53:12Z</time>
      </trkpt>
      <trkpt lat="59.9531003" lon="17.7158853">
        <ele>50.6066</ele>
        <time>2014-06-25T18:53:13Z</time>
      </trkpt>
      <trkpt lat="59.9530915" lon="17.7159112">
        <ele>51.0872</ele>
        <time>2014-06-25T18:53:14Z</time>
      </trkpt>
      <trkpt lat="59.9530839" lon="17.7159377">
        <ele>50.6066</ele>
        <time>2014-06-25T18:53:15Z</time>
      </trkpt>
      <trkpt lat="59.9530813" lon="17.7159661">
        <ele>51.5679</ele>
        <time>2014-06-25T18:53:16Z</time>
      </trkpt>
      <trkpt lat="59.9530755" lon="17.7159977">
        <ele>51.0872</ele>
        <time>2014-06-25T18:53:17Z</time>
      </trkpt>
      <trkpt lat="59.9530651" lon="17.7160231">
        <ele>51.0872</ele>
        <time>2014-06-25T18:53:18Z</time>
      </trkpt>
      <trkpt lat="59.9530568" lon="17.7160522">
        <ele>50.6066</ele>
        <time>2014-06-25T18:53:19Z</time>
      </trkpt>
      <trkpt lat="59.9530449" lon="17.7160853">
        <ele>50.6066</ele>
        <time>2014-06-25T18:53:20Z</time>
      </trkpt>
      <trkpt lat="59.9530355" lon="17.7161143">
        <ele>50.126</ele>
        <time>2014-06-25T18:53:21Z</time>
      </trkpt>
      <trkpt lat="59.9530297" lon="17.7161433">
        <ele>50.126</ele>
        <time>2014-06-25T18:53:22Z</time>
      </trkpt>
      <trkpt lat="59.953023" lon="17.7161713">
        <ele>50.6066</ele>
        <time>2014-06-25T18:53:23Z</time>
      </trkpt>
      <trkpt lat="59.9530169" lon="17.7162017">
        <ele>51.0872</ele>
        <time>2014-06-25T18:53:24Z</time>
      </trkpt>
      <trkpt lat="59.9530119" lon="17.7162313">
        <ele>51.0872</ele>
        <time>2014-06-25T18:53:25Z</time>
      </trkpt>
      <trkpt lat="59.953005" lon="17.7162594">
        <ele>51.0872</ele>
        <time>2014-06-25T18:53:26Z</time>
      </trkpt>
      <trkpt lat="59.9529951" lon="17.7162811">
        <ele>50.6066</ele>
        <time>2014-06-25T18:53:27Z</time>
      </trkpt>
      <trkpt lat="59.952982" lon="17.7163021">
        <ele>50.6066</ele>
        <time>2014-06-25T18:53:28Z</time>
      </trkpt>
      <trkpt lat="59.952974" lon="17.7163277">
        <ele>50.126</ele>
        <time>2014-06-25T18:53:29Z</time>
      </trkpt>
      <trkpt lat="59.9529696" lon="17.7163767">
        <ele>53.0098</ele>
        <time>2014-06-25T18:53:30Z</time>
      </trkpt>
      <trkpt lat="59.952963" lon="17.7164053">
        <ele>53.0098</ele>
        <time>2014-06-25T18:53:31Z</time>
      </trkpt>
      <trkpt lat="59.9529532" lon="17.7164334">
        <ele>51.5679</ele>
        <time>2014-06-25T18:53:32Z</time>
      </trkpt>
      <trkpt lat="59.9529432" lon="17.716466">
        <ele>51.0872</ele>
        <time>2014-06-25T18:53:33Z</time>
      </trkpt>
      <trkpt lat="59.9529376" lon="17.7165033">
        <ele>51.0872</ele>
        <time>2014-06-25T18:53:34Z</time>
      </trkpt>
      <trkpt lat="59.9529355" lon="17.7165382">
        <ele>50.6066</ele>
        <time>2014-06-25T18:53:35Z</time>
      </trkpt>
      <trkpt lat="59.9529347" lon="17.7165668">
        <ele>49.6453</ele>
        <time>2014-06-25T18:53:36Z</time>
      </trkpt>
      <trkpt lat="59.9529331" lon="17.7165899">
        <ele>49.6453</ele>
        <time>2014-06-25T18:53:37Z</time>
      </trkpt>
      <trkpt lat="59.9529299" lon="17.7166189">
        <ele>49.6453</ele>
        <time>2014-06-25T18:53:38Z</time>
      </trkpt>
      <trkpt lat="59.9529314" lon="17.7166567">
        <ele>50.126</ele>
        <time>2014-06-25T18:53:39Z</time>
      </trkpt>
      <trkpt lat="59.9529369" lon="17.7166934">
        <ele>50.6066</ele>
        <time>2014-06-25T18:53:40Z</time>
      </trkpt>
      <trkpt lat="59.9529382" lon="17.7167328">
        <ele>51.0872</ele>
        <time>2014-06-25T18:53:41Z</time>
      </trkpt>
      <trkpt lat="59.9529355" lon="17.7167775">
        <ele>52.0486</ele>
        <time>2014-06-25T18:53:42Z</time>
      </trkpt>
      <trkpt lat="59.9529329" lon="17.7168188">
        <ele>52.5292</ele>
        <time>2014-06-25T18:53:43Z</time>
      </trkpt>
      <trkpt lat="59.952929" lon="17.7168514">
        <ele>53.0098</ele>
        <time>2014-06-25T18:53:44Z</time>
      </trkpt>
      <trkpt lat="59.9529284" lon="17.7168834">
        <ele>52.0486</ele>
        <time>2014-06-25T18:53:45Z</time>
      </trkpt>
      <trkpt lat="59.9529351" lon="17.7169218">
        <ele>51.5679</ele>
        <time>2014-06-25T18:53:46Z</time>
      </trkpt>
      <trkpt lat="59.9529485" lon="17.7169631">
        <ele>51.5679</ele>
        <time>2014-06-25T18:53:47Z</time>
      </trkpt>
      <trkpt lat="59.9529544" lon="17.7170022">
        <ele>52.0486</ele>
        <time>2014-06-25T18:53:48Z</time>
      </trkpt>
      <trkpt lat="59.9529589" lon="17.7170364">
        <ele>51.0872</ele>
        <time>2014-06-25T18:53:49Z</time>
      </trkpt>
      <trkpt lat="59.9529548" lon="17.7170714">
        <ele>51.0872</ele>
        <time>2014-06-25T18:53:50Z</time>
      </trkpt>
      <trkpt lat="59.9529568" lon="17.7171036">
        <ele>51.5679</ele>
        <time>2014-06-25T18:53:51Z</time>
      </trkpt>
      <trkpt lat="59.9529548" lon="17.7171378">
        <ele>52.5292</ele>
        <time>2014-06-25T18:53:52Z</time>
      </trkpt>
      <trkpt lat="59.9529471" lon="17.717166">
        <ele>52.5292</ele>
        <time>2014-06-25T18:53:53Z</time>
      </trkpt>
      <trkpt lat="59.9529313" lon="17.7172006">
        <ele>52.5292</ele>
        <time>2014-06-25T18:53:54Z</time>
      </trkpt>
      <trkpt lat="59.9529158" lon="17.7172245">
        <ele>53.0098</ele>
        <time>2014-06-25T18:53:55Z</time>
      </trkpt>
      <trkpt lat="59.9529056" lon="17.7172454">
        <ele>53.4905</ele>
        <time>2014-06-25T18:53:56Z</time>
      </trkpt>
      <trkpt lat="59.9528982" lon="17.717267">
        <ele>53.9712</ele>
        <time>2014-06-25T18:53:57Z</time>
      </trkpt>
      <trkpt lat="59.9528936" lon="17.7172986">
        <ele>54.4518</ele>
        <time>2014-06-25T18:53:58Z</time>
      </trkpt>
      <trkpt lat="59.9528838" lon="17.7173275">
        <ele>54.4518</ele>
        <time>2014-06-25T18:53:59Z</time>
      </trkpt>
      <trkpt lat="59.9528743" lon="17.7173616">
        <ele>54.4518</ele>
        <time>2014-06-25T18:54:00Z</time>
      </trkpt>
      <trkpt lat="59.9528667" lon="17.717398">
        <ele>54.9324</ele>
        <time>2014-06-25T18:54:01Z</time>
      </trkpt>
      <trkpt lat="59.9528548" lon="17.7174356">
        <ele>54.9324</ele>
        <time>2014-06-25T18:54:02Z</time>
      </trkpt>
      <trkpt lat="59.9528421" lon="17.7174703">
        <ele>54.9324</ele>
        <time>2014-06-25T18:54:03Z</time>
      </trkpt>
      <trkpt lat="59.952831" lon="17.7175127">
        <ele>55.4131</ele>
        <time>2014-06-25T18:54:04Z</time>
      </trkpt>
      <trkpt lat="59.952823" lon="17.717544">
        <ele>55.4131</ele>
        <time>2014-06-25T18:54:05Z</time>
      </trkpt>
      <trkpt lat="59.9528154" lon="17.7175684">
        <ele>54.9324</ele>
        <time>2014-06-25T18:54:06Z</time>
      </trkpt>
      <trkpt lat="59.9528086" lon="17.7175964">
        <ele>54.9324</ele>
        <time>2014-06-25T18:54:07Z</time>
      </trkpt>
      <trkpt lat="59.9528003" lon="17.7176238">
        <ele>54.9324</ele>
        <time>2014-06-25T18:54:08Z</time>
      </trkpt>
      <trkpt lat="59.9527874" lon="17.7176433">
        <ele>53.9712</ele>
        <time>2014-06-25T18:54:09Z</time>
      </trkpt>
      <trkpt lat="59.9527767" lon="17.7176604">
        <ele>52.5292</ele>
        <time>2014-06-25T18:54:10Z</time>
      </trkpt>
      <trkpt lat="59.9527632" lon="17.7176873">
        <ele>51.0872</ele>
        <time>2014-06-25T18:54:11Z</time>
      </trkpt>
      <trkpt lat="59.9527486" lon="17.7177176">
        <ele>50.126</ele>
        <time>2014-06-25T18:54:12Z</time>
      </trkpt>
      <trkpt lat="59.9527347" lon="17.7177394">
        <ele>49.6453</ele>
        <time>2014-06-25T18:54:13Z</time>
      </trkpt>
      <trkpt lat="59.9527186" lon="17.7177607">
        <ele>48.2034</ele>
        <time>2014-06-25T18:54:14Z</time>
      </trkpt>
      <trkpt lat="59.952703" lon="17.7177874">
        <ele>48.684</ele>
        <time>2014-06-25T18:54:15Z</time>
      </trkpt>
      <trkpt lat="59.9526962" lon="17.7178132">
        <ele>48.2034</ele>
        <time>2014-06-25T18:54:16Z</time>
      </trkpt>
      <trkpt lat="59.9526873" lon="17.7178415">
        <ele>48.2034</ele>
        <time>2014-06-25T18:54:17Z</time>
      </trkpt>
      <trkpt lat="59.9526769" lon="17.7178635">
        <ele>47.7225</ele>
        <time>2014-06-25T18:54:18Z</time>
      </trkpt>
      <trkpt lat="59.9526636" lon="17.7178925">
        <ele>48.2034</ele>
        <time>2014-06-25T18:54:19Z</time>
      </trkpt>
      <trkpt lat="59.9526554" lon="17.7179166">
        <ele>48.684</ele>
        <time>2014-06-25T18:54:20Z</time>
      </trkpt>
      <trkpt lat="59.9526463" lon="17.7179396">
        <ele>48.684</ele>
        <time>2014-06-25T18:54:21Z</time>
      </trkpt>
      <trkpt lat="59.9526332" lon="17.7179657">
        <ele>49.1646</ele>
        <time>2014-06-25T18:54:22Z</time>
      </trkpt>
      <trkpt lat="59.9526258" lon="17.7179926">
        <ele>49.6453</ele>
        <time>2014-06-25T18:54:23Z</time>
      </trkpt>
      <trkpt lat="59.9526155" lon="17.7180169">
        <ele>49.1646</ele>
        <time>2014-06-25T18:54:24Z</time>
      </trkpt>
      <trkpt lat="59.9526041" lon="17.7180335">
        <ele>48.2034</ele>
        <time>2014-06-25T18:54:25Z</time>
      </trkpt>
      <trkpt lat="59.9525943" lon="17.7180611">
        <ele>47.7225</ele>
        <time>2014-06-25T18:54:26Z</time>
      </trkpt>
      <trkpt lat="59.9525865" lon="17.7180899">
        <ele>47.7225</ele>
        <time>2014-06-25T18:54:27Z</time>
      </trkpt>
      <trkpt lat="59.9525774" lon="17.718129">
        <ele>49.1646</ele>
        <time>2014-06-25T18:54:28Z</time>
      </trkpt>
      <trkpt lat="59.95257" lon="17.718153">
        <ele>48.684</ele>
        <time>2014-06-25T18:54:29Z</time>
      </trkpt>
      <trkpt lat="59.9525641" lon="17.7181844">
        <ele>48.2034</ele>
        <time>2014-06-25T18:54:30Z</time>
      </trkpt>
      <trkpt lat="59.9525589" lon="17.7182241">
        <ele>48.2034</ele>
        <time>2014-06-25T18:54:31Z</time>
      </trkpt>
      <trkpt lat="59.9525572" lon="17.7182605">
        <ele>48.2034</ele>
        <time>2014-06-25T18:54:32Z</time>
      </trkpt>
      <trkpt lat="59.9525596" lon="17.7182884">
        <ele>49.1646</ele>
        <time>2014-06-25T18:54:33Z</time>
      </trkpt>
      <trkpt lat="59.9525632" lon="17.7183198">
        <ele>49.1646</ele>
        <time>2014-06-25T18:54:34Z</time>
      </trkpt>
      <trkpt lat="59.9525627" lon="17.7183563">
        <ele>49.6453</ele>
        <time>2014-06-25T18:54:35Z</time>
      </trkpt>
      <trkpt lat="59.9525586" lon="17.7183915">
        <ele>50.126</ele>
        <time>2014-06-25T18:54:36Z</time>
      </trkpt>
      <trkpt lat="59.9525481" lon="17.7184242">
        <ele>50.126</ele>
        <time>2014-06-25T18:54:37Z</time>
      </trkpt>
      <trkpt lat="59.9525414" lon="17.7184458">
        <ele>49.6453</ele>
        <time>2014-06-25T18:54:38Z</time>
      </trkpt>
      <trkpt lat="59.952532" lon="17.7184697">
        <ele>48.684</ele>
        <time>2014-06-25T18:54:39Z</time>
      </trkpt>
      <trkpt lat="59.9525201" lon="17.718496">
        <ele>48.684</ele>
        <time>2014-06-25T18:54:40Z</time>
      </trkpt>
      <trkpt lat="59.9525153" lon="17.7185225">
        <ele>48.684</ele>
        <time>2014-06-25T18:54:41Z</time>
      </trkpt>
      <trkpt lat="59.9525113" lon="17.7185628">
        <ele>49.6453</ele>
        <time>2014-06-25T18:54:42Z</time>
      </trkpt>
      <trkpt lat="59.9525114" lon="17.7185983">
        <ele>50.6066</ele>
        <time>2014-06-25T18:54:43Z</time>
      </trkpt>
      <trkpt lat="59.9525096" lon="17.7186334">
        <ele>50.6066</ele>
        <time>2014-06-25T18:54:44Z</time>
      </trkpt>
      <trkpt lat="59.9525063" lon="17.7186635">
        <ele>50.126</ele>
        <time>2014-06-25T18:54:45Z</time>
      </trkpt>
      <trkpt lat="59.9525015" lon="17.7186976">
        <ele>50.126</ele>
        <time>2014-06-25T18:54:46Z</time>
      </trkpt>
      <trkpt lat="59.9524927" lon="17.7187267">
        <ele>49.6453</ele>
        <time>2014-06-25T18:54:47Z</time>
      </trkpt>
      <trkpt lat="59.9524883" lon="17.718751">
        <ele>49.1646</ele>
        <time>2014-06-25T18:54:48Z</time>
      </trkpt>
      <trkpt lat="59.9524829" lon="17.7187821">
        <ele>49.6453</ele>
        <time>2014-06-25T18:54:49Z</time>
      </trkpt>
      <trkpt lat="59.9524773" lon="17.7188054">
        <ele>49.6453</ele>
        <time>2014-06-25T18:54:50Z</time>
      </trkpt>
      <trkpt lat="59.9524709" lon="17.7188314">
        <ele>49.6453</ele>
        <time>2014-06-25T18:54:51Z</time>
      </trkpt>
      <trkpt lat="59.952461" lon="17.718853">
        <ele>49.1646</ele>
        <time>2014-06-25T18:54:52Z</time>
      </trkpt>
      <trkpt lat="59.952449" lon="17.7188829">
        <ele>49.1646</ele>
        <time>2014-06-25T18:54:53Z</time>
      </trkpt>
      <trkpt lat="59.9524362" lon="17.7189137">
        <ele>49.1646</ele>
        <time>2014-06-25T18:54:54Z</time>
      </trkpt>
      <trkpt lat="59.9524257" lon="17.7189462">
        <ele>48.684</ele>
        <time>2014-06-25T18:54:55Z</time>
      </trkpt>
      <trkpt lat="59.9524175" lon="17.7189722">
        <ele>48.684</ele>
        <time>2014-06-25T18:54:56Z</time>
      </trkpt>
      <trkpt lat="59.9524145" lon="17.7189984">
        <ele>48.684</ele>
        <time>2014-06-25T18:54:57Z</time>
      </trkpt>
      <trkpt lat="59.9524124" lon="17.7190354">
        <ele>49.1646</ele>
        <time>2014-06-25T18:54:58Z</time>
      </trkpt>
      <trkpt lat="59.9524155" lon="17.7190628">
        <ele>49.6453</ele>
        <time>2014-06-25T18:54:59Z</time>
      </trkpt>
      <trkpt lat="59.9524155" lon="17.7190947">
        <ele>48.684</ele>
        <time>2014-06-25T18:55:00Z</time>
      </trkpt>
      <trkpt lat="59.9524197" lon="17.719139">
        <ele>49.1646</ele>
        <time>2014-06-25T18:55:01Z</time>
      </trkpt>
      <trkpt lat="59.9524176" lon="17.7191719">
        <ele>48.684</ele>
        <time>2014-06-25T18:55:02Z</time>
      </trkpt>
      <trkpt lat="59.9524153" lon="17.7192079">
        <ele>48.684</ele>
        <time>2014-06-25T18:55:03Z</time>
      </trkpt>
      <trkpt lat="59.9524083" lon="17.719237">
        <ele>48.2034</ele>
        <time>2014-06-25T18:55:04Z</time>
      </trkpt>
      <trkpt lat="59.9524049" lon="17.7192595">
        <ele>48.684</ele>
        <time>2014-06-25T18:55:05Z</time>
      </trkpt>
      <trkpt lat="59.9524018" lon="17.7192852">
        <ele>49.1646</ele>
        <time>2014-06-25T18:55:06Z</time>
      </trkpt>
      <trkpt lat="59.9523977" lon="17.7193111">
        <ele>48.2034</ele>
        <time>2014-06-25T18:55:07Z</time>
      </trkpt>
      <trkpt lat="59.9523983" lon="17.7193476">
        <ele>48.684</ele>
        <time>2014-06-25T18:55:08Z</time>
      </trkpt>
      <trkpt lat="59.9523938" lon="17.7193778">
        <ele>48.2034</ele>
        <time>2014-06-25T18:55:09Z</time>
      </trkpt>
      <trkpt lat="59.9523901" lon="17.7194128">
        <ele>47.7225</ele>
        <time>2014-06-25T18:55:10Z</time>
      </trkpt>
      <trkpt lat="59.9523869" lon="17.7194476">
        <ele>47.2418</ele>
        <time>2014-06-25T18:55:11Z</time>
      </trkpt>
      <trkpt lat="59.9523879" lon="17.7194832">
        <ele>47.2418</ele>
        <time>2014-06-25T18:55:12Z</time>
      </trkpt>
      <trkpt lat="59.9523877" lon="17.7195135">
        <ele>46.2806</ele>
        <time>2014-06-25T18:55:13Z</time>
      </trkpt>
      <trkpt lat="59.9523897" lon="17.7195415">
        <ele>45.7999</ele>
        <time>2014-06-25T18:55:14Z</time>
      </trkpt>
      <trkpt lat="59.9523958" lon="17.7195773">
        <ele>46.2806</ele>
        <time>2014-06-25T18:55:15Z</time>
      </trkpt>
      <trkpt lat="59.9524066" lon="17.7196112">
        <ele>47.2418</ele>
        <time>2014-06-25T18:55:16Z</time>
      </trkpt>
      <trkpt lat="59.9524217" lon="17.7196413">
        <ele>47.7225</ele>
        <time>2014-06-25T18:55:17Z</time>
      </trkpt>
      <trkpt lat="59.9524369" lon="17.7196729">
        <ele>47.7225</ele>
        <time>2014-06-25T18:55:18Z</time>
      </trkpt>
      <trkpt lat="59.9524557" lon="17.7197045">
        <ele>48.2034</ele>
        <time>2014-06-25T18:55:19Z</time>
      </trkpt>
      <trkpt lat="59.9524632" lon="17.7197388">
        <ele>48.2034</ele>
        <time>2014-06-25T18:55:20Z</time>
      </trkpt>
      <trkpt lat="59.9524783" lon="17.7197704">
        <ele>47.7225</ele>
        <time>2014-06-25T18:55:21Z</time>
      </trkpt>
      <trkpt lat="59.9524878" lon="17.7197873">
        <ele>47.7225</ele>
        <time>2014-06-25T18:55:22Z</time>
      </trkpt>
      <trkpt lat="59.9524922" lon="17.7198233">
        <ele>48.2034</ele>
        <time>2014-06-25T18:55:23Z</time>
      </trkpt>
      <trkpt lat="59.9524953" lon="17.7198517">
        <ele>48.684</ele>
        <time>2014-06-25T18:55:24Z</time>
      </trkpt>
      <trkpt lat="59.9524999" lon="17.7198792">
        <ele>48.2034</ele>
        <time>2014-06-25T18:55:25Z</time>
      </trkpt>
      <trkpt lat="59.9525016" lon="17.7199092">
        <ele>49.1646</ele>
        <time>2014-06-25T18:55:26Z</time>
      </trkpt>
      <trkpt lat="59.9525055" lon="17.7199409">
        <ele>48.684</ele>
        <time>2014-06-25T18:55:27Z</time>
      </trkpt>
      <trkpt lat="59.9525088" lon="17.7199746">
        <ele>49.1646</ele>
        <time>2014-06-25T18:55:28Z</time>
      </trkpt>
      <trkpt lat="59.9525154" lon="17.7200113">
        <ele>48.2034</ele>
        <time>2014-06-25T18:55:29Z</time>
      </trkpt>
      <trkpt lat="59.9525217" lon="17.720043">
        <ele>48.2034</ele>
        <time>2014-06-25T18:55:30Z</time>
      </trkpt>
      <trkpt lat="59.9525238" lon="17.7200719">
        <ele>47.2418</ele>
        <time>2014-06-25T18:55:31Z</time>
      </trkpt>
      <trkpt lat="59.9525309" lon="17.7200948">
        <ele>46.7612</ele>
        <time>2014-06-25T18:55:32Z</time>
      </trkpt>
      <trkpt lat="59.9525347" lon="17.7201236">
        <ele>45.7999</ele>
        <time>2014-06-25T18:55:33Z</time>
      </trkpt>
      <trkpt lat="59.9525331" lon="17.7201552">
        <ele>45.3192</ele>
        <time>2014-06-25T18:55:34Z</time>
      </trkpt>
      <trkpt lat="59.9525278" lon="17.7201885">
        <ele>45.3192</ele>
        <time>2014-06-25T18:55:35Z</time>
      </trkpt>
      <trkpt lat="59.9525289" lon="17.7202215">
        <ele>45.3192</ele>
        <time>2014-06-25T18:55:36Z</time>
      </trkpt>
      <trkpt lat="59.9525299" lon="17.7202542">
        <ele>44.8386</ele>
        <time>2014-06-25T18:55:37Z</time>
      </trkpt>
      <trkpt lat="59.9525288" lon="17.7202827">
        <ele>43.3966</ele>
        <time>2014-06-25T18:55:38Z</time>
      </trkpt>
      <trkpt lat="59.9525278" lon="17.720308">
        <ele>42.916</ele>
        <time>2014-06-25T18:55:39Z</time>
      </trkpt>
      <trkpt lat="59.9525265" lon="17.7203326">
        <ele>41.9547</ele>
        <time>2014-06-25T18:55:40Z</time>
      </trkpt>
      <trkpt lat="59.9525208" lon="17.7203609">
        <ele>41.474</ele>
        <time>2014-06-25T18:55:41Z</time>
      </trkpt>
      <trkpt lat="59.9525158" lon="17.720391">
        <ele>40.9934</ele>
        <time>2014-06-25T18:55:42Z</time>
      </trkpt>
      <trkpt lat="59.9525094" lon="17.7204211">
        <ele>40.5128</ele>
        <time>2014-06-25T18:55:43Z</time>
      </trkpt>
      <trkpt lat="59.9525055" lon="17.7204512">
        <ele>40.0321</ele>
        <time>2014-06-25T18:55:44Z</time>
      </trkpt>
      <trkpt lat="59.9525018" lon="17.7204806">
        <ele>40.0321</ele>
        <time>2014-06-25T18:55:45Z</time>
      </trkpt>
      <trkpt lat="59.9524982" lon="17.7205169">
        <ele>40.0321</ele>
        <time>2014-06-25T18:55:46Z</time>
      </trkpt>
      <trkpt lat="59.9524958" lon="17.7205454">
        <ele>40.0321</ele>
        <time>2014-06-25T18:55:47Z</time>
      </trkpt>
      <trkpt lat="59.9524961" lon="17.7205733">
        <ele>40.9934</ele>
        <time>2014-06-25T18:55:48Z</time>
      </trkpt>
      <trkpt lat="59.9524975" lon="17.7205992">
        <ele>40.9934</ele>
        <time>2014-06-25T18:55:49Z</time>
      </trkpt>
      <trkpt lat="59.9525019" lon="17.7206277">
        <ele>41.474</ele>
        <time>2014-06-25T18:55:50Z</time>
      </trkpt>
      <trkpt lat="59.9525025" lon="17.7206571">
        <ele>41.474</ele>
        <time>2014-06-25T18:55:51Z</time>
      </trkpt>
      <trkpt lat="59.9525057" lon="17.7206789">
        <ele>41.9547</ele>
        <time>2014-06-25T18:55:52Z</time>
      </trkpt>
      <trkpt lat="59.9525103" lon="17.7207016">
        <ele>41.474</ele>
        <time>2014-06-25T18:55:53Z</time>
      </trkpt>
      <trkpt lat="59.9525134" lon="17.7207358">
        <ele>41.9547</ele>
        <time>2014-06-25T18:55:54Z</time>
      </trkpt>
      <trkpt lat="59.9525138" lon="17.7207719">
        <ele>42.4354</ele>
        <time>2014-06-25T18:55:55Z</time>
      </trkpt>
      <trkpt lat="59.9525155" lon="17.7208189">
        <ele>42.916</ele>
        <time>2014-06-25T18:55:56Z</time>
      </trkpt>
      <trkpt lat="59.9525217" lon="17.7208832">
        <ele>46.2806</ele>
        <time>2014-06-25T18:55:57Z</time>
      </trkpt>
      <trkpt lat="59.9525227" lon="17.7209342">
        <ele>48.684</ele>
        <time>2014-06-25T18:55:58Z</time>
      </trkpt>
      <trkpt lat="59.9525283" lon="17.7209789">
        <ele>49.1646</ele>
        <time>2014-06-25T18:55:59Z</time>
      </trkpt>
      <trkpt lat="59.9525241" lon="17.7210239">
        <ele>49.1646</ele>
        <time>2014-06-25T18:56:00Z</time>
      </trkpt>
      <trkpt lat="59.9525217" lon="17.7210592">
        <ele>48.684</ele>
        <time>2014-06-25T18:56:01Z</time>
      </trkpt>
      <trkpt lat="59.9525272" lon="17.7210981">
        <ele>49.1646</ele>
        <time>2014-06-25T18:56:02Z</time>
      </trkpt>
      <trkpt lat="59.9525277" lon="17.7211359">
        <ele>49.1646</ele>
        <time>2014-06-25T18:56:03Z</time>
      </trkpt>
      <trkpt lat="59.952521" lon="17.7211763">
        <ele>49.1646</ele>
        <time>2014-06-25T18:56:04Z</time>
      </trkpt>
      <trkpt lat="59.9525145" lon="17.7212141">
        <ele>49.1646</ele>
        <time>2014-06-25T18:56:05Z</time>
      </trkpt>
      <trkpt lat="59.9525072" lon="17.7212507">
        <ele>49.1646</ele>
        <time>2014-06-25T18:56:06Z</time>
      </trkpt>
      <trkpt lat="59.9524988" lon="17.7212964">
        <ele>49.1646</ele>
        <time>2014-06-25T18:56:07Z</time>
      </trkpt>
      <trkpt lat="59.9524932" lon="17.7213275">
        <ele>49.1646</ele>
        <time>2014-06-25T18:56:08Z</time>
      </trkpt>
      <trkpt lat="59.9524894" lon="17.7213548">
        <ele>50.126</ele>
        <time>2014-06-25T18:56:09Z</time>
      </trkpt>
      <trkpt lat="59.9524868" lon="17.7213871">
        <ele>51.5679</ele>
        <time>2014-06-25T18:56:10Z</time>
      </trkpt>
      <trkpt lat="59.9524823" lon="17.7214296">
        <ele>53.0098</ele>
        <time>2014-06-25T18:56:11Z</time>
      </trkpt>
      <trkpt lat="59.9524823" lon="17.7214615">
        <ele>53.4905</ele>
        <time>2014-06-25T18:56:12Z</time>
      </trkpt>
      <trkpt lat="59.9524813" lon="17.7214906">
        <ele>52.5292</ele>
        <time>2014-06-25T18:56:13Z</time>
      </trkpt>
      <trkpt lat="59.9524808" lon="17.7215157">
        <ele>52.5292</ele>
        <time>2014-06-25T18:56:14Z</time>
      </trkpt>
      <trkpt lat="59.9524778" lon="17.7215429">
        <ele>52.0486</ele>
        <time>2014-06-25T18:56:15Z</time>
      </trkpt>
      <trkpt lat="59.9524844" lon="17.7215794">
        <ele>52.5292</ele>
        <time>2014-06-25T18:56:16Z</time>
      </trkpt>
      <trkpt lat="59.9524891" lon="17.7216174">
        <ele>52.5292</ele>
        <time>2014-06-25T18:56:17Z</time>
      </trkpt>
      <trkpt lat="59.9524998" lon="17.7216575">
        <ele>53.0098</ele>
        <time>2014-06-25T18:56:18Z</time>
      </trkpt>
      <trkpt lat="59.9525099" lon="17.7216963">
        <ele>53.9712</ele>
        <time>2014-06-25T18:56:19Z</time>
      </trkpt>
      <trkpt lat="59.9525182" lon="17.7217333">
        <ele>55.4131</ele>
        <time>2014-06-25T18:56:20Z</time>
      </trkpt>
      <trkpt lat="59.952529" lon="17.7217627">
        <ele>56.3745</ele>
        <time>2014-06-25T18:56:21Z</time>
      </trkpt>
      <trkpt lat="59.9525391" lon="17.7217972">
        <ele>57.3358</ele>
        <time>2014-06-25T18:56:22Z</time>
      </trkpt>
      <trkpt lat="59.9525482" lon="17.7218335">
        <ele>57.3358</ele>
        <time>2014-06-25T18:56:23Z</time>
      </trkpt>
      <trkpt lat="59.9525503" lon="17.721873">
        <ele>57.3358</ele>
        <time>2014-06-25T18:56:24Z</time>
      </trkpt>
      <trkpt lat="59.9525532" lon="17.7219026">
        <ele>56.8551</ele>
        <time>2014-06-25T18:56:25Z</time>
      </trkpt>
      <trkpt lat="59.9525579" lon="17.7219329">
        <ele>56.8551</ele>
        <time>2014-06-25T18:56:26Z</time>
      </trkpt>
      <trkpt lat="59.9525625" lon="17.7219641">
        <ele>57.3358</ele>
        <time>2014-06-25T18:56:27Z</time>
      </trkpt>
      <trkpt lat="59.9525698" lon="17.7219974">
        <ele>57.3358</ele>
        <time>2014-06-25T18:56:28Z</time>
      </trkpt>
      <trkpt lat="59.9525746" lon="17.722035">
        <ele>57.3358</ele>
        <time>2014-06-25T18:56:29Z</time>
      </trkpt>
      <trkpt lat="59.9525764" lon="17.7220713">
        <ele>56.3745</ele>
        <time>2014-06-25T18:56:30Z</time>
      </trkpt>
      <trkpt lat="59.9525764" lon="17.7221057">
        <ele>55.8938</ele>
        <time>2014-06-25T18:56:31Z</time>
      </trkpt>
      <trkpt lat="59.9525765" lon="17.7221439">
        <ele>56.3745</ele>
        <time>2014-06-25T18:56:32Z</time>
      </trkpt>
      <trkpt lat="59.9525729" lon="17.7221833">
        <ele>56.8551</ele>
        <time>2014-06-25T18:56:33Z</time>
      </trkpt>
      <trkpt lat="59.9525724" lon="17.7222205">
        <ele>56.8551</ele>
        <time>2014-06-25T18:56:34Z</time>
      </trkpt>
      <trkpt lat="59.9525715" lon="17.7222538">
        <ele>56.8551</ele>
        <time>2014-06-25T18:56:35Z</time>
      </trkpt>
      <trkpt lat="59.9525719" lon="17.7222823">
        <ele>56.8551</ele>
        <time>2014-06-25T18:56:36Z</time>
      </trkpt>
      <trkpt lat="59.9525666" lon="17.7223086">
        <ele>56.8551</ele>
        <time>2014-06-25T18:56:37Z</time>
      </trkpt>
      <trkpt lat="59.9525606" lon="17.7223335">
        <ele>56.8551</ele>
        <time>2014-06-25T18:56:38Z</time>
      </trkpt>
      <trkpt lat="59.9525532" lon="17.7223615">
        <ele>56.3745</ele>
        <time>2014-06-25T18:56:39Z</time>
      </trkpt>
      <trkpt lat="59.952544" lon="17.7223895">
        <ele>55.8938</ele>
        <time>2014-06-25T18:56:40Z</time>
      </trkpt>
      <trkpt lat="59.9525371" lon="17.7224252">
        <ele>55.8938</ele>
        <time>2014-06-25T18:56:41Z</time>
      </trkpt>
      <trkpt lat="59.9525298" lon="17.7224546">
        <ele>55.4131</ele>
        <time>2014-06-25T18:56:42Z</time>
      </trkpt>
      <trkpt lat="59.9525211" lon="17.7224799">
        <ele>54.9324</ele>
        <time>2014-06-25T18:56:43Z</time>
      </trkpt>
      <trkpt lat="59.952516" lon="17.7225076">
        <ele>54.4518</ele>
        <time>2014-06-25T18:56:44Z</time>
      </trkpt>
      <trkpt lat="59.9525119" lon="17.7225366">
        <ele>53.0098</ele>
        <time>2014-06-25T18:56:45Z</time>
      </trkpt>
      <trkpt lat="59.9525067" lon="17.7225646">
        <ele>51.5679</ele>
        <time>2014-06-25T18:56:46Z</time>
      </trkpt>
      <trkpt lat="59.9525003" lon="17.7225941">
        <ele>49.6453</ele>
        <time>2014-06-25T18:56:47Z</time>
      </trkpt>
      <trkpt lat="59.9525008" lon="17.7226216">
        <ele>49.1646</ele>
        <time>2014-06-25T18:56:48Z</time>
      </trkpt>
      <trkpt lat="59.9524968" lon="17.72265">
        <ele>48.684</ele>
        <time>2014-06-25T18:56:49Z</time>
      </trkpt>
      <trkpt lat="59.9524911" lon="17.7226778">
        <ele>48.2034</ele>
        <time>2014-06-25T18:56:50Z</time>
      </trkpt>
      <trkpt lat="59.9524895" lon="17.7227154">
        <ele>49.6453</ele>
        <time>2014-06-25T18:56:51Z</time>
      </trkpt>
      <trkpt lat="59.9524884" lon="17.7227503">
        <ele>50.126</ele>
        <time>2014-06-25T18:56:52Z</time>
      </trkpt>
      <trkpt lat="59.9524849" lon="17.7227835">
        <ele>50.6066</ele>
        <time>2014-06-25T18:56:53Z</time>
      </trkpt>
      <trkpt lat="59.9524839" lon="17.7228166">
        <ele>51.0872</ele>
        <time>2014-06-25T18:56:54Z</time>
      </trkpt>
      <trkpt lat="59.9524854" lon="17.7228473">
        <ele>51.5679</ele>
        <time>2014-06-25T18:56:55Z</time>
      </trkpt>
      <trkpt lat="59.9524906" lon="17.7228814">
        <ele>51.0872</ele>
        <time>2014-06-25T18:56:56Z</time>
      </trkpt>
      <trkpt lat="59.9524946" lon="17.722914">
        <ele>50.6066</ele>
        <time>2014-06-25T18:56:57Z</time>
      </trkpt>
      <trkpt lat="59.9524977" lon="17.7229431">
        <ele>49.6453</ele>
        <time>2014-06-25T18:56:58Z</time>
      </trkpt>
      <trkpt lat="59.9525029" lon="17.7229686">
        <ele>48.2034</ele>
        <time>2014-06-25T18:56:59Z</time>
      </trkpt>
      <trkpt lat="59.9524943" lon="17.7229908">
        <ele>49.1646</ele>
        <time>2014-06-25T18:57:00Z</time>
      </trkpt>
      <trkpt lat="59.9524983" lon="17.7230148">
        <ele>48.684</ele>
        <time>2014-06-25T18:57:01Z</time>
      </trkpt>
      <trkpt lat="59.9525015" lon="17.7230425">
        <ele>47.7225</ele>
        <time>2014-06-25T18:57:02Z</time>
      </trkpt>
      <trkpt lat="59.9524977" lon="17.7230723">
        <ele>48.2034</ele>
        <time>2014-06-25T18:57:03Z</time>
      </trkpt>
      <trkpt lat="59.9525051" lon="17.7231017">
        <ele>46.7612</ele>
        <time>2014-06-25T18:57:04Z</time>
      </trkpt>
      <trkpt lat="59.9525103" lon="17.7231327">
        <ele>45.7999</ele>
        <time>2014-06-25T18:57:05Z</time>
      </trkpt>
      <trkpt lat="59.9525139" lon="17.7231624">
        <ele>46.2806</ele>
        <time>2014-06-25T18:57:06Z</time>
      </trkpt>
      <trkpt lat="59.9525228" lon="17.7231917">
        <ele>46.7612</ele>
        <time>2014-06-25T18:57:07Z</time>
      </trkpt>
      <trkpt lat="59.952527" lon="17.7232192">
        <ele>47.7225</ele>
        <time>2014-06-25T18:57:08Z</time>
      </trkpt>
      <trkpt lat="59.9525317" lon="17.7232484">
        <ele>47.7225</ele>
        <time>2014-06-25T18:57:09Z</time>
      </trkpt>
      <trkpt lat="59.952535" lon="17.7232747">
        <ele>48.2034</ele>
        <time>2014-06-25T18:57:10Z</time>
      </trkpt>
      <trkpt lat="59.9525392" lon="17.7232989">
        <ele>48.2034</ele>
        <time>2014-06-25T18:57:11Z</time>
      </trkpt>
      <trkpt lat="59.952546" lon="17.7233193">
        <ele>48.684</ele>
        <time>2014-06-25T18:57:12Z</time>
      </trkpt>
      <trkpt lat="59.952549" lon="17.7233426">
        <ele>48.2034</ele>
        <time>2014-06-25T18:57:13Z</time>
      </trkpt>
      <trkpt lat="59.9525545" lon="17.7233719">
        <ele>48.684</ele>
        <time>2014-06-25T18:57:14Z</time>
      </trkpt>
      <trkpt lat="59.9525612" lon="17.7234032">
        <ele>48.684</ele>
        <time>2014-06-25T18:57:15Z</time>
      </trkpt>
      <trkpt lat="59.952575" lon="17.7234349">
        <ele>49.6453</ele>
        <time>2014-06-25T18:57:16Z</time>
      </trkpt>
      <trkpt lat="59.9525828" lon="17.7234664">
        <ele>51.0872</ele>
        <time>2014-06-25T18:57:17Z</time>
      </trkpt>
      <trkpt lat="59.9525896" lon="17.7234987">
        <ele>51.5679</ele>
        <time>2014-06-25T18:57:18Z</time>
      </trkpt>
      <trkpt lat="59.952608" lon="17.7235256">
        <ele>53.0098</ele>
        <time>2014-06-25T18:57:19Z</time>
      </trkpt>
      <trkpt lat="59.9526201" lon="17.7235477">
        <ele>53.9712</ele>
        <time>2014-06-25T18:57:20Z</time>
      </trkpt>
      <trkpt lat="59.9526306" lon="17.7235668">
        <ele>53.4905</ele>
        <time>2014-06-25T18:57:21Z</time>
      </trkpt>
      <trkpt lat="59.9526409" lon="17.7235866">
        <ele>53.9712</ele>
        <time>2014-06-25T18:57:22Z</time>
      </trkpt>
      <trkpt lat="59.9526477" lon="17.7236058">
        <ele>53.0098</ele>
        <time>2014-06-25T18:57:23Z</time>
      </trkpt>
      <trkpt lat="59.9526578" lon="17.7236286">
        <ele>52.5292</ele>
        <time>2014-06-25T18:57:24Z</time>
      </trkpt>
      <trkpt lat="59.9526689" lon="17.7236633">
        <ele>53.0098</ele>
        <time>2014-06-25T18:57:25Z</time>
      </trkpt>
      <trkpt lat="59.9526753" lon="17.7236981">
        <ele>52.5292</ele>
        <time>2014-06-25T18:57:26Z</time>
      </trkpt>
      <trkpt lat="59.9526837" lon="17.723727">
        <ele>52.5292</ele>
        <time>2014-06-25T18:57:27Z</time>
      </trkpt>
      <trkpt lat="59.9526865" lon="17.723763">
        <ele>52.0486</ele>
        <time>2014-06-25T18:57:28Z</time>
      </trkpt>
      <trkpt lat="59.9526901" lon="17.7237996">
        <ele>51.5679</ele>
        <time>2014-06-25T18:57:29Z</time>
      </trkpt>
      <trkpt lat="59.9526931" lon="17.7238301">
        <ele>51.0872</ele>
        <time>2014-06-25T18:57:30Z</time>
      </trkpt>
      <trkpt lat="59.952695" lon="17.7238657">
        <ele>51.0872</ele>
        <time>2014-06-25T18:57:31Z</time>
      </trkpt>
      <trkpt lat="59.9526945" lon="17.7238993">
        <ele>50.6066</ele>
        <time>2014-06-25T18:57:32Z</time>
      </trkpt>
      <trkpt lat="59.9526935" lon="17.7239309">
        <ele>50.126</ele>
        <time>2014-06-25T18:57:33Z</time>
      </trkpt>
      <trkpt lat="59.9526946" lon="17.7239643">
        <ele>50.6066</ele>
        <time>2014-06-25T18:57:34Z</time>
      </trkpt>
      <trkpt lat="59.9526927" lon="17.7239979">
        <ele>50.126</ele>
        <time>2014-06-25T18:57:35Z</time>
      </trkpt>
      <trkpt lat="59.9526885" lon="17.7240284">
        <ele>49.6453</ele>
        <time>2014-06-25T18:57:36Z</time>
      </trkpt>
      <trkpt lat="59.9526821" lon="17.7240621">
        <ele>49.6453</ele>
        <time>2014-06-25T18:57:37Z</time>
      </trkpt>
      <trkpt lat="59.9526771" lon="17.7240937">
        <ele>49.6453</ele>
        <time>2014-06-25T18:57:38Z</time>
      </trkpt>
      <trkpt lat="59.9526709" lon="17.7241243">
        <ele>49.6453</ele>
        <time>2014-06-25T18:57:39Z</time>
      </trkpt>
      <trkpt lat="59.9526631" lon="17.7241527">
        <ele>49.6453</ele>
        <time>2014-06-25T18:57:40Z</time>
      </trkpt>
      <trkpt lat="59.9526559" lon="17.7241814">
        <ele>48.684</ele>
        <time>2014-06-25T18:57:41Z</time>
      </trkpt>
      <trkpt lat="59.9526467" lon="17.7242098">
        <ele>49.1646</ele>
        <time>2014-06-25T18:57:42Z</time>
      </trkpt>
      <trkpt lat="59.9526329" lon="17.7242377">
        <ele>49.1646</ele>
        <time>2014-06-25T18:57:43Z</time>
      </trkpt>
      <trkpt lat="59.9526217" lon="17.7242593">
        <ele>48.2034</ele>
        <time>2014-06-25T18:57:44Z</time>
      </trkpt>
      <trkpt lat="59.9526127" lon="17.7242776">
        <ele>47.7225</ele>
        <time>2014-06-25T18:57:45Z</time>
      </trkpt>
      <trkpt lat="59.9526091" lon="17.7242968">
        <ele>47.7225</ele>
        <time>2014-06-25T18:57:46Z</time>
      </trkpt>
      <trkpt lat="59.9526035" lon="17.7243137">
        <ele>46.7612</ele>
        <time>2014-06-25T18:57:47Z</time>
      </trkpt>
      <trkpt lat="59.9525964" lon="17.7243517">
        <ele>48.2034</ele>
        <time>2014-06-25T18:57:48Z</time>
      </trkpt>
      <trkpt lat="59.9525858" lon="17.724375">
        <ele>47.7225</ele>
        <time>2014-06-25T18:57:49Z</time>
      </trkpt>
      <trkpt lat="59.9525714" lon="17.7244056">
        <ele>48.2034</ele>
        <time>2014-06-25T18:57:50Z</time>
      </trkpt>
      <trkpt lat="59.9525595" lon="17.7244398">
        <ele>48.2034</ele>
        <time>2014-06-25T18:57:51Z</time>
      </trkpt>
      <trkpt lat="59.9525508" lon="17.7244782">
        <ele>48.684</ele>
        <time>2014-06-25T18:57:52Z</time>
      </trkpt>
      <trkpt lat="59.9525418" lon="17.7245097">
        <ele>48.684</ele>
        <time>2014-06-25T18:57:53Z</time>
      </trkpt>
      <trkpt lat="59.9525366" lon="17.7245435">
        <ele>49.6453</ele>
        <time>2014-06-25T18:57:54Z</time>
      </trkpt>
      <trkpt lat="59.9525248" lon="17.7245645">
        <ele>49.6453</ele>
        <time>2014-06-25T18:57:55Z</time>
      </trkpt>
      <trkpt lat="59.9525065" lon="17.7245853">
        <ele>50.126</ele>
        <time>2014-06-25T18:57:56Z</time>
      </trkpt>
      <trkpt lat="59.952485" lon="17.7246043">
        <ele>49.6453</ele>
        <time>2014-06-25T18:57:57Z</time>
      </trkpt>
      <trkpt lat="59.9524643" lon="17.7246317">
        <ele>48.684</ele>
        <time>2014-06-25T18:57:58Z</time>
      </trkpt>
      <trkpt lat="59.9524469" lon="17.7246584">
        <ele>48.2034</ele>
        <time>2014-06-25T18:57:59Z</time>
      </trkpt>
      <trkpt lat="59.9524295" lon="17.7246785">
        <ele>47.2418</ele>
        <time>2014-06-25T18:58:00Z</time>
      </trkpt>
      <trkpt lat="59.9524155" lon="17.7246993">
        <ele>46.2806</ele>
        <time>2014-06-25T18:58:01Z</time>
      </trkpt>
      <trkpt lat="59.9524029" lon="17.7247235">
        <ele>45.3192</ele>
        <time>2014-06-25T18:58:02Z</time>
      </trkpt>
      <trkpt lat="59.9523866" lon="17.7247448">
        <ele>44.8386</ele>
        <time>2014-06-25T18:58:03Z</time>
      </trkpt>
      <trkpt lat="59.9523734" lon="17.7247673">
        <ele>44.358</ele>
        <time>2014-06-25T18:58:04Z</time>
      </trkpt>
      <trkpt lat="59.952361" lon="17.7247904">
        <ele>43.8773</ele>
        <time>2014-06-25T18:58:05Z</time>
      </trkpt>
      <trkpt lat="59.9523487" lon="17.7248138">
        <ele>43.3966</ele>
        <time>2014-06-25T18:58:06Z</time>
      </trkpt>
      <trkpt lat="59.9523342" lon="17.7248339">
        <ele>42.916</ele>
        <time>2014-06-25T18:58:07Z</time>
      </trkpt>
      <trkpt lat="59.9523202" lon="17.7248476">
        <ele>42.916</ele>
        <time>2014-06-25T18:58:08Z</time>
      </trkpt>
      <trkpt lat="59.9523086" lon="17.724853">
        <ele>42.4354</ele>
        <time>2014-06-25T18:58:09Z</time>
      </trkpt>
      <trkpt lat="59.9522952" lon="17.7248688">
        <ele>42.4354</ele>
        <time>2014-06-25T18:58:10Z</time>
      </trkpt>
      <trkpt lat="59.9522845" lon="17.7248941">
        <ele>41.9547</ele>
        <time>2014-06-25T18:58:11Z</time>
      </trkpt>
      <trkpt lat="59.9522739" lon="17.7249146">
        <ele>41.9547</ele>
        <time>2014-06-25T18:58:12Z</time>
      </trkpt>
      <trkpt lat="59.9522623" lon="17.7249425">
        <ele>42.916</ele>
        <time>2014-06-25T18:58:13Z</time>
      </trkpt>
      <trkpt lat="59.9522509" lon="17.7249728">
        <ele>43.3966</ele>
        <time>2014-06-25T18:58:14Z</time>
      </trkpt>
      <trkpt lat="59.9522393" lon="17.7249966">
        <ele>43.3966</ele>
        <time>2014-06-25T18:58:15Z</time>
      </trkpt>
      <trkpt lat="59.9522296" lon="17.7250263">
        <ele>43.8773</ele>
        <time>2014-06-25T18:58:16Z</time>
      </trkpt>
      <trkpt lat="59.9522227" lon="17.7250516">
        <ele>43.8773</ele>
        <time>2014-06-25T18:58:17Z</time>
      </trkpt>
      <trkpt lat="59.9522136" lon="17.7250762">
        <ele>43.3966</ele>
        <time>2014-06-25T18:58:18Z</time>
      </trkpt>
      <trkpt lat="59.952202" lon="17.725092">
        <ele>42.916</ele>
        <time>2014-06-25T18:58:19Z</time>
      </trkpt>
      <trkpt lat="59.9521912" lon="17.7251167">
        <ele>42.4354</ele>
        <time>2014-06-25T18:58:20Z</time>
      </trkpt>
      <trkpt lat="59.9521827" lon="17.7251426">
        <ele>42.4354</ele>
        <time>2014-06-25T18:58:21Z</time>
      </trkpt>
      <trkpt lat="59.9521751" lon="17.7251697">
        <ele>41.474</ele>
        <time>2014-06-25T18:58:22Z</time>
      </trkpt>
      <trkpt lat="59.9521664" lon="17.7251977">
        <ele>40.9934</ele>
        <time>2014-06-25T18:58:23Z</time>
      </trkpt>
      <trkpt lat="59.9521586" lon="17.7252169">
        <ele>40.5128</ele>
        <time>2014-06-25T18:58:24Z</time>
      </trkpt>
      <trkpt lat="59.9521492" lon="17.7252399">
        <ele>40.9934</ele>
        <time>2014-06-25T18:58:25Z</time>
      </trkpt>
      <trkpt lat="59.9521373" lon="17.7252578">
        <ele>40.5128</ele>
        <time>2014-06-25T18:58:26Z</time>
      </trkpt>
      <trkpt lat="59.9521247" lon="17.7252876">
        <ele>41.474</ele>
        <time>2014-06-25T18:58:27Z</time>
      </trkpt>
      <trkpt lat="59.9521154" lon="17.7253181">
        <ele>41.9547</ele>
        <time>2014-06-25T18:58:28Z</time>
      </trkpt>
      <trkpt lat="59.9521026" lon="17.7253516">
        <ele>42.916</ele>
        <time>2014-06-25T18:58:29Z</time>
      </trkpt>
      <trkpt lat="59.9520906" lon="17.7253758">
        <ele>43.3966</ele>
        <time>2014-06-25T18:58:30Z</time>
      </trkpt>
      <trkpt lat="59.9520762" lon="17.725406">
        <ele>43.8773</ele>
        <time>2014-06-25T18:58:31Z</time>
      </trkpt>
      <trkpt lat="59.9520626" lon="17.7254281">
        <ele>44.358</ele>
        <time>2014-06-25T18:58:32Z</time>
      </trkpt>
      <trkpt lat="59.9520528" lon="17.7254486">
        <ele>43.8773</ele>
        <time>2014-06-25T18:58:33Z</time>
      </trkpt>
      <trkpt lat="59.952041" lon="17.7254711">
        <ele>43.3966</ele>
        <time>2014-06-25T18:58:34Z</time>
      </trkpt>
      <trkpt lat="59.952027" lon="17.7254873">
        <ele>43.3966</ele>
        <time>2014-06-25T18:58:35Z</time>
      </trkpt>
      <trkpt lat="59.9520145" lon="17.7255048">
        <ele>43.3966</ele>
        <time>2014-06-25T18:58:36Z</time>
      </trkpt>
      <trkpt lat="59.9520038" lon="17.7255261">
        <ele>43.8773</ele>
        <time>2014-06-25T18:58:37Z</time>
      </trkpt>
      <trkpt lat="59.9519981" lon="17.7255622">
        <ele>44.358</ele>
        <time>2014-06-25T18:58:38Z</time>
      </trkpt>
      <trkpt lat="59.9519893" lon="17.7255875">
        <ele>44.8386</ele>
        <time>2014-06-25T18:58:39Z</time>
      </trkpt>
      <trkpt lat="59.9519793" lon="17.725617">
        <ele>45.7999</ele>
        <time>2014-06-25T18:58:40Z</time>
      </trkpt>
      <trkpt lat="59.9519703" lon="17.72564">
        <ele>46.2806</ele>
        <time>2014-06-25T18:58:41Z</time>
      </trkpt>
      <trkpt lat="59.9519639" lon="17.7256699">
        <ele>46.2806</ele>
        <time>2014-06-25T18:58:42Z</time>
      </trkpt>
      <trkpt lat="59.9519545" lon="17.7256959">
        <ele>46.2806</ele>
        <time>2014-06-25T18:58:43Z</time>
      </trkpt>
      <trkpt lat="59.9519425" lon="17.7257129">
        <ele>45.3192</ele>
        <time>2014-06-25T18:58:44Z</time>
      </trkpt>
      <trkpt lat="59.9519315" lon="17.7257292">
        <ele>44.8386</ele>
        <time>2014-06-25T18:58:45Z</time>
      </trkpt>
      <trkpt lat="59.9519208" lon="17.7257471">
        <ele>44.358</ele>
        <time>2014-06-25T18:58:46Z</time>
      </trkpt>
      <trkpt lat="59.951912" lon="17.7257717">
        <ele>44.8386</ele>
        <time>2014-06-25T18:58:47Z</time>
      </trkpt>
      <trkpt lat="59.9519033" lon="17.7257976">
        <ele>44.8386</ele>
        <time>2014-06-25T18:58:48Z</time>
      </trkpt>
      <trkpt lat="59.9518918" lon="17.7258177">
        <ele>44.8386</ele>
        <time>2014-06-25T18:58:49Z</time>
      </trkpt>
      <trkpt lat="59.9518799" lon="17.7258399">
        <ele>44.8386</ele>
        <time>2014-06-25T18:58:50Z</time>
      </trkpt>
      <trkpt lat="59.9518657" lon="17.7258556">
        <ele>44.8386</ele>
        <time>2014-06-25T18:58:51Z</time>
      </trkpt>
      <trkpt lat="59.9518505" lon="17.7258708">
        <ele>44.8386</ele>
        <time>2014-06-25T18:58:52Z</time>
      </trkpt>
      <trkpt lat="59.9518343" lon="17.7258836">
        <ele>44.8386</ele>
        <time>2014-06-25T18:58:53Z</time>
      </trkpt>
      <trkpt lat="59.9518183" lon="17.7258954">
        <ele>44.8386</ele>
        <time>2014-06-25T18:58:54Z</time>
      </trkpt>
      <trkpt lat="59.9518049" lon="17.7259074">
        <ele>44.8386</ele>
        <time>2014-06-25T18:58:55Z</time>
      </trkpt>
      <trkpt lat="59.9517914" lon="17.7259174">
        <ele>44.358</ele>
        <time>2014-06-25T18:58:56Z</time>
      </trkpt>
      <trkpt lat="59.9517778" lon="17.7259332">
        <ele>44.358</ele>
        <time>2014-06-25T18:58:57Z</time>
      </trkpt>
      <trkpt lat="59.9517668" lon="17.7259539">
        <ele>44.358</ele>
        <time>2014-06-25T18:58:58Z</time>
      </trkpt>
      <trkpt lat="59.9517583" lon="17.7259751">
        <ele>43.8773</ele>
        <time>2014-06-25T18:58:59Z</time>
      </trkpt>
      <trkpt lat="59.9517498" lon="17.7260014">
        <ele>44.358</ele>
        <time>2014-06-25T18:59:00Z</time>
      </trkpt>
      <trkpt lat="59.9517375" lon="17.726017">
        <ele>44.8386</ele>
        <time>2014-06-25T18:59:01Z</time>
      </trkpt>
      <trkpt lat="59.9517258" lon="17.7260345">
        <ele>44.8386</ele>
        <time>2014-06-25T18:59:02Z</time>
      </trkpt>
      <trkpt lat="59.9517124" lon="17.7260499">
        <ele>44.8386</ele>
        <time>2014-06-25T18:59:03Z</time>
      </trkpt>
      <trkpt lat="59.9517038" lon="17.7260678">
        <ele>45.3192</ele>
        <time>2014-06-25T18:59:04Z</time>
      </trkpt>
      <trkpt lat="59.9516945" lon="17.7260851">
        <ele>45.7999</ele>
        <time>2014-06-25T18:59:05Z</time>
      </trkpt>
      <trkpt lat="59.9516834" lon="17.7261073">
        <ele>45.7999</ele>
        <time>2014-06-25T18:59:06Z</time>
      </trkpt>
      <trkpt lat="59.9516738" lon="17.7261314">
        <ele>45.7999</ele>
        <time>2014-06-25T18:59:07Z</time>
      </trkpt>
      <trkpt lat="59.951664" lon="17.7261578">
        <ele>45.3192</ele>
        <time>2014-06-25T18:59:08Z</time>
      </trkpt>
      <trkpt lat="59.9516524" lon="17.7261899">
        <ele>45.3192</ele>
        <time>2014-06-25T18:59:09Z</time>
      </trkpt>
      <trkpt lat="59.9516368" lon="17.7262198">
        <ele>45.7999</ele>
        <time>2014-06-25T18:59:10Z</time>
      </trkpt>
      <trkpt lat="59.9516219" lon="17.7262466">
        <ele>46.2806</ele>
        <time>2014-06-25T18:59:11Z</time>
      </trkpt>
      <trkpt lat="59.951611" lon="17.7262719">
        <ele>46.2806</ele>
        <time>2014-06-25T18:59:12Z</time>
      </trkpt>
      <trkpt lat="59.9516001" lon="17.7263001">
        <ele>46.2806</ele>
        <time>2014-06-25T18:59:13Z</time>
      </trkpt>
      <trkpt lat="59.951591" lon="17.7263272">
        <ele>46.7612</ele>
        <time>2014-06-25T18:59:14Z</time>
      </trkpt>
      <trkpt lat="59.9515853" lon="17.7263464">
        <ele>46.7612</ele>
        <time>2014-06-25T18:59:15Z</time>
      </trkpt>
      <trkpt lat="59.9515769" lon="17.7263714">
        <ele>46.7612</ele>
        <time>2014-06-25T18:59:16Z</time>
      </trkpt>
      <trkpt lat="59.9515715" lon="17.7263959">
        <ele>46.7612</ele>
        <time>2014-06-25T18:59:17Z</time>
      </trkpt>
      <trkpt lat="59.9515682" lon="17.7264192">
        <ele>47.2418</ele>
        <time>2014-06-25T18:59:18Z</time>
      </trkpt>
      <trkpt lat="59.9515629" lon="17.7264455">
        <ele>47.2418</ele>
        <time>2014-06-25T18:59:19Z</time>
      </trkpt>
      <trkpt lat="59.9515525" lon="17.726474">
        <ele>47.7225</ele>
        <time>2014-06-25T18:59:20Z</time>
      </trkpt>
      <trkpt lat="59.9515432" lon="17.7264973">
        <ele>47.7225</ele>
        <time>2014-06-25T18:59:21Z</time>
      </trkpt>
      <trkpt lat="59.9515324" lon="17.726517">
        <ele>48.2034</ele>
        <time>2014-06-25T18:59:22Z</time>
      </trkpt>
      <trkpt lat="59.9515203" lon="17.7265385">
        <ele>48.2034</ele>
        <time>2014-06-25T18:59:23Z</time>
      </trkpt>
      <trkpt lat="59.9515098" lon="17.7265657">
        <ele>48.684</ele>
        <time>2014-06-25T18:59:24Z</time>
      </trkpt>
      <trkpt lat="59.9514998" lon="17.7265921">
        <ele>49.1646</ele>
        <time>2014-06-25T18:59:25Z</time>
      </trkpt>
      <trkpt lat="59.9514903" lon="17.726615">
        <ele>49.1646</ele>
        <time>2014-06-25T18:59:26Z</time>
      </trkpt>
      <trkpt lat="59.9514811" lon="17.7266413">
        <ele>48.684</ele>
        <time>2014-06-25T18:59:27Z</time>
      </trkpt>
      <trkpt lat="59.9514723" lon="17.7266672">
        <ele>48.684</ele>
        <time>2014-06-25T18:59:28Z</time>
      </trkpt>
      <trkpt lat="59.9514699" lon="17.7266921">
        <ele>48.2034</ele>
        <time>2014-06-25T18:59:29Z</time>
      </trkpt>
      <trkpt lat="59.9514703" lon="17.7267247">
        <ele>48.684</ele>
        <time>2014-06-25T18:59:30Z</time>
      </trkpt>
      <trkpt lat="59.9514721" lon="17.7267556">
        <ele>48.2034</ele>
        <time>2014-06-25T18:59:31Z</time>
      </trkpt>
      <trkpt lat="59.951477" lon="17.7267844">
        <ele>48.2034</ele>
        <time>2014-06-25T18:59:32Z</time>
      </trkpt>
      <trkpt lat="59.9514852" lon="17.7268211">
        <ele>48.684</ele>
        <time>2014-06-25T18:59:33Z</time>
      </trkpt>
      <trkpt lat="59.9514946" lon="17.7268526">
        <ele>48.684</ele>
        <time>2014-06-25T18:59:34Z</time>
      </trkpt>
      <trkpt lat="59.9515054" lon="17.7268848">
        <ele>48.2034</ele>
        <time>2014-06-25T18:59:35Z</time>
      </trkpt>
      <trkpt lat="59.9515127" lon="17.7269179">
        <ele>48.2034</ele>
        <time>2014-06-25T18:59:36Z</time>
      </trkpt>
      <trkpt lat="59.9515266" lon="17.7269529">
        <ele>47.7225</ele>
        <time>2014-06-25T18:59:37Z</time>
      </trkpt>
      <trkpt lat="59.9515428" lon="17.7269925">
        <ele>47.7225</ele>
        <time>2014-06-25T18:59:38Z</time>
      </trkpt>
      <trkpt lat="59.9515561" lon="17.7270257">
        <ele>47.7225</ele>
        <time>2014-06-25T18:59:39Z</time>
      </trkpt>
      <trkpt lat="59.9515661" lon="17.7270553">
        <ele>47.2418</ele>
        <time>2014-06-25T18:59:40Z</time>
      </trkpt>
      <trkpt lat="59.9515783" lon="17.7270893">
        <ele>47.2418</ele>
        <time>2014-06-25T18:59:41Z</time>
      </trkpt>
      <trkpt lat="59.9515844" lon="17.7271229">
        <ele>47.2418</ele>
        <time>2014-06-25T18:59:42Z</time>
      </trkpt>
      <trkpt lat="59.9515827" lon="17.7271545">
        <ele>46.7612</ele>
        <time>2014-06-25T18:59:43Z</time>
      </trkpt>
      <trkpt lat="59.9515861" lon="17.7271907">
        <ele>47.2418</ele>
        <time>2014-06-25T18:59:44Z</time>
      </trkpt>
      <trkpt lat="59.9515955" lon="17.7272312">
        <ele>46.2806</ele>
        <time>2014-06-25T18:59:45Z</time>
      </trkpt>
      <trkpt lat="59.9516064" lon="17.7272717">
        <ele>45.7999</ele>
        <time>2014-06-25T18:59:46Z</time>
      </trkpt>
      <trkpt lat="59.9516058" lon="17.727301">
        <ele>45.7999</ele>
        <time>2014-06-25T18:59:47Z</time>
      </trkpt>
      <trkpt lat="59.9516046" lon="17.7273223">
        <ele>45.3192</ele>
        <time>2014-06-25T18:59:48Z</time>
      </trkpt>
      <trkpt lat="59.9516001" lon="17.7273503">
        <ele>44.8386</ele>
        <time>2014-06-25T18:59:49Z</time>
      </trkpt>
      <trkpt lat="59.9515945" lon="17.7273832">
        <ele>44.358</ele>
        <time>2014-06-25T18:59:50Z</time>
      </trkpt>
      <trkpt lat="59.9515674" lon="17.7274074">
        <ele>44.8386</ele>
        <time>2014-06-25T18:59:51Z</time>
      </trkpt>
      <trkpt lat="59.951543" lon="17.7274233">
        <ele>45.7999</ele>
        <time>2014-06-25T18:59:52Z</time>
      </trkpt>
      <trkpt lat="59.9515357" lon="17.7274473">
        <ele>45.7999</ele>
        <time>2014-06-25T18:59:53Z</time>
      </trkpt>
      <trkpt lat="59.951535" lon="17.7274785">
        <ele>46.7612</ele>
        <time>2014-06-25T18:59:54Z</time>
      </trkpt>
      <trkpt lat="59.9515381" lon="17.7275132">
        <ele>46.7612</ele>
        <time>2014-06-25T18:59:55Z</time>
      </trkpt>
      <trkpt lat="59.9515375" lon="17.7275462">
        <ele>47.2418</ele>
        <time>2014-06-25T18:59:56Z</time>
      </trkpt>
      <trkpt lat="59.9515395" lon="17.7275851">
        <ele>47.7225</ele>
        <time>2014-06-25T18:59:57Z</time>
      </trkpt>
      <trkpt lat="59.9515416" lon="17.7276249">
        <ele>48.2034</ele>
        <time>2014-06-25T18:59:58Z</time>
      </trkpt>
      <trkpt lat="59.9515415" lon="17.7276587">
        <ele>49.1646</ele>
        <time>2014-06-25T18:59:59Z</time>
      </trkpt>
      <trkpt lat="59.9515474" lon="17.7276906">
        <ele>49.1646</ele>
        <time>2014-06-25T19:00:00Z</time>
      </trkpt>
      <trkpt lat="59.9515518" lon="17.7277263">
        <ele>48.684</ele>
        <time>2014-06-25T19:00:01Z</time>
      </trkpt>
      <trkpt lat="59.9515571" lon="17.7277668">
        <ele>49.1646</ele>
        <time>2014-06-25T19:00:02Z</time>
      </trkpt>
      <trkpt lat="59.9515649" lon="17.7277917">
        <ele>49.1646</ele>
        <time>2014-06-25T19:00:03Z</time>
      </trkpt>
      <trkpt lat="59.9515753" lon="17.7278135">
        <ele>49.6453</ele>
        <time>2014-06-25T19:00:04Z</time>
      </trkpt>
      <trkpt lat="59.951586" lon="17.727831">
        <ele>49.1646</ele>
        <time>2014-06-25T19:00:05Z</time>
      </trkpt>
      <trkpt lat="59.9515989" lon="17.7278439">
        <ele>49.1646</ele>
        <time>2014-06-25T19:00:06Z</time>
      </trkpt>
      <trkpt lat="59.9516101" lon="17.7278555">
        <ele>48.684</ele>
        <time>2014-06-25T19:00:07Z</time>
      </trkpt>
      <trkpt lat="59.9516196" lon="17.7278683">
        <ele>48.684</ele>
        <time>2014-06-25T19:00:08Z</time>
      </trkpt>
      <trkpt lat="59.9516349" lon="17.7278731">
        <ele>48.684</ele>
        <time>2014-06-25T19:00:09Z</time>
      </trkpt>
      <trkpt lat="59.9516513" lon="17.7278869">
        <ele>48.2034</ele>
        <time>2014-06-25T19:00:10Z</time>
      </trkpt>
      <trkpt lat="59.9516721" lon="17.7278999">
        <ele>48.684</ele>
        <time>2014-06-25T19:00:11Z</time>
      </trkpt>
      <trkpt lat="59.9516885" lon="17.7279074">
        <ele>48.2034</ele>
        <time>2014-06-25T19:00:12Z</time>
      </trkpt>
      <trkpt lat="59.9516987" lon="17.7279089">
        <ele>47.7225</ele>
        <time>2014-06-25T19:00:13Z</time>
      </trkpt>
      <trkpt lat="59.9517146" lon="17.7279194">
        <ele>47.7225</ele>
        <time>2014-06-25T19:00:14Z</time>
      </trkpt>
      <trkpt lat="59.9517323" lon="17.72793">
        <ele>48.684</ele>
        <time>2014-06-25T19:00:15Z</time>
      </trkpt>
      <trkpt lat="59.9517473" lon="17.7279396">
        <ele>49.6453</ele>
        <time>2014-06-25T19:00:16Z</time>
      </trkpt>
      <trkpt lat="59.9517624" lon="17.7279492">
        <ele>49.6453</ele>
        <time>2014-06-25T19:00:17Z</time>
      </trkpt>
      <trkpt lat="59.9517793" lon="17.7279497">
        <ele>50.6066</ele>
        <time>2014-06-25T19:00:18Z</time>
      </trkpt>
      <trkpt lat="59.951797" lon="17.7279427">
        <ele>51.0872</ele>
        <time>2014-06-25T19:00:19Z</time>
      </trkpt>
      <trkpt lat="59.9518149" lon="17.7279408">
        <ele>53.4905</ele>
        <time>2014-06-25T19:00:20Z</time>
      </trkpt>
      <trkpt lat="59.9518223" lon="17.7279382">
        <ele>53.0098</ele>
        <time>2014-06-25T19:00:21Z</time>
      </trkpt>
      <trkpt lat="59.9518343" lon="17.7279432">
        <ele>52.5292</ele>
        <time>2014-06-25T19:00:22Z</time>
      </trkpt>
      <trkpt lat="59.9518518" lon="17.7279286">
        <ele>53.0098</ele>
        <time>2014-06-25T19:00:23Z</time>
      </trkpt>
      <trkpt lat="59.9518665" lon="17.727911">
        <ele>51.5679</ele>
        <time>2014-06-25T19:00:24Z</time>
      </trkpt>
      <trkpt lat="59.9518788" lon="17.7278995">
        <ele>52.0486</ele>
        <time>2014-06-25T19:00:25Z</time>
      </trkpt>
      <trkpt lat="59.9518875" lon="17.727883">
        <ele>51.5679</ele>
        <time>2014-06-25T19:00:26Z</time>
      </trkpt>
      <trkpt lat="59.9519042" lon="17.7278669">
        <ele>52.0486</ele>
        <time>2014-06-25T19:00:27Z</time>
      </trkpt>
      <trkpt lat="59.9519193" lon="17.7278472">
        <ele>50.6066</ele>
        <time>2014-06-25T19:00:28Z</time>
      </trkpt>
      <trkpt lat="59.9519364" lon="17.727838">
        <ele>50.126</ele>
        <time>2014-06-25T19:00:29Z</time>
      </trkpt>
      <trkpt lat="59.9519524" lon="17.7278265">
        <ele>50.126</ele>
        <time>2014-06-25T19:00:30Z</time>
      </trkpt>
      <trkpt lat="59.9519643" lon="17.7278089">
        <ele>49.6453</ele>
        <time>2014-06-25T19:00:31Z</time>
      </trkpt>
      <trkpt lat="59.9519719" lon="17.7277804">
        <ele>48.684</ele>
        <time>2014-06-25T19:00:32Z</time>
      </trkpt>
      <trkpt lat="59.951981" lon="17.7277512">
        <ele>48.2034</ele>
        <time>2014-06-25T19:00:33Z</time>
      </trkpt>
      <trkpt lat="59.9519898" lon="17.7277119">
        <ele>47.7225</ele>
        <time>2014-06-25T19:00:34Z</time>
      </trkpt>
      <trkpt lat="59.9520019" lon="17.727682">
        <ele>47.2418</ele>
        <time>2014-06-25T19:00:35Z</time>
      </trkpt>
      <trkpt lat="59.9520197" lon="17.7276524">
        <ele>47.7225</ele>
        <time>2014-06-25T19:00:36Z</time>
      </trkpt>
      <trkpt lat="59.9520242" lon="17.7276116">
        <ele>47.2418</ele>
        <time>2014-06-25T19:00:37Z</time>
      </trkpt>
      <trkpt lat="59.9520263" lon="17.7275692">
        <ele>47.2418</ele>
        <time>2014-06-25T19:00:38Z</time>
      </trkpt>
      <trkpt lat="59.9520287" lon="17.7275349">
        <ele>47.7225</ele>
        <time>2014-06-25T19:00:39Z</time>
      </trkpt>
      <trkpt lat="59.9520274" lon="17.7274925">
        <ele>47.2418</ele>
        <time>2014-06-25T19:00:40Z</time>
      </trkpt>
      <trkpt lat="59.9520239" lon="17.7274563">
        <ele>46.7612</ele>
        <time>2014-06-25T19:00:41Z</time>
      </trkpt>
      <trkpt lat="59.9520291" lon="17.7274255">
        <ele>47.2418</ele>
        <time>2014-06-25T19:00:42Z</time>
      </trkpt>
      <trkpt lat="59.9520343" lon="17.7273878">
        <ele>47.7225</ele>
        <time>2014-06-25T19:00:43Z</time>
      </trkpt>
      <trkpt lat="59.9520411" lon="17.7273578">
        <ele>48.2034</ele>
        <time>2014-06-25T19:00:44Z</time>
      </trkpt>
      <trkpt lat="59.9520525" lon="17.7273297">
        <ele>49.1646</ele>
        <time>2014-06-25T19:00:45Z</time>
      </trkpt>
      <trkpt lat="59.9520492" lon="17.7272987">
        <ele>48.684</ele>
        <time>2014-06-25T19:00:46Z</time>
      </trkpt>
      <trkpt lat="59.9520445" lon="17.7272696">
        <ele>48.2034</ele>
        <time>2014-06-25T19:00:47Z</time>
      </trkpt>
      <trkpt lat="59.9520431" lon="17.727241">
        <ele>48.684</ele>
        <time>2014-06-25T19:00:48Z</time>
      </trkpt>
      <trkpt lat="59.9520482" lon="17.7272171">
        <ele>48.2034</ele>
        <time>2014-06-25T19:00:49Z</time>
      </trkpt>
      <trkpt lat="59.9520627" lon="17.7271955">
        <ele>47.7225</ele>
        <time>2014-06-25T19:00:50Z</time>
      </trkpt>
      <trkpt lat="59.9520684" lon="17.7271655">
        <ele>46.7612</ele>
        <time>2014-06-25T19:00:51Z</time>
      </trkpt>
      <trkpt lat="59.9520829" lon="17.7271361">
        <ele>46.2806</ele>
        <time>2014-06-25T19:00:52Z</time>
      </trkpt>
      <trkpt lat="59.9520905" lon="17.7271076">
        <ele>46.2806</ele>
        <time>2014-06-25T19:00:53Z</time>
      </trkpt>
      <trkpt lat="59.9520953" lon="17.7270822">
        <ele>46.2806</ele>
        <time>2014-06-25T19:00:54Z</time>
      </trkpt>
      <trkpt lat="59.9520967" lon="17.7270542">
        <ele>45.7999</ele>
        <time>2014-06-25T19:00:55Z</time>
      </trkpt>
      <trkpt lat="59.952098" lon="17.7270284">
        <ele>45.3192</ele>
        <time>2014-06-25T19:00:56Z</time>
      </trkpt>
      <trkpt lat="59.9520985" lon="17.7270024">
        <ele>44.8386</ele>
        <time>2014-06-25T19:00:57Z</time>
      </trkpt>
      <trkpt lat="59.9520975" lon="17.7269753">
        <ele>44.358</ele>
        <time>2014-06-25T19:00:58Z</time>
      </trkpt>
      <trkpt lat="59.9520988" lon="17.7269475">
        <ele>44.8386</ele>
        <time>2014-06-25T19:00:59Z</time>
      </trkpt>
      <trkpt lat="59.9521067" lon="17.7269191">
        <ele>44.8386</ele>
        <time>2014-06-25T19:01:00Z</time>
      </trkpt>
      <trkpt lat="59.9521197" lon="17.7268929">
        <ele>44.8386</ele>
        <time>2014-06-25T19:01:01Z</time>
      </trkpt>
      <trkpt lat="59.9521223" lon="17.7268668">
        <ele>44.8386</ele>
        <time>2014-06-25T19:01:02Z</time>
      </trkpt>
      <trkpt lat="59.9521264" lon="17.7268437">
        <ele>45.3192</ele>
        <time>2014-06-25T19:01:03Z</time>
      </trkpt>
      <trkpt lat="59.9521327" lon="17.7268193">
        <ele>45.3192</ele>
        <time>2014-06-25T19:01:04Z</time>
      </trkpt>
      <trkpt lat="59.9521342" lon="17.7267921">
        <ele>45.3192</ele>
        <time>2014-06-25T19:01:05Z</time>
      </trkpt>
      <trkpt lat="59.9521375" lon="17.726767">
        <ele>44.8386</ele>
        <time>2014-06-25T19:01:06Z</time>
      </trkpt>
      <trkpt lat="59.9521473" lon="17.7267457">
        <ele>45.3192</ele>
        <time>2014-06-25T19:01:07Z</time>
      </trkpt>
      <trkpt lat="59.9521548" lon="17.7267232">
        <ele>45.3192</ele>
        <time>2014-06-25T19:01:08Z</time>
      </trkpt>
      <trkpt lat="59.9521648" lon="17.7267014">
        <ele>45.7999</ele>
        <time>2014-06-25T19:01:09Z</time>
      </trkpt>
      <trkpt lat="59.9521755" lon="17.7266789">
        <ele>46.2806</ele>
        <time>2014-06-25T19:01:10Z</time>
      </trkpt>
      <trkpt lat="59.9521889" lon="17.7266542">
        <ele>47.2418</ele>
        <time>2014-06-25T19:01:11Z</time>
      </trkpt>
      <trkpt lat="59.9522047" lon="17.7266274">
        <ele>47.7225</ele>
        <time>2014-06-25T19:01:12Z</time>
      </trkpt>
      <trkpt lat="59.9522138" lon="17.7265888">
        <ele>48.684</ele>
        <time>2014-06-25T19:01:13Z</time>
      </trkpt>
      <trkpt lat="59.9522195" lon="17.7265506">
        <ele>48.684</ele>
        <time>2014-06-25T19:01:14Z</time>
      </trkpt>
      <trkpt lat="59.9522302" lon="17.7265231">
        <ele>49.1646</ele>
        <time>2014-06-25T19:01:15Z</time>
      </trkpt>
      <trkpt lat="59.9522342" lon="17.7264893">
        <ele>49.1646</ele>
        <time>2014-06-25T19:01:16Z</time>
      </trkpt>
      <trkpt lat="59.9522384" lon="17.7264583">
        <ele>49.1646</ele>
        <time>2014-06-25T19:01:17Z</time>
      </trkpt>
      <trkpt lat="59.9522483" lon="17.7264332">
        <ele>49.1646</ele>
        <time>2014-06-25T19:01:18Z</time>
      </trkpt>
      <trkpt lat="59.952258" lon="17.7264111">
        <ele>49.1646</ele>
        <time>2014-06-25T19:01:19Z</time>
      </trkpt>
      <trkpt lat="59.9522641" lon="17.7263865">
        <ele>49.1646</ele>
        <time>2014-06-25T19:01:20Z</time>
      </trkpt>
      <trkpt lat="59.9522746" lon="17.7263653">
        <ele>48.684</ele>
        <time>2014-06-25T19:01:21Z</time>
      </trkpt>
      <trkpt lat="59.9522876" lon="17.7263424">
        <ele>48.684</ele>
        <time>2014-06-25T19:01:22Z</time>
      </trkpt>
      <trkpt lat="59.9522927" lon="17.7263194">
        <ele>48.2034</ele>
        <time>2014-06-25T19:01:23Z</time>
      </trkpt>
      <trkpt lat="59.9523041" lon="17.7262959">
        <ele>48.684</ele>
        <time>2014-06-25T19:01:24Z</time>
      </trkpt>
      <trkpt lat="59.9523138" lon="17.7262755">
        <ele>48.684</ele>
        <time>2014-06-25T19:01:25Z</time>
      </trkpt>
      <trkpt lat="59.9523258" lon="17.7262531">
        <ele>48.684</ele>
        <time>2014-06-25T19:01:26Z</time>
      </trkpt>
      <trkpt lat="59.9523363" lon="17.72623">
        <ele>48.684</ele>
        <time>2014-06-25T19:01:27Z</time>
      </trkpt>
      <trkpt lat="59.952345" lon="17.7262037">
        <ele>48.2034</ele>
        <time>2014-06-25T19:01:28Z</time>
      </trkpt>
      <trkpt lat="59.9523544" lon="17.7261768">
        <ele>48.684</ele>
        <time>2014-06-25T19:01:29Z</time>
      </trkpt>
      <trkpt lat="59.9523672" lon="17.7261471">
        <ele>48.2034</ele>
        <time>2014-06-25T19:01:30Z</time>
      </trkpt>
      <trkpt lat="59.9523871" lon="17.7261233">
        <ele>48.684</ele>
        <time>2014-06-25T19:01:31Z</time>
      </trkpt>
      <trkpt lat="59.9524065" lon="17.7260869">
        <ele>48.684</ele>
        <time>2014-06-25T19:01:32Z</time>
      </trkpt>
      <trkpt lat="59.9524161" lon="17.726057">
        <ele>48.684</ele>
        <time>2014-06-25T19:01:33Z</time>
      </trkpt>
      <trkpt lat="59.9524254" lon="17.7260306">
        <ele>48.2034</ele>
        <time>2014-06-25T19:01:34Z</time>
      </trkpt>
      <trkpt lat="59.9524381" lon="17.7260091">
        <ele>48.2034</ele>
        <time>2014-06-25T19:01:35Z</time>
      </trkpt>
      <trkpt lat="59.9524508" lon="17.7259817">
        <ele>48.2034</ele>
        <time>2014-06-25T19:01:36Z</time>
      </trkpt>
      <trkpt lat="59.9524693" lon="17.7259533">
        <ele>49.1646</ele>
        <time>2014-06-25T19:01:37Z</time>
      </trkpt>
      <trkpt lat="59.952483" lon="17.7259226">
        <ele>49.6453</ele>
        <time>2014-06-25T19:01:38Z</time>
      </trkpt>
      <trkpt lat="59.952492" lon="17.7258923">
        <ele>49.6453</ele>
        <time>2014-06-25T19:01:39Z</time>
      </trkpt>
      <trkpt lat="59.952502" lon="17.7258625">
        <ele>49.6453</ele>
        <time>2014-06-25T19:01:40Z</time>
      </trkpt>
      <trkpt lat="59.9525122" lon="17.7258342">
        <ele>49.1646</ele>
        <time>2014-06-25T19:01:41Z</time>
      </trkpt>
      <trkpt lat="59.9525253" lon="17.725814">
        <ele>48.684</ele>
        <time>2014-06-25T19:01:42Z</time>
      </trkpt>
      <trkpt lat="59.9525314" lon="17.7257937">
        <ele>47.7225</ele>
        <time>2014-06-25T19:01:43Z</time>
      </trkpt>
      <trkpt lat="59.9525427" lon="17.7257766">
        <ele>47.7225</ele>
        <time>2014-06-25T19:01:44Z</time>
      </trkpt>
      <trkpt lat="59.9525507" lon="17.7257486">
        <ele>46.7612</ele>
        <time>2014-06-25T19:01:45Z</time>
      </trkpt>
      <trkpt lat="59.9525679" lon="17.7257328">
        <ele>46.7612</ele>
        <time>2014-06-25T19:01:46Z</time>
      </trkpt>
      <trkpt lat="59.952587" lon="17.7257225">
        <ele>47.2418</ele>
        <time>2014-06-25T19:01:47Z</time>
      </trkpt>
      <trkpt lat="59.9526026" lon="17.7257082">
        <ele>46.2806</ele>
        <time>2014-06-25T19:01:48Z</time>
      </trkpt>
      <trkpt lat="59.9526227" lon="17.7256955">
        <ele>45.7999</ele>
        <time>2014-06-25T19:01:49Z</time>
      </trkpt>
      <trkpt lat="59.9526337" lon="17.7256787">
        <ele>45.3192</ele>
        <time>2014-06-25T19:01:50Z</time>
      </trkpt>
      <trkpt lat="59.9526433" lon="17.725656">
        <ele>45.3192</ele>
        <time>2014-06-25T19:01:51Z</time>
      </trkpt>
      <trkpt lat="59.9526513" lon="17.725643">
        <ele>45.7999</ele>
        <time>2014-06-25T19:01:52Z</time>
      </trkpt>
      <trkpt lat="59.9526579" lon="17.7256276">
        <ele>45.7999</ele>
        <time>2014-06-25T19:01:53Z</time>
      </trkpt>
      <trkpt lat="59.9526734" lon="17.7256011">
        <ele>45.7999</ele>
        <time>2014-06-25T19:01:54Z</time>
      </trkpt>
      <trkpt lat="59.9526814" lon="17.7255623">
        <ele>45.7999</ele>
        <time>2014-06-25T19:01:55Z</time>
      </trkpt>
      <trkpt lat="59.9526881" lon="17.7255232">
        <ele>44.8386</ele>
        <time>2014-06-25T19:01:56Z</time>
      </trkpt>
      <trkpt lat="59.9526992" lon="17.7254914">
        <ele>43.8773</ele>
        <time>2014-06-25T19:01:57Z</time>
      </trkpt>
      <trkpt lat="59.9527066" lon="17.7254642">
        <ele>43.8773</ele>
        <time>2014-06-25T19:01:58Z</time>
      </trkpt>
      <trkpt lat="59.9527129" lon="17.7254426">
        <ele>44.358</ele>
        <time>2014-06-25T19:01:59Z</time>
      </trkpt>
      <trkpt lat="59.9527225" lon="17.7254104">
        <ele>43.3966</ele>
        <time>2014-06-25T19:02:00Z</time>
      </trkpt>
      <trkpt lat="59.9527376" lon="17.7253811">
        <ele>42.916</ele>
        <time>2014-06-25T19:02:01Z</time>
      </trkpt>
      <trkpt lat="59.9527496" lon="17.725352">
        <ele>42.916</ele>
        <time>2014-06-25T19:02:02Z</time>
      </trkpt>
      <trkpt lat="59.9527573" lon="17.725324">
        <ele>43.3966</ele>
        <time>2014-06-25T19:02:03Z</time>
      </trkpt>
      <trkpt lat="59.9527684" lon="17.7252998">
        <ele>43.3966</ele>
        <time>2014-06-25T19:02:04Z</time>
      </trkpt>
      <trkpt lat="59.9527792" lon="17.7252851">
        <ele>43.3966</ele>
        <time>2014-06-25T19:02:05Z</time>
      </trkpt>
      <trkpt lat="59.9527864" lon="17.7252559">
        <ele>43.3966</ele>
        <time>2014-06-25T19:02:06Z</time>
      </trkpt>
      <trkpt lat="59.9527945" lon="17.7252245">
        <ele>43.3966</ele>
        <time>2014-06-25T19:02:07Z</time>
      </trkpt>
      <trkpt lat="59.9528065" lon="17.725198">
        <ele>43.3966</ele>
        <time>2014-06-25T19:02:08Z</time>
      </trkpt>
      <trkpt lat="59.9528175" lon="17.7251733">
        <ele>43.3966</ele>
        <time>2014-06-25T19:02:09Z</time>
      </trkpt>
      <trkpt lat="59.9528257" lon="17.7251386">
        <ele>43.3966</ele>
        <time>2014-06-25T19:02:10Z</time>
      </trkpt>
      <trkpt lat="59.9528386" lon="17.7251231">
        <ele>42.916</ele>
        <time>2014-06-25T19:02:11Z</time>
      </trkpt>
      <trkpt lat="59.9528578" lon="17.7251162">
        <ele>42.916</ele>
        <time>2014-06-25T19:02:12Z</time>
      </trkpt>
      <trkpt lat="59.952874" lon="17.7251074">
        <ele>42.916</ele>
        <time>2014-06-25T19:02:13Z</time>
      </trkpt>
      <trkpt lat="59.9528883" lon="17.7250909">
        <ele>42.4354</ele>
        <time>2014-06-25T19:02:14Z</time>
      </trkpt>
      <trkpt lat="59.9529074" lon="17.7250774">
        <ele>42.916</ele>
        <time>2014-06-25T19:02:15Z</time>
      </trkpt>
      <trkpt lat="59.9529246" lon="17.7250643">
        <ele>42.916</ele>
        <time>2014-06-25T19:02:16Z</time>
      </trkpt>
      <trkpt lat="59.9529443" lon="17.7250557">
        <ele>42.4354</ele>
        <time>2014-06-25T19:02:17Z</time>
      </trkpt>
      <trkpt lat="59.9529521" lon="17.7250365">
        <ele>41.9547</ele>
        <time>2014-06-25T19:02:18Z</time>
      </trkpt>
      <trkpt lat="59.9529599" lon="17.7250175">
        <ele>41.474</ele>
        <time>2014-06-25T19:02:19Z</time>
      </trkpt>
      <trkpt lat="59.9529665" lon="17.7249918">
        <ele>41.474</ele>
        <time>2014-06-25T19:02:20Z</time>
      </trkpt>
      <trkpt lat="59.9529719" lon="17.7249599">
        <ele>40.9934</ele>
        <time>2014-06-25T19:02:21Z</time>
      </trkpt>
      <trkpt lat="59.9529794" lon="17.7249292">
        <ele>41.474</ele>
        <time>2014-06-25T19:02:22Z</time>
      </trkpt>
      <trkpt lat="59.9529914" lon="17.7248993">
        <ele>41.9547</ele>
        <time>2014-06-25T19:02:23Z</time>
      </trkpt>
      <trkpt lat="59.9530051" lon="17.7248759">
        <ele>42.4354</ele>
        <time>2014-06-25T19:02:24Z</time>
      </trkpt>
      <trkpt lat="59.9530199" lon="17.7248545">
        <ele>42.4354</ele>
        <time>2014-06-25T19:02:25Z</time>
      </trkpt>
      <trkpt lat="59.9530366" lon="17.7248346">
        <ele>42.4354</ele>
        <time>2014-06-25T19:02:26Z</time>
      </trkpt>
      <trkpt lat="59.953051" lon="17.7248198">
        <ele>42.916</ele>
        <time>2014-06-25T19:02:27Z</time>
      </trkpt>
      <trkpt lat="59.9530677" lon="17.7248071">
        <ele>43.8773</ele>
        <time>2014-06-25T19:02:28Z</time>
      </trkpt>
      <trkpt lat="59.953077" lon="17.7247815">
        <ele>44.358</ele>
        <time>2014-06-25T19:02:29Z</time>
      </trkpt>
      <trkpt lat="59.95309" lon="17.7247603">
        <ele>44.358</ele>
        <time>2014-06-25T19:02:30Z</time>
      </trkpt>
      <trkpt lat="59.9530992" lon="17.7247344">
        <ele>44.8386</ele>
        <time>2014-06-25T19:02:31Z</time>
      </trkpt>
      <trkpt lat="59.9531014" lon="17.7246957">
        <ele>45.3192</ele>
        <time>2014-06-25T19:02:32Z</time>
      </trkpt>
      <trkpt lat="59.9531126" lon="17.7246696">
        <ele>45.7999</ele>
        <time>2014-06-25T19:02:33Z</time>
      </trkpt>
      <trkpt lat="59.9531252" lon="17.7246313">
        <ele>46.2806</ele>
        <time>2014-06-25T19:02:34Z</time>
      </trkpt>
      <trkpt lat="59.9531328" lon="17.7245973">
        <ele>46.7612</ele>
        <time>2014-06-25T19:02:35Z</time>
      </trkpt>
      <trkpt lat="59.9531418" lon="17.7245666">
        <ele>46.7612</ele>
        <time>2014-06-25T19:02:36Z</time>
      </trkpt>
      <trkpt lat="59.9531552" lon="17.7245404">
        <ele>46.7612</ele>
        <time>2014-06-25T19:02:37Z</time>
      </trkpt>
      <trkpt lat="59.9531645" lon="17.7244997">
        <ele>45.3192</ele>
        <time>2014-06-25T19:02:38Z</time>
      </trkpt>
      <trkpt lat="59.9531796" lon="17.7244697">
        <ele>45.7999</ele>
        <time>2014-06-25T19:02:39Z</time>
      </trkpt>
      <trkpt lat="59.9531967" lon="17.7244411">
        <ele>45.3192</ele>
        <time>2014-06-25T19:02:40Z</time>
      </trkpt>
      <trkpt lat="59.9532123" lon="17.7244209">
        <ele>45.7999</ele>
        <time>2014-06-25T19:02:41Z</time>
      </trkpt>
      <trkpt lat="59.9532293" lon="17.7244023">
        <ele>46.2806</ele>
        <time>2014-06-25T19:02:42Z</time>
      </trkpt>
      <trkpt lat="59.9532419" lon="17.7243811">
        <ele>46.2806</ele>
        <time>2014-06-25T19:02:43Z</time>
      </trkpt>
      <trkpt lat="59.9532526" lon="17.7243549">
        <ele>46.2806</ele>
        <time>2014-06-25T19:02:44Z</time>
      </trkpt>
      <trkpt lat="59.9532584" lon="17.724323">
        <ele>46.7612</ele>
        <time>2014-06-25T19:02:45Z</time>
      </trkpt>
      <trkpt lat="59.953264" lon="17.72429">
        <ele>47.2418</ele>
        <time>2014-06-25T19:02:46Z</time>
      </trkpt>
      <trkpt lat="59.9532718" lon="17.7242583">
        <ele>46.7612</ele>
        <time>2014-06-25T19:02:47Z</time>
      </trkpt>
      <trkpt lat="59.9532794" lon="17.7242321">
        <ele>46.7612</ele>
        <time>2014-06-25T19:02:48Z</time>
      </trkpt>
      <trkpt lat="59.9532924" lon="17.7242184">
        <ele>46.7612</ele>
        <time>2014-06-25T19:02:49Z</time>
      </trkpt>
      <trkpt lat="59.9533099" lon="17.7242076">
        <ele>46.7612</ele>
        <time>2014-06-25T19:02:50Z</time>
      </trkpt>
      <trkpt lat="59.9533231" lon="17.7241943">
        <ele>46.2806</ele>
        <time>2014-06-25T19:02:51Z</time>
      </trkpt>
      <trkpt lat="59.9533379" lon="17.724185">
        <ele>47.2418</ele>
        <time>2014-06-25T19:02:52Z</time>
      </trkpt>
      <trkpt lat="59.95335" lon="17.7241692">
        <ele>47.7225</ele>
        <time>2014-06-25T19:02:53Z</time>
      </trkpt>
      <trkpt lat="59.9533571" lon="17.7241562">
        <ele>48.2034</ele>
        <time>2014-06-25T19:02:54Z</time>
      </trkpt>
      <trkpt lat="59.9533775" lon="17.7241352">
        <ele>48.2034</ele>
        <time>2014-06-25T19:02:55Z</time>
      </trkpt>
      <trkpt lat="59.95339" lon="17.7241102">
        <ele>48.684</ele>
        <time>2014-06-25T19:02:56Z</time>
      </trkpt>
      <trkpt lat="59.9534076" lon="17.7240964">
        <ele>49.6453</ele>
        <time>2014-06-25T19:02:57Z</time>
      </trkpt>
      <trkpt lat="59.9534182" lon="17.7240777">
        <ele>50.6066</ele>
        <time>2014-06-25T19:02:58Z</time>
      </trkpt>
      <trkpt lat="59.9534292" lon="17.7240642">
        <ele>51.5679</ele>
        <time>2014-06-25T19:02:59Z</time>
      </trkpt>
      <trkpt lat="59.9534457" lon="17.7240568">
        <ele>53.0098</ele>
        <time>2014-06-25T19:03:00Z</time>
      </trkpt>
      <trkpt lat="59.9534639" lon="17.7240408">
        <ele>53.4905</ele>
        <time>2014-06-25T19:03:01Z</time>
      </trkpt>
      <trkpt lat="59.9534888" lon="17.7240327">
        <ele>54.4518</ele>
        <time>2014-06-25T19:03:02Z</time>
      </trkpt>
      <trkpt lat="59.9535127" lon="17.7240327">
        <ele>57.8165</ele>
        <time>2014-06-25T19:03:03Z</time>
      </trkpt>
      <trkpt lat="59.9535308" lon="17.7240221">
        <ele>59.2584</ele>
        <time>2014-06-25T19:03:04Z</time>
      </trkpt>
      <trkpt lat="59.9535448" lon="17.7240047">
        <ele>60.2197</ele>
        <time>2014-06-25T19:03:05Z</time>
      </trkpt>
      <trkpt lat="59.9535598" lon="17.7239876">
        <ele>60.7003</ele>
        <time>2014-06-25T19:03:06Z</time>
      </trkpt>
      <trkpt lat="59.9535712" lon="17.7239637">
        <ele>61.181</ele>
        <time>2014-06-25T19:03:07Z</time>
      </trkpt>
      <trkpt lat="59.9535805" lon="17.7239459">
        <ele>61.181</ele>
        <time>2014-06-25T19:03:08Z</time>
      </trkpt>
      <trkpt lat="59.95359" lon="17.7239311">
        <ele>61.181</ele>
        <time>2014-06-25T19:03:09Z</time>
      </trkpt>
      <trkpt lat="59.9535992" lon="17.7239073">
        <ele>60.7003</ele>
        <time>2014-06-25T19:03:10Z</time>
      </trkpt>
      <trkpt lat="59.9536137" lon="17.7238839">
        <ele>60.2197</ele>
        <time>2014-06-25T19:03:11Z</time>
      </trkpt>
      <trkpt lat="59.9536246" lon="17.7238597">
        <ele>59.2584</ele>
        <time>2014-06-25T19:03:12Z</time>
      </trkpt>
      <trkpt lat="59.9536441" lon="17.7238503">
        <ele>60.7003</ele>
        <time>2014-06-25T19:03:13Z</time>
      </trkpt>
      <trkpt lat="59.9536573" lon="17.7238207">
        <ele>60.7003</ele>
        <time>2014-06-25T19:03:14Z</time>
      </trkpt>
      <trkpt lat="59.953677" lon="17.7237965">
        <ele>61.6617</ele>
        <time>2014-06-25T19:03:15Z</time>
      </trkpt>
      <trkpt lat="59.9536888" lon="17.7237716">
        <ele>61.6617</ele>
        <time>2014-06-25T19:03:16Z</time>
      </trkpt>
      <trkpt lat="59.9537007" lon="17.7237374">
        <ele>61.181</ele>
        <time>2014-06-25T19:03:17Z</time>
      </trkpt>
      <trkpt lat="59.95371" lon="17.7237028">
        <ele>60.2197</ele>
        <time>2014-06-25T19:03:18Z</time>
      </trkpt>
      <trkpt lat="59.9537147" lon="17.723669">
        <ele>59.2584</ele>
        <time>2014-06-25T19:03:19Z</time>
      </trkpt>
      <trkpt lat="59.9537246" lon="17.7236483">
        <ele>58.2971</ele>
        <time>2014-06-25T19:03:20Z</time>
      </trkpt>
      <trkpt lat="59.9537353" lon="17.723626">
        <ele>57.8165</ele>
        <time>2014-06-25T19:03:21Z</time>
      </trkpt>
      <trkpt lat="59.9537432" lon="17.723602">
        <ele>57.8165</ele>
        <time>2014-06-25T19:03:22Z</time>
      </trkpt>
      <trkpt lat="59.9537504" lon="17.7235746">
        <ele>57.8165</ele>
        <time>2014-06-25T19:03:23Z</time>
      </trkpt>
      <trkpt lat="59.9537716" lon="17.7235461">
        <ele>58.2971</ele>
        <time>2014-06-25T19:03:24Z</time>
      </trkpt>
      <trkpt lat="59.9537836" lon="17.7235229">
        <ele>58.2971</ele>
        <time>2014-06-25T19:03:25Z</time>
      </trkpt>
      <trkpt lat="59.9537856" lon="17.7235021">
        <ele>58.2971</ele>
        <time>2014-06-25T19:03:26Z</time>
      </trkpt>
      <trkpt lat="59.9537929" lon="17.7234813">
        <ele>58.2971</ele>
        <time>2014-06-25T19:03:27Z</time>
      </trkpt>
      <trkpt lat="59.9537996" lon="17.7234685">
        <ele>58.7777</ele>
        <time>2014-06-25T19:03:28Z</time>
      </trkpt>
      <trkpt lat="59.9538011" lon="17.7234614">
        <ele>59.7391</ele>
        <time>2014-06-25T19:03:29Z</time>
      </trkpt>
      <trkpt lat="59.9537985" lon="17.7234581">
        <ele>60.2197</ele>
        <time>2014-06-25T19:03:30Z</time>
      </trkpt>
      <trkpt lat="59.9538086" lon="17.7234405">
        <ele>60.2197</ele>
        <time>2014-06-25T19:03:33Z</time>
      </trkpt>
      <trkpt lat="59.9538165" lon="17.7234358">
        <ele>60.7003</ele>
        <time>2014-06-25T19:03:34Z</time>
      </trkpt>
      <trkpt lat="59.9538219" lon="17.7234134">
        <ele>60.2197</ele>
        <time>2014-06-25T19:03:35Z</time>
      </trkpt>
      <trkpt lat="59.9538305" lon="17.723384">
        <ele>59.2584</ele>
        <time>2014-06-25T19:03:36Z</time>
      </trkpt>
      <trkpt lat="59.9538467" lon="17.7233716">
        <ele>58.7777</ele>
        <time>2014-06-25T19:03:37Z</time>
      </trkpt>
      <trkpt lat="59.9538525" lon="17.7233445">
        <ele>57.8165</ele>
        <time>2014-06-25T19:03:38Z</time>
      </trkpt>
      <trkpt lat="59.95386" lon="17.7233147">
        <ele>57.3358</ele>
        <time>2014-06-25T19:03:39Z</time>
      </trkpt>
      <trkpt lat="59.9538709" lon="17.7232945">
        <ele>57.3358</ele>
        <time>2014-06-25T19:03:40Z</time>
      </trkpt>
      <trkpt lat="59.953885" lon="17.7232818">
        <ele>56.8551</ele>
        <time>2014-06-25T19:03:41Z</time>
      </trkpt>
      <trkpt lat="59.9539006" lon="17.7232701">
        <ele>56.8551</ele>
        <time>2014-06-25T19:03:42Z</time>
      </trkpt>
      <trkpt lat="59.9539167" lon="17.7232572">
        <ele>56.3745</ele>
        <time>2014-06-25T19:03:43Z</time>
      </trkpt>
      <trkpt lat="59.9539297" lon="17.7232398">
        <ele>56.3745</ele>
        <time>2014-06-25T19:03:44Z</time>
      </trkpt>
      <trkpt lat="59.9539426" lon="17.7232224">
        <ele>56.3745</ele>
        <time>2014-06-25T19:03:45Z</time>
      </trkpt>
      <trkpt lat="59.9539649" lon="17.7232261">
        <ele>56.8551</ele>
        <time>2014-06-25T19:03:46Z</time>
      </trkpt>
      <trkpt lat="59.953987" lon="17.7232262">
        <ele>56.8551</ele>
        <time>2014-06-25T19:03:47Z</time>
      </trkpt>
      <trkpt lat="59.9539907" lon="17.7232119">
        <ele>56.3745</ele>
        <time>2014-06-25T19:03:48Z</time>
      </trkpt>
      <trkpt lat="59.953996" lon="17.7231914">
        <ele>56.3745</ele>
        <time>2014-06-25T19:03:49Z</time>
      </trkpt>
      <trkpt lat="59.9540079" lon="17.7231793">
        <ele>56.8551</ele>
        <time>2014-06-25T19:03:50Z</time>
      </trkpt>
      <trkpt lat="59.9540255" lon="17.7231888">
        <ele>58.7777</ele>
        <time>2014-06-25T19:03:51Z</time>
      </trkpt>
      <trkpt lat="59.9540445" lon="17.7231919">
        <ele>59.2584</ele>
        <time>2014-06-25T19:03:52Z</time>
      </trkpt>
      <trkpt lat="59.9540762" lon="17.7231994">
        <ele>58.7777</ele>
        <time>2014-06-25T19:03:53Z</time>
      </trkpt>
      <trkpt lat="59.9541053" lon="17.7232115">
        <ele>58.2971</ele>
        <time>2014-06-25T19:03:54Z</time>
      </trkpt>
      <trkpt lat="59.9541259" lon="17.7232136">
        <ele>57.8165</ele>
        <time>2014-06-25T19:03:55Z</time>
      </trkpt>
      <trkpt lat="59.9541493" lon="17.7232207">
        <ele>58.2971</ele>
        <time>2014-06-25T19:03:56Z</time>
      </trkpt>
      <trkpt lat="59.9541769" lon="17.7232322">
        <ele>58.7777</ele>
        <time>2014-06-25T19:03:57Z</time>
      </trkpt>
      <trkpt lat="59.954214" lon="17.7232509">
        <ele>60.2197</ele>
        <time>2014-06-25T19:03:58Z</time>
      </trkpt>
      <trkpt lat="59.9542432" lon="17.7232669">
        <ele>60.7003</ele>
        <time>2014-06-25T19:03:59Z</time>
      </trkpt>
      <trkpt lat="59.9542656" lon="17.7232813">
        <ele>58.7777</ele>
        <time>2014-06-25T19:04:00Z</time>
      </trkpt>
      <trkpt lat="59.9542867" lon="17.723295">
        <ele>58.2971</ele>
        <time>2014-06-25T19:04:01Z</time>
      </trkpt>
      <trkpt lat="59.9543081" lon="17.7233031">
        <ele>57.3358</ele>
        <time>2014-06-25T19:04:02Z</time>
      </trkpt>
      <trkpt lat="59.9543232" lon="17.7233063">
        <ele>56.3745</ele>
        <time>2014-06-25T19:04:03Z</time>
      </trkpt>
      <trkpt lat="59.9543366" lon="17.7233017">
        <ele>55.4131</ele>
        <time>2014-06-25T19:04:04Z</time>
      </trkpt>
      <trkpt lat="59.9543539" lon="17.7233072">
        <ele>54.9324</ele>
        <time>2014-06-25T19:04:05Z</time>
      </trkpt>
      <trkpt lat="59.9543684" lon="17.7233054">
        <ele>54.4518</ele>
        <time>2014-06-25T19:04:06Z</time>
      </trkpt>
      <trkpt lat="59.9543823" lon="17.72331">
        <ele>54.4518</ele>
        <time>2014-06-25T19:04:07Z</time>
      </trkpt>
      <trkpt lat="59.9543998" lon="17.7233202">
        <ele>56.3745</ele>
        <time>2014-06-25T19:04:08Z</time>
      </trkpt>
      <trkpt lat="59.954413" lon="17.723331">
        <ele>57.8165</ele>
        <time>2014-06-25T19:04:09Z</time>
      </trkpt>
      <trkpt lat="59.9544361" lon="17.7233455">
        <ele>58.2971</ele>
        <time>2014-06-25T19:04:10Z</time>
      </trkpt>
      <trkpt lat="59.9544532" lon="17.7233587">
        <ele>59.2584</ele>
        <time>2014-06-25T19:04:11Z</time>
      </trkpt>
      <trkpt lat="59.9544679" lon="17.7233632">
        <ele>59.7391</ele>
        <time>2014-06-25T19:04:12Z</time>
      </trkpt>
      <trkpt lat="59.9544881" lon="17.7233711">
        <ele>60.7003</ele>
        <time>2014-06-25T19:04:13Z</time>
      </trkpt>
      <trkpt lat="59.9545097" lon="17.7233887">
        <ele>62.6229</ele>
        <time>2014-06-25T19:04:14Z</time>
      </trkpt>
      <trkpt lat="59.954529" lon="17.7234096">
        <ele>63.5844</ele>
        <time>2014-06-25T19:04:15Z</time>
      </trkpt>
      <trkpt lat="59.9545508" lon="17.7234277">
        <ele>64.0651</ele>
        <time>2014-06-25T19:04:16Z</time>
      </trkpt>
      <trkpt lat="59.9545735" lon="17.7234493">
        <ele>65.5071</ele>
        <time>2014-06-25T19:04:17Z</time>
      </trkpt>
      <trkpt lat="59.9546051" lon="17.7234616">
        <ele>66.4683</ele>
        <time>2014-06-25T19:04:18Z</time>
      </trkpt>
      <trkpt lat="59.9546347" lon="17.7234706">
        <ele>67.4297</ele>
        <time>2014-06-25T19:04:19Z</time>
      </trkpt>
      <trkpt lat="59.9546517" lon="17.723479">
        <ele>67.9103</ele>
        <time>2014-06-25T19:04:20Z</time>
      </trkpt>
      <trkpt lat="59.9546673" lon="17.7234949">
        <ele>68.3909</ele>
        <time>2014-06-25T19:04:21Z</time>
      </trkpt>
      <trkpt lat="59.9546842" lon="17.7235046">
        <ele>67.9103</ele>
        <time>2014-06-25T19:04:22Z</time>
      </trkpt>
      <trkpt lat="59.9547046" lon="17.7235141">
        <ele>67.4297</ele>
        <time>2014-06-25T19:04:23Z</time>
      </trkpt>
      <trkpt lat="59.9547252" lon="17.7235336">
        <ele>67.4297</ele>
        <time>2014-06-25T19:04:24Z</time>
      </trkpt>
      <trkpt lat="59.9547513" lon="17.7235587">
        <ele>69.3523</ele>
        <time>2014-06-25T19:04:25Z</time>
      </trkpt>
      <trkpt lat="59.9547661" lon="17.7235678">
        <ele>69.3523</ele>
        <time>2014-06-25T19:04:26Z</time>
      </trkpt>
      <trkpt lat="59.9547936" lon="17.7235828">
        <ele>70.3135</ele>
        <time>2014-06-25T19:04:27Z</time>
      </trkpt>
      <trkpt lat="59.9548173" lon="17.7236062">
        <ele>70.7942</ele>
        <time>2014-06-25T19:04:28Z</time>
      </trkpt>
      <trkpt lat="59.9548342" lon="17.7236187">
        <ele>70.7942</ele>
        <time>2014-06-25T19:04:29Z</time>
      </trkpt>
      <trkpt lat="59.9548396" lon="17.7236287">
        <ele>70.3135</ele>
        <time>2014-06-25T19:04:30Z</time>
      </trkpt>
      <trkpt lat="59.9548422" lon="17.7236385">
        <ele>68.3909</ele>
        <time>2014-06-25T19:04:31Z</time>
      </trkpt>
      <trkpt lat="59.9548464" lon="17.7236457">
        <ele>66.4683</ele>
        <time>2014-06-25T19:04:32Z</time>
      </trkpt>
      <trkpt lat="59.9548491" lon="17.7236486">
        <ele>64.5457</ele>
        <time>2014-06-25T19:04:33Z</time>
      </trkpt>
      <trkpt lat="59.9548585" lon="17.7236477">
        <ele>63.1036</ele>
        <time>2014-06-25T19:04:34Z</time>
      </trkpt>
      <trkpt lat="59.9548704" lon="17.7236534">
        <ele>63.1036</ele>
        <time>2014-06-25T19:04:35Z</time>
      </trkpt>
      <trkpt lat="59.9548828" lon="17.7236639">
        <ele>62.6229</ele>
        <time>2014-06-25T19:04:36Z</time>
      </trkpt>
      <trkpt lat="59.9548968" lon="17.7236719">
        <ele>61.6617</ele>
        <time>2014-06-25T19:04:37Z</time>
      </trkpt>
      <trkpt lat="59.9549081" lon="17.723681">
        <ele>60.2197</ele>
        <time>2014-06-25T19:04:38Z</time>
      </trkpt>
      <trkpt lat="59.9549253" lon="17.7236928">
        <ele>60.7003</ele>
        <time>2014-06-25T19:04:39Z</time>
      </trkpt>
      <trkpt lat="59.9549399" lon="17.7236981">
        <ele>59.7391</ele>
        <time>2014-06-25T19:04:40Z</time>
      </trkpt>
      <trkpt lat="59.9549605" lon="17.7237015">
        <ele>59.7391</ele>
        <time>2014-06-25T19:04:41Z</time>
      </trkpt>
      <trkpt lat="59.9549776" lon="17.723715">
        <ele>59.7391</ele>
        <time>2014-06-25T19:04:42Z</time>
      </trkpt>
      <trkpt lat="59.954988" lon="17.7237084">
        <ele>58.2971</ele>
        <time>2014-06-25T19:04:43Z</time>
      </trkpt>
      <trkpt lat="59.9549978" lon="17.7237025">
        <ele>58.2971</ele>
        <time>2014-06-25T19:04:44Z</time>
      </trkpt>
      <trkpt lat="59.9550107" lon="17.723699">
        <ele>57.3358</ele>
        <time>2014-06-25T19:04:45Z</time>
      </trkpt>
      <trkpt lat="59.955019" lon="17.7236815">
        <ele>55.4131</ele>
        <time>2014-06-25T19:04:46Z</time>
      </trkpt>
      <trkpt lat="59.9550341" lon="17.7236696">
        <ele>54.9324</ele>
        <time>2014-06-25T19:04:47Z</time>
      </trkpt>
      <trkpt lat="59.9550478" lon="17.7236622">
        <ele>53.9712</ele>
        <time>2014-06-25T19:04:48Z</time>
      </trkpt>
      <trkpt lat="59.9550584" lon="17.7236395">
        <ele>53.0098</ele>
        <time>2014-06-25T19:04:49Z</time>
      </trkpt>
      <trkpt lat="59.9550649" lon="17.7236193">
        <ele>53.4905</ele>
        <time>2014-06-25T19:04:50Z</time>
      </trkpt>
      <trkpt lat="59.9550684" lon="17.7236125">
        <ele>52.5292</ele>
        <time>2014-06-25T19:04:51Z</time>
      </trkpt>
      <trkpt lat="59.9550735" lon="17.7236004">
        <ele>52.0486</ele>
        <time>2014-06-25T19:04:52Z</time>
      </trkpt>
      <trkpt lat="59.9550821" lon="17.7235799">
        <ele>51.0872</ele>
        <time>2014-06-25T19:04:53Z</time>
      </trkpt>
      <trkpt lat="59.9550922" lon="17.7235577">
        <ele>50.126</ele>
        <time>2014-06-25T19:04:54Z</time>
      </trkpt>
      <trkpt lat="59.9551031" lon="17.7235413">
        <ele>49.6453</ele>
        <time>2014-06-25T19:04:55Z</time>
      </trkpt>
      <trkpt lat="59.9551172" lon="17.7235395">
        <ele>50.6066</ele>
        <time>2014-06-25T19:04:56Z</time>
      </trkpt>
      <trkpt lat="59.9551256" lon="17.7235374">
        <ele>50.6066</ele>
        <time>2014-06-25T19:04:57Z</time>
      </trkpt>
      <trkpt lat="59.9551362" lon="17.7235243">
        <ele>51.0872</ele>
        <time>2014-06-25T19:04:58Z</time>
      </trkpt>
      <trkpt lat="59.9551437" lon="17.7235046">
        <ele>50.126</ele>
        <time>2014-06-25T19:04:59Z</time>
      </trkpt>
      <trkpt lat="59.9551588" lon="17.7234887">
        <ele>49.1646</ele>
        <time>2014-06-25T19:05:00Z</time>
      </trkpt>
      <trkpt lat="59.9551782" lon="17.7234842">
        <ele>49.1646</ele>
        <time>2014-06-25T19:05:01Z</time>
      </trkpt>
      <trkpt lat="59.9551996" lon="17.7234893">
        <ele>49.6453</ele>
        <time>2014-06-25T19:05:02Z</time>
      </trkpt>
      <trkpt lat="59.9552341" lon="17.7234947">
        <ele>50.6066</ele>
        <time>2014-06-25T19:05:03Z</time>
      </trkpt>
      <trkpt lat="59.9552802" lon="17.7234983">
        <ele>51.0872</ele>
        <time>2014-06-25T19:05:04Z</time>
      </trkpt>
      <trkpt lat="59.9553121" lon="17.7234891">
        <ele>51.5679</ele>
        <time>2014-06-25T19:05:05Z</time>
      </trkpt>
      <trkpt lat="59.9553327" lon="17.7234745">
        <ele>51.0872</ele>
        <time>2014-06-25T19:05:06Z</time>
      </trkpt>
      <trkpt lat="59.9553628" lon="17.7234683">
        <ele>52.5292</ele>
        <time>2014-06-25T19:05:07Z</time>
      </trkpt>
      <trkpt lat="59.955377" lon="17.7234634">
        <ele>54.9324</ele>
        <time>2014-06-25T19:05:08Z</time>
      </trkpt>
      <trkpt lat="59.9554027" lon="17.7234596">
        <ele>56.3745</ele>
        <time>2014-06-25T19:05:09Z</time>
      </trkpt>
      <trkpt lat="59.9554201" lon="17.7234396">
        <ele>57.3358</ele>
        <time>2014-06-25T19:05:10Z</time>
      </trkpt>
      <trkpt lat="59.9554361" lon="17.7234348">
        <ele>57.8165</ele>
        <time>2014-06-25T19:05:11Z</time>
      </trkpt>
      <trkpt lat="59.9554472" lon="17.723436">
        <ele>58.2971</ele>
        <time>2014-06-25T19:05:12Z</time>
      </trkpt>
      <trkpt lat="59.9554509" lon="17.7234416">
        <ele>58.2971</ele>
        <time>2014-06-25T19:05:13Z</time>
      </trkpt>
      <trkpt lat="59.9554589" lon="17.7234405">
        <ele>59.2584</ele>
        <time>2014-06-25T19:05:14Z</time>
      </trkpt>
      <trkpt lat="59.9554582" lon="17.7234329">
        <ele>59.7391</ele>
        <time>2014-06-25T19:05:15Z</time>
      </trkpt>
      <trkpt lat="59.9554764" lon="17.7234398">
        <ele>60.2197</ele>
        <time>2014-06-25T19:05:16Z</time>
      </trkpt>
      <trkpt lat="59.9554955" lon="17.7234412">
        <ele>60.7003</ele>
        <time>2014-06-25T19:05:17Z</time>
      </trkpt>
      <trkpt lat="59.9555068" lon="17.723437">
        <ele>61.181</ele>
        <time>2014-06-25T19:05:18Z</time>
      </trkpt>
      <trkpt lat="59.9555164" lon="17.723446">
        <ele>62.1423</ele>
        <time>2014-06-25T19:05:19Z</time>
      </trkpt>
      <trkpt lat="59.9555376" lon="17.7234571">
        <ele>61.6617</ele>
        <time>2014-06-25T19:05:20Z</time>
      </trkpt>
      <trkpt lat="59.9555551" lon="17.7234587">
        <ele>61.181</ele>
        <time>2014-06-25T19:05:21Z</time>
      </trkpt>
      <trkpt lat="59.9555712" lon="17.7234545">
        <ele>60.7003</ele>
        <time>2014-06-25T19:05:22Z</time>
      </trkpt>
      <trkpt lat="59.9555863" lon="17.7234664">
        <ele>60.7003</ele>
        <time>2014-06-25T19:05:23Z</time>
      </trkpt>
      <trkpt lat="59.9556049" lon="17.723481">
        <ele>61.181</ele>
        <time>2014-06-25T19:05:24Z</time>
      </trkpt>
      <trkpt lat="59.95562" lon="17.7234958">
        <ele>60.2197</ele>
        <time>2014-06-25T19:05:25Z</time>
      </trkpt>
      <trkpt lat="59.9556368" lon="17.7235042">
        <ele>60.2197</ele>
        <time>2014-06-25T19:05:26Z</time>
      </trkpt>
      <trkpt lat="59.9556562" lon="17.7235207">
        <ele>60.7003</ele>
        <time>2014-06-25T19:05:27Z</time>
      </trkpt>
      <trkpt lat="59.9556748" lon="17.7235341">
        <ele>61.181</ele>
        <time>2014-06-25T19:05:28Z</time>
      </trkpt>
      <trkpt lat="59.9557008" lon="17.7235473">
        <ele>60.7003</ele>
        <time>2014-06-25T19:05:29Z</time>
      </trkpt>
      <trkpt lat="59.955723" lon="17.7235639">
        <ele>59.7391</ele>
        <time>2014-06-25T19:05:30Z</time>
      </trkpt>
      <trkpt lat="59.9557572" lon="17.7235963">
        <ele>60.2197</ele>
        <time>2014-06-25T19:05:31Z</time>
      </trkpt>
      <trkpt lat="59.9557815" lon="17.7236229">
        <ele>59.2584</ele>
        <time>2014-06-25T19:05:32Z</time>
      </trkpt>
      <trkpt lat="59.9558081" lon="17.7236439">
        <ele>60.7003</ele>
        <time>2014-06-25T19:05:33Z</time>
      </trkpt>
      <trkpt lat="59.9558292" lon="17.7236646">
        <ele>62.1423</ele>
        <time>2014-06-25T19:05:34Z</time>
      </trkpt>
      <trkpt lat="59.9558302" lon="17.7236757">
        <ele>62.1423</ele>
        <time>2014-06-25T19:05:35Z</time>
      </trkpt>
      <trkpt lat="59.9558404" lon="17.7236954">
        <ele>61.181</ele>
        <time>2014-06-25T19:05:36Z</time>
      </trkpt>
      <trkpt lat="59.9558488" lon="17.7237086">
        <ele>61.181</ele>
        <time>2014-06-25T19:05:37Z</time>
      </trkpt>
      <trkpt lat="59.9558583" lon="17.7237323">
        <ele>62.6229</ele>
        <time>2014-06-25T19:05:38Z</time>
      </trkpt>
      <trkpt lat="59.9558695" lon="17.7237446">
        <ele>62.6229</ele>
        <time>2014-06-25T19:05:39Z</time>
      </trkpt>
      <trkpt lat="59.9558845" lon="17.7237509">
        <ele>63.1036</ele>
        <time>2014-06-25T19:05:40Z</time>
      </trkpt>
      <trkpt lat="59.9558924" lon="17.7237618">
        <ele>64.5457</ele>
        <time>2014-06-25T19:05:41Z</time>
      </trkpt>
      <trkpt lat="59.9559064" lon="17.7237633">
        <ele>64.5457</ele>
        <time>2014-06-25T19:05:42Z</time>
      </trkpt>
      <trkpt lat="59.9559219" lon="17.7237579">
        <ele>65.9877</ele>
        <time>2014-06-25T19:05:43Z</time>
      </trkpt>
      <trkpt lat="59.9559329" lon="17.7237405">
        <ele>65.9877</ele>
        <time>2014-06-25T19:05:44Z</time>
      </trkpt>
      <trkpt lat="59.9559385" lon="17.7237227">
        <ele>64.5457</ele>
        <time>2014-06-25T19:05:45Z</time>
      </trkpt>
      <trkpt lat="59.955952" lon="17.723695">
        <ele>64.5457</ele>
        <time>2014-06-25T19:05:46Z</time>
      </trkpt>
      <trkpt lat="59.9559654" lon="17.7236724">
        <ele>64.5457</ele>
        <time>2014-06-25T19:05:47Z</time>
      </trkpt>
      <trkpt lat="59.9559707" lon="17.7236258">
        <ele>63.5844</ele>
        <time>2014-06-25T19:05:48Z</time>
      </trkpt>
      <trkpt lat="59.9559762" lon="17.7236064">
        <ele>63.1036</ele>
        <time>2014-06-25T19:05:49Z</time>
      </trkpt>
      <trkpt lat="59.955981" lon="17.723581">
        <ele>62.1423</ele>
        <time>2014-06-25T19:05:50Z</time>
      </trkpt>
      <trkpt lat="59.9559862" lon="17.7235388">
        <ele>61.6617</ele>
        <time>2014-06-25T19:05:51Z</time>
      </trkpt>
      <trkpt lat="59.9559903" lon="17.7235098">
        <ele>61.181</ele>
        <time>2014-06-25T19:05:52Z</time>
      </trkpt>
      <trkpt lat="59.9559949" lon="17.7234764">
        <ele>60.7003</ele>
        <time>2014-06-25T19:05:53Z</time>
      </trkpt>
      <trkpt lat="59.9559986" lon="17.7234348">
        <ele>59.2584</ele>
        <time>2014-06-25T19:05:54Z</time>
      </trkpt>
      <trkpt lat="59.956007" lon="17.7234022">
        <ele>58.7777</ele>
        <time>2014-06-25T19:05:55Z</time>
      </trkpt>
      <trkpt lat="59.9560135" lon="17.7233736">
        <ele>57.3358</ele>
        <time>2014-06-25T19:05:56Z</time>
      </trkpt>
      <trkpt lat="59.9560203" lon="17.7233415">
        <ele>56.3745</ele>
        <time>2014-06-25T19:05:57Z</time>
      </trkpt>
      <trkpt lat="59.9560275" lon="17.7233225">
        <ele>54.9324</ele>
        <time>2014-06-25T19:05:58Z</time>
      </trkpt>
      <trkpt lat="59.9560396" lon="17.7232971">
        <ele>54.9324</ele>
        <time>2014-06-25T19:05:59Z</time>
      </trkpt>
      <trkpt lat="59.9560483" lon="17.7232711">
        <ele>53.9712</ele>
        <time>2014-06-25T19:06:00Z</time>
      </trkpt>
      <trkpt lat="59.9560612" lon="17.7232462">
        <ele>53.9712</ele>
        <time>2014-06-25T19:06:01Z</time>
      </trkpt>
      <trkpt lat="59.9560731" lon="17.7232129">
        <ele>53.9712</ele>
        <time>2014-06-25T19:06:02Z</time>
      </trkpt>
      <trkpt lat="59.9560892" lon="17.7231821">
        <ele>53.9712</ele>
        <time>2014-06-25T19:06:03Z</time>
      </trkpt>
      <trkpt lat="59.9561006" lon="17.7231534">
        <ele>53.4905</ele>
        <time>2014-06-25T19:06:04Z</time>
      </trkpt>
      <trkpt lat="59.9561093" lon="17.7231205">
        <ele>51.5679</ele>
        <time>2014-06-25T19:06:05Z</time>
      </trkpt>
      <trkpt lat="59.9561145" lon="17.7230876">
        <ele>51.0872</ele>
        <time>2014-06-25T19:06:06Z</time>
      </trkpt>
      <trkpt lat="59.9561235" lon="17.7230611">
        <ele>50.6066</ele>
        <time>2014-06-25T19:06:07Z</time>
      </trkpt>
      <trkpt lat="59.9561306" lon="17.723033">
        <ele>50.126</ele>
        <time>2014-06-25T19:06:08Z</time>
      </trkpt>
      <trkpt lat="59.9561348" lon="17.7230075">
        <ele>50.126</ele>
        <time>2014-06-25T19:06:09Z</time>
      </trkpt>
      <trkpt lat="59.9561203" lon="17.7229749">
        <ele>50.126</ele>
        <time>2014-06-25T19:06:10Z</time>
      </trkpt>
      <trkpt lat="59.9561167" lon="17.7229495">
        <ele>49.1646</ele>
        <time>2014-06-25T19:06:11Z</time>
      </trkpt>
      <trkpt lat="59.9561155" lon="17.7229225">
        <ele>48.684</ele>
        <time>2014-06-25T19:06:12Z</time>
      </trkpt>
      <trkpt lat="59.9561053" lon="17.72288">
        <ele>48.684</ele>
        <time>2014-06-25T19:06:13Z</time>
      </trkpt>
      <trkpt lat="59.9560903" lon="17.7228354">
        <ele>49.6453</ele>
        <time>2014-06-25T19:06:14Z</time>
      </trkpt>
      <trkpt lat="59.9560788" lon="17.7227992">
        <ele>49.6453</ele>
        <time>2014-06-25T19:06:15Z</time>
      </trkpt>
      <trkpt lat="59.9560709" lon="17.7227656">
        <ele>50.6066</ele>
        <time>2014-06-25T19:06:16Z</time>
      </trkpt>
      <trkpt lat="59.9560655" lon="17.7227339">
        <ele>50.6066</ele>
        <time>2014-06-25T19:06:17Z</time>
      </trkpt>
      <trkpt lat="59.9560561" lon="17.7226936">
        <ele>50.6066</ele>
        <time>2014-06-25T19:06:18Z</time>
      </trkpt>
      <trkpt lat="59.9560437" lon="17.7226564">
        <ele>50.6066</ele>
        <time>2014-06-25T19:06:19Z</time>
      </trkpt>
      <trkpt lat="59.9560238" lon="17.7226164">
        <ele>51.0872</ele>
        <time>2014-06-25T19:06:20Z</time>
      </trkpt>
      <trkpt lat="59.9560162" lon="17.7225791">
        <ele>51.0872</ele>
        <time>2014-06-25T19:06:21Z</time>
      </trkpt>
      <trkpt lat="59.9560091" lon="17.7225352">
        <ele>50.6066</ele>
        <time>2014-06-25T19:06:22Z</time>
      </trkpt>
      <trkpt lat="59.9560068" lon="17.7224946">
        <ele>50.6066</ele>
        <time>2014-06-25T19:06:23Z</time>
      </trkpt>
      <trkpt lat="59.9559981" lon="17.722458">
        <ele>51.5679</ele>
        <time>2014-06-25T19:06:24Z</time>
      </trkpt>
      <trkpt lat="59.9559961" lon="17.7224201">
        <ele>52.0486</ele>
        <time>2014-06-25T19:06:25Z</time>
      </trkpt>
      <trkpt lat="59.9559924" lon="17.722379">
        <ele>53.4905</ele>
        <time>2014-06-25T19:06:26Z</time>
      </trkpt>
      <trkpt lat="59.9559917" lon="17.7223454">
        <ele>54.4518</ele>
        <time>2014-06-25T19:06:27Z</time>
      </trkpt>
      <trkpt lat="59.9559831" lon="17.7223083">
        <ele>55.8938</ele>
        <time>2014-06-25T19:06:28Z</time>
      </trkpt>
      <trkpt lat="59.9559842" lon="17.7222749">
        <ele>56.8551</ele>
        <time>2014-06-25T19:06:29Z</time>
      </trkpt>
      <trkpt lat="59.9559803" lon="17.7222385">
        <ele>57.8165</ele>
        <time>2014-06-25T19:06:30Z</time>
      </trkpt>
      <trkpt lat="59.9559743" lon="17.7222069">
        <ele>57.8165</ele>
        <time>2014-06-25T19:06:31Z</time>
      </trkpt>
      <trkpt lat="59.9559826" lon="17.7221781">
        <ele>59.2584</ele>
        <time>2014-06-25T19:06:32Z</time>
      </trkpt>
      <trkpt lat="59.9559887" lon="17.7221445">
        <ele>60.7003</ele>
        <time>2014-06-25T19:06:33Z</time>
      </trkpt>
      <trkpt lat="59.9559856" lon="17.7221047">
        <ele>60.7003</ele>
        <time>2014-06-25T19:06:34Z</time>
      </trkpt>
      <trkpt lat="59.9559938" lon="17.722064">
        <ele>61.181</ele>
        <time>2014-06-25T19:06:35Z</time>
      </trkpt>
      <trkpt lat="59.955998" lon="17.7220355">
        <ele>61.181</ele>
        <time>2014-06-25T19:06:36Z</time>
      </trkpt>
      <trkpt lat="59.9559996" lon="17.7220037">
        <ele>61.181</ele>
        <time>2014-06-25T19:06:37Z</time>
      </trkpt>
      <trkpt lat="59.9559979" lon="17.7219704">
        <ele>61.181</ele>
        <time>2014-06-25T19:06:38Z</time>
      </trkpt>
      <trkpt lat="59.955998" lon="17.7219418">
        <ele>61.6617</ele>
        <time>2014-06-25T19:06:39Z</time>
      </trkpt>
      <trkpt lat="59.9559997" lon="17.721912">
        <ele>62.1423</ele>
        <time>2014-06-25T19:06:40Z</time>
      </trkpt>
      <trkpt lat="59.9559929" lon="17.7218671">
        <ele>62.1423</ele>
        <time>2014-06-25T19:06:41Z</time>
      </trkpt>
      <trkpt lat="59.9559878" lon="17.7218248">
        <ele>61.6617</ele>
        <time>2014-06-25T19:06:42Z</time>
      </trkpt>
      <trkpt lat="59.955983" lon="17.721785">
        <ele>61.181</ele>
        <time>2014-06-25T19:06:43Z</time>
      </trkpt>
      <trkpt lat="59.9559799" lon="17.7217466">
        <ele>60.2197</ele>
        <time>2014-06-25T19:06:44Z</time>
      </trkpt>
      <trkpt lat="59.9559788" lon="17.7217123">
        <ele>59.2584</ele>
        <time>2014-06-25T19:06:45Z</time>
      </trkpt>
      <trkpt lat="59.9559888" lon="17.7216793">
        <ele>59.2584</ele>
        <time>2014-06-25T19:06:46Z</time>
      </trkpt>
      <trkpt lat="59.9559943" lon="17.7216405">
        <ele>59.2584</ele>
        <time>2014-06-25T19:06:47Z</time>
      </trkpt>
      <trkpt lat="59.9559999" lon="17.7216077">
        <ele>59.2584</ele>
        <time>2014-06-25T19:06:48Z</time>
      </trkpt>
      <trkpt lat="59.9560049" lon="17.7215756">
        <ele>58.7777</ele>
        <time>2014-06-25T19:06:49Z</time>
      </trkpt>
      <trkpt lat="59.9560095" lon="17.721534">
        <ele>57.8165</ele>
        <time>2014-06-25T19:06:50Z</time>
      </trkpt>
      <trkpt lat="59.9560166" lon="17.7215031">
        <ele>58.7777</ele>
        <time>2014-06-25T19:06:51Z</time>
      </trkpt>
      <trkpt lat="59.9560203" lon="17.7214685">
        <ele>58.7777</ele>
        <time>2014-06-25T19:06:52Z</time>
      </trkpt>
      <trkpt lat="59.9560158" lon="17.7214335">
        <ele>59.2584</ele>
        <time>2014-06-25T19:06:53Z</time>
      </trkpt>
      <trkpt lat="59.9560095" lon="17.7213928">
        <ele>58.2971</ele>
        <time>2014-06-25T19:06:54Z</time>
      </trkpt>
      <trkpt lat="59.956006" lon="17.7213638">
        <ele>57.3358</ele>
        <time>2014-06-25T19:06:55Z</time>
      </trkpt>
      <trkpt lat="59.9559932" lon="17.7213354">
        <ele>56.8551</ele>
        <time>2014-06-25T19:06:56Z</time>
      </trkpt>
      <trkpt lat="59.9559873" lon="17.7213035">
        <ele>57.3358</ele>
        <time>2014-06-25T19:06:57Z</time>
      </trkpt>
      <trkpt lat="59.9559839" lon="17.7212767">
        <ele>58.7777</ele>
        <time>2014-06-25T19:06:58Z</time>
      </trkpt>
      <trkpt lat="59.9559775" lon="17.721254">
        <ele>60.7003</ele>
        <time>2014-06-25T19:06:59Z</time>
      </trkpt>
      <trkpt lat="59.9559632" lon="17.7212297">
        <ele>61.181</ele>
        <time>2014-06-25T19:07:00Z</time>
      </trkpt>
      <trkpt lat="59.9559362" lon="17.7212084">
        <ele>61.181</ele>
        <time>2014-06-25T19:07:01Z</time>
      </trkpt>
      <trkpt lat="59.9559105" lon="17.7211955">
        <ele>61.181</ele>
        <time>2014-06-25T19:07:02Z</time>
      </trkpt>
      <trkpt lat="59.9558789" lon="17.7211829">
        <ele>60.2197</ele>
        <time>2014-06-25T19:07:03Z</time>
      </trkpt>
      <trkpt lat="59.9558596" lon="17.7211886">
        <ele>60.7003</ele>
        <time>2014-06-25T19:07:04Z</time>
      </trkpt>
      <trkpt lat="59.9558376" lon="17.7211892">
        <ele>59.7391</ele>
        <time>2014-06-25T19:07:05Z</time>
      </trkpt>
      <trkpt lat="59.955827" lon="17.7211949">
        <ele>59.2584</ele>
        <time>2014-06-25T19:07:06Z</time>
      </trkpt>
      <trkpt lat="59.955819" lon="17.7212084">
        <ele>59.7391</ele>
        <time>2014-06-25T19:07:07Z</time>
      </trkpt>
      <trkpt lat="59.9558002" lon="17.7212194">
        <ele>59.7391</ele>
        <time>2014-06-25T19:07:08Z</time>
      </trkpt>
      <trkpt lat="59.9557862" lon="17.7212298">
        <ele>58.2971</ele>
        <time>2014-06-25T19:07:09Z</time>
      </trkpt>
      <trkpt lat="59.9557639" lon="17.7212431">
        <ele>56.3745</ele>
        <time>2014-06-25T19:07:10Z</time>
      </trkpt>
      <trkpt lat="59.9557375" lon="17.721231">
        <ele>54.4518</ele>
        <time>2014-06-25T19:07:11Z</time>
      </trkpt>
      <trkpt lat="59.9557152" lon="17.7212302">
        <ele>53.9712</ele>
        <time>2014-06-25T19:07:12Z</time>
      </trkpt>
      <trkpt lat="59.9557" lon="17.7212358">
        <ele>55.4131</ele>
        <time>2014-06-25T19:07:13Z</time>
      </trkpt>
      <trkpt lat="59.9556816" lon="17.7212468">
        <ele>56.3745</ele>
        <time>2014-06-25T19:07:14Z</time>
      </trkpt>
      <trkpt lat="59.9556572" lon="17.7212447">
        <ele>57.3358</ele>
        <time>2014-06-25T19:07:15Z</time>
      </trkpt>
      <trkpt lat="59.9556368" lon="17.7212633">
        <ele>58.7777</ele>
        <time>2014-06-25T19:07:16Z</time>
      </trkpt>
      <trkpt lat="59.9556054" lon="17.7212637">
        <ele>58.7777</ele>
        <time>2014-06-25T19:07:17Z</time>
      </trkpt>
      <trkpt lat="59.9555745" lon="17.7212654">
        <ele>58.7777</ele>
        <time>2014-06-25T19:07:18Z</time>
      </trkpt>
      <trkpt lat="59.9555432" lon="17.7212694">
        <ele>59.2584</ele>
        <time>2014-06-25T19:07:19Z</time>
      </trkpt>
      <trkpt lat="59.9555204" lon="17.7212742">
        <ele>60.2197</ele>
        <time>2014-06-25T19:07:20Z</time>
      </trkpt>
      <trkpt lat="59.9555018" lon="17.7212694">
        <ele>60.7003</ele>
        <time>2014-06-25T19:07:21Z</time>
      </trkpt>
      <trkpt lat="59.9554759" lon="17.7212733">
        <ele>60.7003</ele>
        <time>2014-06-25T19:07:22Z</time>
      </trkpt>
      <trkpt lat="59.9554588" lon="17.7212828">
        <ele>61.181</ele>
        <time>2014-06-25T19:07:23Z</time>
      </trkpt>
      <trkpt lat="59.9554477" lon="17.7212897">
        <ele>60.2197</ele>
        <time>2014-06-25T19:07:24Z</time>
      </trkpt>
      <trkpt lat="59.9554402" lon="17.7213017">
        <ele>60.2197</ele>
        <time>2014-06-25T19:07:25Z</time>
      </trkpt>
      <trkpt lat="59.9554293" lon="17.7213035">
        <ele>60.2197</ele>
        <time>2014-06-25T19:07:26Z</time>
      </trkpt>
      <trkpt lat="59.9554141" lon="17.7213068">
        <ele>60.7003</ele>
        <time>2014-06-25T19:07:27Z</time>
      </trkpt>
      <trkpt lat="59.9554032" lon="17.7213094">
        <ele>60.7003</ele>
        <time>2014-06-25T19:07:28Z</time>
      </trkpt>
      <trkpt lat="59.9553946" lon="17.7213139">
        <ele>60.7003</ele>
        <time>2014-06-25T19:07:29Z</time>
      </trkpt>
      <trkpt lat="59.9553888" lon="17.7213131">
        <ele>61.181</ele>
        <time>2014-06-25T19:07:30Z</time>
      </trkpt>
      <trkpt lat="59.9553713" lon="17.7213151">
        <ele>60.7003</ele>
        <time>2014-06-25T19:07:31Z</time>
      </trkpt>
      <trkpt lat="59.9553682" lon="17.7213161">
        <ele>61.6617</ele>
        <time>2014-06-25T19:07:32Z</time>
      </trkpt>
      <trkpt lat="59.9553654" lon="17.7213266">
        <ele>63.1036</ele>
        <time>2014-06-25T19:07:33Z</time>
      </trkpt>
      <trkpt lat="59.9553589" lon="17.7213234">
        <ele>64.0651</ele>
        <time>2014-06-25T19:07:34Z</time>
      </trkpt>
      <trkpt lat="59.9553521" lon="17.7213327">
        <ele>65.5071</ele>
        <time>2014-06-25T19:07:35Z</time>
      </trkpt>
      <trkpt lat="59.9553338" lon="17.7213281">
        <ele>65.5071</ele>
        <time>2014-06-25T19:07:36Z</time>
      </trkpt>
      <trkpt lat="59.9553103" lon="17.7213197">
        <ele>64.5457</ele>
        <time>2014-06-25T19:07:37Z</time>
      </trkpt>
      <trkpt lat="59.9552921" lon="17.7213098">
        <ele>64.0651</ele>
        <time>2014-06-25T19:07:38Z</time>
      </trkpt>
      <trkpt lat="59.9552712" lon="17.7213022">
        <ele>65.0264</ele>
        <time>2014-06-25T19:07:39Z</time>
      </trkpt>
      <trkpt lat="59.9552515" lon="17.7212844">
        <ele>65.5071</ele>
        <time>2014-06-25T19:07:40Z</time>
      </trkpt>
      <trkpt lat="59.9552219" lon="17.7212655">
        <ele>66.4683</ele>
        <time>2014-06-25T19:07:41Z</time>
      </trkpt>
      <trkpt lat="59.9552019" lon="17.7212664">
        <ele>66.949</ele>
        <time>2014-06-25T19:07:42Z</time>
      </trkpt>
      <trkpt lat="59.9551734" lon="17.7212499">
        <ele>66.4683</ele>
        <time>2014-06-25T19:07:43Z</time>
      </trkpt>
      <trkpt lat="59.955147" lon="17.7212534">
        <ele>65.0264</ele>
        <time>2014-06-25T19:07:44Z</time>
      </trkpt>
      <trkpt lat="59.95512" lon="17.7212624">
        <ele>66.4683</ele>
        <time>2014-06-25T19:07:45Z</time>
      </trkpt>
      <trkpt lat="59.955108" lon="17.7212683">
        <ele>67.9103</ele>
        <time>2014-06-25T19:07:46Z</time>
      </trkpt>
      <trkpt lat="59.955087" lon="17.7212587">
        <ele>66.4683</ele>
        <time>2014-06-25T19:07:47Z</time>
      </trkpt>
      <trkpt lat="59.9550672" lon="17.721265">
        <ele>66.4683</ele>
        <time>2014-06-25T19:07:48Z</time>
      </trkpt>
      <trkpt lat="59.9550499" lon="17.7212742">
        <ele>65.9877</ele>
        <time>2014-06-25T19:07:49Z</time>
      </trkpt>
      <trkpt lat="59.9550309" lon="17.7212809">
        <ele>65.5071</ele>
        <time>2014-06-25T19:07:50Z</time>
      </trkpt>
      <trkpt lat="59.9550158" lon="17.7212758">
        <ele>65.0264</ele>
        <time>2014-06-25T19:07:51Z</time>
      </trkpt>
      <trkpt lat="59.9549988" lon="17.721259">
        <ele>65.0264</ele>
        <time>2014-06-25T19:07:52Z</time>
      </trkpt>
      <trkpt lat="59.9549847" lon="17.721257">
        <ele>64.0651</ele>
        <time>2014-06-25T19:07:53Z</time>
      </trkpt>
      <trkpt lat="59.9549646" lon="17.7212421">
        <ele>63.5844</ele>
        <time>2014-06-25T19:07:54Z</time>
      </trkpt>
      <trkpt lat="59.9549469" lon="17.7212425">
        <ele>63.5844</ele>
        <time>2014-06-25T19:07:55Z</time>
      </trkpt>
      <trkpt lat="59.954931" lon="17.7212343">
        <ele>63.5844</ele>
        <time>2014-06-25T19:07:56Z</time>
      </trkpt>
      <trkpt lat="59.9549077" lon="17.7212217">
        <ele>63.1036</ele>
        <time>2014-06-25T19:07:57Z</time>
      </trkpt>
      <trkpt lat="59.9548945" lon="17.721224">
        <ele>63.5844</ele>
        <time>2014-06-25T19:07:58Z</time>
      </trkpt>
      <trkpt lat="59.9548895" lon="17.7212193">
        <ele>64.0651</ele>
        <time>2014-06-25T19:07:59Z</time>
      </trkpt>
      <trkpt lat="59.9548832" lon="17.7212119">
        <ele>63.5844</ele>
        <time>2014-06-25T19:08:00Z</time>
      </trkpt>
      <trkpt lat="59.9548691" lon="17.721211">
        <ele>62.6229</ele>
        <time>2014-06-25T19:08:01Z</time>
      </trkpt>
      <trkpt lat="59.9548564" lon="17.7211994">
        <ele>62.1423</ele>
        <time>2014-06-25T19:08:02Z</time>
      </trkpt>
      <trkpt lat="59.954829" lon="17.7211758">
        <ele>61.181</ele>
        <time>2014-06-25T19:08:03Z</time>
      </trkpt>
      <trkpt lat="59.9548108" lon="17.7211547">
        <ele>60.2197</ele>
        <time>2014-06-25T19:08:04Z</time>
      </trkpt>
      <trkpt lat="59.9548026" lon="17.7211301">
        <ele>60.2197</ele>
        <time>2014-06-25T19:08:05Z</time>
      </trkpt>
      <trkpt lat="59.9548042" lon="17.7211101">
        <ele>60.7003</ele>
        <time>2014-06-25T19:08:06Z</time>
      </trkpt>
      <trkpt lat="59.9547937" lon="17.7210991">
        <ele>60.7003</ele>
        <time>2014-06-25T19:08:07Z</time>
      </trkpt>
      <trkpt lat="59.9547875" lon="17.721079">
        <ele>60.2197</ele>
        <time>2014-06-25T19:08:08Z</time>
      </trkpt>
      <trkpt lat="59.9547802" lon="17.7210549">
        <ele>60.2197</ele>
        <time>2014-06-25T19:08:09Z</time>
      </trkpt>
      <trkpt lat="59.9547736" lon="17.7210248">
        <ele>59.7391</ele>
        <time>2014-06-25T19:08:10Z</time>
      </trkpt>
      <trkpt lat="59.954759" lon="17.7209878">
        <ele>59.7391</ele>
        <time>2014-06-25T19:08:11Z</time>
      </trkpt>
      <trkpt lat="59.9547528" lon="17.7209597">
        <ele>60.2197</ele>
        <time>2014-06-25T19:08:12Z</time>
      </trkpt>
      <trkpt lat="59.9547476" lon="17.7209273">
        <ele>60.2197</ele>
        <time>2014-06-25T19:08:13Z</time>
      </trkpt>
      <trkpt lat="59.9547517" lon="17.7208822">
        <ele>61.181</ele>
        <time>2014-06-25T19:08:14Z</time>
      </trkpt>
      <trkpt lat="59.9547562" lon="17.7208489">
        <ele>61.6617</ele>
        <time>2014-06-25T19:08:15Z</time>
      </trkpt>
      <trkpt lat="59.9547595" lon="17.7208158">
        <ele>62.1423</ele>
        <time>2014-06-25T19:08:16Z</time>
      </trkpt>
      <trkpt lat="59.9547627" lon="17.7207675">
        <ele>62.1423</ele>
        <time>2014-06-25T19:08:17Z</time>
      </trkpt>
      <trkpt lat="59.9547629" lon="17.7207148">
        <ele>62.6229</ele>
        <time>2014-06-25T19:08:18Z</time>
      </trkpt>
      <trkpt lat="59.9547669" lon="17.7206801">
        <ele>63.1036</ele>
        <time>2014-06-25T19:08:19Z</time>
      </trkpt>
      <trkpt lat="59.9547743" lon="17.7206567">
        <ele>63.5844</ele>
        <time>2014-06-25T19:08:20Z</time>
      </trkpt>
      <trkpt lat="59.9547864" lon="17.7206303">
        <ele>64.5457</ele>
        <time>2014-06-25T19:08:21Z</time>
      </trkpt>
      <trkpt lat="59.9547994" lon="17.7206039">
        <ele>64.5457</ele>
        <time>2014-06-25T19:08:22Z</time>
      </trkpt>
      <trkpt lat="59.9548077" lon="17.7205763">
        <ele>63.1036</ele>
        <time>2014-06-25T19:08:23Z</time>
      </trkpt>
      <trkpt lat="59.9548186" lon="17.720549">
        <ele>62.6229</ele>
        <time>2014-06-25T19:08:24Z</time>
      </trkpt>
      <trkpt lat="59.9548301" lon="17.720523">
        <ele>62.6229</ele>
        <time>2014-06-25T19:08:25Z</time>
      </trkpt>
      <trkpt lat="59.9548313" lon="17.7205064">
        <ele>60.7003</ele>
        <time>2014-06-25T19:08:26Z</time>
      </trkpt>
      <trkpt lat="59.9548393" lon="17.7204924">
        <ele>60.7003</ele>
        <time>2014-06-25T19:08:27Z</time>
      </trkpt>
      <trkpt lat="59.9548496" lon="17.7204703">
        <ele>61.6617</ele>
        <time>2014-06-25T19:08:28Z</time>
      </trkpt>
      <trkpt lat="59.9548651" lon="17.7204645">
        <ele>62.6229</ele>
        <time>2014-06-25T19:08:29Z</time>
      </trkpt>
      <trkpt lat="59.9548801" lon="17.7204454">
        <ele>62.6229</ele>
        <time>2014-06-25T19:08:30Z</time>
      </trkpt>
      <trkpt lat="59.9548968" lon="17.7204226">
        <ele>63.1036</ele>
        <time>2014-06-25T19:08:31Z</time>
      </trkpt>
      <trkpt lat="59.9549103" lon="17.7204076">
        <ele>62.6229</ele>
        <time>2014-06-25T19:08:32Z</time>
      </trkpt>
      <trkpt lat="59.9549097" lon="17.7203806">
        <ele>61.181</ele>
        <time>2014-06-25T19:08:33Z</time>
      </trkpt>
      <trkpt lat="59.9549137" lon="17.7203614">
        <ele>61.6617</ele>
        <time>2014-06-25T19:08:34Z</time>
      </trkpt>
      <trkpt lat="59.9549216" lon="17.7203324">
        <ele>60.2197</ele>
        <time>2014-06-25T19:08:35Z</time>
      </trkpt>
      <trkpt lat="59.9549373" lon="17.7203121">
        <ele>58.7777</ele>
        <time>2014-06-25T19:08:36Z</time>
      </trkpt>
      <trkpt lat="59.9549584" lon="17.7202864">
        <ele>58.2971</ele>
        <time>2014-06-25T19:08:37Z</time>
      </trkpt>
      <trkpt lat="59.9549739" lon="17.7202704">
        <ele>58.2971</ele>
        <time>2014-06-25T19:08:38Z</time>
      </trkpt>
      <trkpt lat="59.9549886" lon="17.7202614">
        <ele>57.3358</ele>
        <time>2014-06-25T19:08:39Z</time>
      </trkpt>
      <trkpt lat="59.9550133" lon="17.7202541">
        <ele>57.8165</ele>
        <time>2014-06-25T19:08:40Z</time>
      </trkpt>
      <trkpt lat="59.9550361" lon="17.7202506">
        <ele>58.7777</ele>
        <time>2014-06-25T19:08:41Z</time>
      </trkpt>
      <trkpt lat="59.9550487" lon="17.7202378">
        <ele>57.8165</ele>
        <time>2014-06-25T19:08:42Z</time>
      </trkpt>
      <trkpt lat="59.9550699" lon="17.7202312">
        <ele>58.2971</ele>
        <time>2014-06-25T19:08:43Z</time>
      </trkpt>
      <trkpt lat="59.9550898" lon="17.7202168">
        <ele>58.7777</ele>
        <time>2014-06-25T19:08:44Z</time>
      </trkpt>
      <trkpt lat="59.9551" lon="17.7202007">
        <ele>58.7777</ele>
        <time>2014-06-25T19:08:45Z</time>
      </trkpt>
      <trkpt lat="59.9551126" lon="17.7201878">
        <ele>57.8165</ele>
        <time>2014-06-25T19:08:46Z</time>
      </trkpt>
      <trkpt lat="59.9551283" lon="17.720176">
        <ele>55.8938</ele>
        <time>2014-06-25T19:08:47Z</time>
      </trkpt>
      <trkpt lat="59.9551413" lon="17.7201637">
        <ele>54.9324</ele>
        <time>2014-06-25T19:08:48Z</time>
      </trkpt>
      <trkpt lat="59.9551547" lon="17.7201502">
        <ele>55.4131</ele>
        <time>2014-06-25T19:08:49Z</time>
      </trkpt>
      <trkpt lat="59.9551639" lon="17.7201279">
        <ele>54.9324</ele>
        <time>2014-06-25T19:08:50Z</time>
      </trkpt>
      <trkpt lat="59.9551755" lon="17.7201092">
        <ele>55.4131</ele>
        <time>2014-06-25T19:08:51Z</time>
      </trkpt>
      <trkpt lat="59.9551895" lon="17.7200963">
        <ele>54.9324</ele>
        <time>2014-06-25T19:08:52Z</time>
      </trkpt>
      <trkpt lat="59.9552025" lon="17.7200823">
        <ele>55.4131</ele>
        <time>2014-06-25T19:08:53Z</time>
      </trkpt>
      <trkpt lat="59.9552169" lon="17.7200617">
        <ele>56.8551</ele>
        <time>2014-06-25T19:08:54Z</time>
      </trkpt>
      <trkpt lat="59.9552289" lon="17.7200398">
        <ele>57.3358</ele>
        <time>2014-06-25T19:08:55Z</time>
      </trkpt>
      <trkpt lat="59.9552439" lon="17.7200171">
        <ele>57.3358</ele>
        <time>2014-06-25T19:08:56Z</time>
      </trkpt>
      <trkpt lat="59.955253" lon="17.7199917">
        <ele>57.8165</ele>
        <time>2014-06-25T19:08:57Z</time>
      </trkpt>
      <trkpt lat="59.9552699" lon="17.719972">
        <ele>56.8551</ele>
        <time>2014-06-25T19:08:58Z</time>
      </trkpt>
      <trkpt lat="59.9552817" lon="17.7199485">
        <ele>53.9712</ele>
        <time>2014-06-25T19:08:59Z</time>
      </trkpt>
      <trkpt lat="59.9552965" lon="17.7199373">
        <ele>53.4905</ele>
        <time>2014-06-25T19:09:00Z</time>
      </trkpt>
      <trkpt lat="59.9553131" lon="17.719928">
        <ele>53.4905</ele>
        <time>2014-06-25T19:09:01Z</time>
      </trkpt>
      <trkpt lat="59.9553309" lon="17.7199196">
        <ele>53.0098</ele>
        <time>2014-06-25T19:09:02Z</time>
      </trkpt>
      <trkpt lat="59.9553432" lon="17.7199073">
        <ele>52.5292</ele>
        <time>2014-06-25T19:09:03Z</time>
      </trkpt>
      <trkpt lat="59.9553527" lon="17.7198931">
        <ele>51.5679</ele>
        <time>2014-06-25T19:09:04Z</time>
      </trkpt>
      <trkpt lat="59.9553619" lon="17.7198739">
        <ele>52.0486</ele>
        <time>2014-06-25T19:09:05Z</time>
      </trkpt>
      <trkpt lat="59.9553776" lon="17.71986">
        <ele>53.0098</ele>
        <time>2014-06-25T19:09:06Z</time>
      </trkpt>
      <trkpt lat="59.9553935" lon="17.7198518">
        <ele>53.0098</ele>
        <time>2014-06-25T19:09:07Z</time>
      </trkpt>
      <trkpt lat="59.9554064" lon="17.7198419">
        <ele>53.4905</ele>
        <time>2014-06-25T19:09:08Z</time>
      </trkpt>
      <trkpt lat="59.9554189" lon="17.7198295">
        <ele>53.4905</ele>
        <time>2014-06-25T19:09:09Z</time>
      </trkpt>
      <trkpt lat="59.9554343" lon="17.7198284">
        <ele>53.9712</ele>
        <time>2014-06-25T19:09:10Z</time>
      </trkpt>
      <trkpt lat="59.955451" lon="17.7198181">
        <ele>54.9324</ele>
        <time>2014-06-25T19:09:11Z</time>
      </trkpt>
      <trkpt lat="59.9554692" lon="17.7198046">
        <ele>54.9324</ele>
        <time>2014-06-25T19:09:12Z</time>
      </trkpt>
      <trkpt lat="59.9554883" lon="17.7197982">
        <ele>54.4518</ele>
        <time>2014-06-25T19:09:13Z</time>
      </trkpt>
      <trkpt lat="59.9555059" lon="17.7197994">
        <ele>54.4518</ele>
        <time>2014-06-25T19:09:14Z</time>
      </trkpt>
      <trkpt lat="59.9555184" lon="17.719788">
        <ele>53.9712</ele>
        <time>2014-06-25T19:09:15Z</time>
      </trkpt>
      <trkpt lat="59.9555308" lon="17.7197812">
        <ele>53.9712</ele>
        <time>2014-06-25T19:09:16Z</time>
      </trkpt>
      <trkpt lat="59.9555474" lon="17.719786">
        <ele>55.4131</ele>
        <time>2014-06-25T19:09:17Z</time>
      </trkpt>
      <trkpt lat="59.9555676" lon="17.7197798">
        <ele>56.3745</ele>
        <time>2014-06-25T19:09:18Z</time>
      </trkpt>
      <trkpt lat="59.9555838" lon="17.7197625">
        <ele>56.8551</ele>
        <time>2014-06-25T19:09:19Z</time>
      </trkpt>
      <trkpt lat="59.9555993" lon="17.719744">
        <ele>56.3745</ele>
        <time>2014-06-25T19:09:20Z</time>
      </trkpt>
      <trkpt lat="59.9556184" lon="17.7197281">
        <ele>56.8551</ele>
        <time>2014-06-25T19:09:21Z</time>
      </trkpt>
      <trkpt lat="59.9556268" lon="17.7197202">
        <ele>57.3358</ele>
        <time>2014-06-25T19:09:22Z</time>
      </trkpt>
      <trkpt lat="59.9556447" lon="17.7197083">
        <ele>58.2971</ele>
        <time>2014-06-25T19:09:23Z</time>
      </trkpt>
      <trkpt lat="59.9556588" lon="17.71969">
        <ele>58.2971</ele>
        <time>2014-06-25T19:09:24Z</time>
      </trkpt>
      <trkpt lat="59.9556738" lon="17.7196802">
        <ele>59.2584</ele>
        <time>2014-06-25T19:09:25Z</time>
      </trkpt>
      <trkpt lat="59.9556887" lon="17.719662">
        <ele>59.2584</ele>
        <time>2014-06-25T19:09:26Z</time>
      </trkpt>
      <trkpt lat="59.9557017" lon="17.7196409">
        <ele>59.2584</ele>
        <time>2014-06-25T19:09:27Z</time>
      </trkpt>
      <trkpt lat="59.9557102" lon="17.7196239">
        <ele>59.2584</ele>
        <time>2014-06-25T19:09:28Z</time>
      </trkpt>
      <trkpt lat="59.9557178" lon="17.7196104">
        <ele>58.7777</ele>
        <time>2014-06-25T19:09:29Z</time>
      </trkpt>
      <trkpt lat="59.9557278" lon="17.7195943">
        <ele>58.2971</ele>
        <time>2014-06-25T19:09:30Z</time>
      </trkpt>
      <trkpt lat="59.9557407" lon="17.7195885">
        <ele>58.7777</ele>
        <time>2014-06-25T19:09:31Z</time>
      </trkpt>
      <trkpt lat="59.9557526" lon="17.7195726">
        <ele>57.8165</ele>
        <time>2014-06-25T19:09:32Z</time>
      </trkpt>
      <trkpt lat="59.9557701" lon="17.7195622">
        <ele>58.2971</ele>
        <time>2014-06-25T19:09:33Z</time>
      </trkpt>
      <trkpt lat="59.9557857" lon="17.7195492">
        <ele>58.2971</ele>
        <time>2014-06-25T19:09:34Z</time>
      </trkpt>
      <trkpt lat="59.9558073" lon="17.7195264">
        <ele>57.8165</ele>
        <time>2014-06-25T19:09:35Z</time>
      </trkpt>
      <trkpt lat="59.9558271" lon="17.7195068">
        <ele>57.3358</ele>
        <time>2014-06-25T19:09:36Z</time>
      </trkpt>
      <trkpt lat="59.955843" lon="17.7194955">
        <ele>56.8551</ele>
        <time>2014-06-25T19:09:37Z</time>
      </trkpt>
      <trkpt lat="59.9558557" lon="17.7194887">
        <ele>56.3745</ele>
        <time>2014-06-25T19:09:38Z</time>
      </trkpt>
      <trkpt lat="59.9558686" lon="17.719485">
        <ele>56.3745</ele>
        <time>2014-06-25T19:09:39Z</time>
      </trkpt>
      <trkpt lat="59.95588" lon="17.7194804">
        <ele>56.3745</ele>
        <time>2014-06-25T19:09:40Z</time>
      </trkpt>
      <trkpt lat="59.9558902" lon="17.7194726">
        <ele>56.3745</ele>
        <time>2014-06-25T19:09:41Z</time>
      </trkpt>
      <trkpt lat="59.9559017" lon="17.7194519">
        <ele>55.8938</ele>
        <time>2014-06-25T19:09:42Z</time>
      </trkpt>
      <trkpt lat="59.9559132" lon="17.7194264">
        <ele>55.4131</ele>
        <time>2014-06-25T19:09:43Z</time>
      </trkpt>
      <trkpt lat="59.9559251" lon="17.7194041">
        <ele>54.9324</ele>
        <time>2014-06-25T19:09:44Z</time>
      </trkpt>
      <trkpt lat="59.9559401" lon="17.7193855">
        <ele>54.9324</ele>
        <time>2014-06-25T19:09:45Z</time>
      </trkpt>
      <trkpt lat="59.955954" lon="17.7193721">
        <ele>54.9324</ele>
        <time>2014-06-25T19:09:46Z</time>
      </trkpt>
      <trkpt lat="59.9559691" lon="17.7193523">
        <ele>54.4518</ele>
        <time>2014-06-25T19:09:47Z</time>
      </trkpt>
      <trkpt lat="59.9559854" lon="17.7193369">
        <ele>54.4518</ele>
        <time>2014-06-25T19:09:48Z</time>
      </trkpt>
      <trkpt lat="59.9560003" lon="17.7193109">
        <ele>53.9712</ele>
        <time>2014-06-25T19:09:49Z</time>
      </trkpt>
      <trkpt lat="59.956009" lon="17.7192851">
        <ele>53.9712</ele>
        <time>2014-06-25T19:09:50Z</time>
      </trkpt>
      <trkpt lat="59.9560162" lon="17.7192591">
        <ele>53.4905</ele>
        <time>2014-06-25T19:09:51Z</time>
      </trkpt>
      <trkpt lat="59.9560238" lon="17.7192374">
        <ele>53.0098</ele>
        <time>2014-06-25T19:09:52Z</time>
      </trkpt>
      <trkpt lat="59.9560374" lon="17.7192134">
        <ele>53.0098</ele>
        <time>2014-06-25T19:09:53Z</time>
      </trkpt>
      <trkpt lat="59.9560476" lon="17.7191835">
        <ele>52.0486</ele>
        <time>2014-06-25T19:09:54Z</time>
      </trkpt>
      <trkpt lat="59.9560555" lon="17.7191489">
        <ele>51.5679</ele>
        <time>2014-06-25T19:09:55Z</time>
      </trkpt>
      <trkpt lat="59.9560647" lon="17.7191194">
        <ele>51.5679</ele>
        <time>2014-06-25T19:09:56Z</time>
      </trkpt>
      <trkpt lat="59.9560732" lon="17.7190947">
        <ele>51.0872</ele>
        <time>2014-06-25T19:09:57Z</time>
      </trkpt>
      <trkpt lat="59.9560854" lon="17.7190699">
        <ele>50.6066</ele>
        <time>2014-06-25T19:09:58Z</time>
      </trkpt>
      <trkpt lat="59.9560897" lon="17.7190419">
        <ele>51.0872</ele>
        <time>2014-06-25T19:09:59Z</time>
      </trkpt>
      <trkpt lat="59.9561015" lon="17.7190136">
        <ele>51.5679</ele>
        <time>2014-06-25T19:10:00Z</time>
      </trkpt>
      <trkpt lat="59.9561094" lon="17.7189881">
        <ele>52.0486</ele>
        <time>2014-06-25T19:10:01Z</time>
      </trkpt>
      <trkpt lat="59.9561161" lon="17.7189628">
        <ele>52.0486</ele>
        <time>2014-06-25T19:10:02Z</time>
      </trkpt>
      <trkpt lat="59.9561232" lon="17.7189314">
        <ele>52.0486</ele>
        <time>2014-06-25T19:10:03Z</time>
      </trkpt>
      <trkpt lat="59.9561353" lon="17.7189015">
        <ele>52.0486</ele>
        <time>2014-06-25T19:10:04Z</time>
      </trkpt>
      <trkpt lat="59.9561415" lon="17.7188716">
        <ele>51.5679</ele>
        <time>2014-06-25T19:10:05Z</time>
      </trkpt>
      <trkpt lat="59.9561587" lon="17.7188348">
        <ele>52.5292</ele>
        <time>2014-06-25T19:10:06Z</time>
      </trkpt>
      <trkpt lat="59.9561626" lon="17.7188017">
        <ele>51.5679</ele>
        <time>2014-06-25T19:10:07Z</time>
      </trkpt>
      <trkpt lat="59.956168" lon="17.718769">
        <ele>51.5679</ele>
        <time>2014-06-25T19:10:08Z</time>
      </trkpt>
      <trkpt lat="59.9561778" lon="17.718737">
        <ele>51.5679</ele>
        <time>2014-06-25T19:10:09Z</time>
      </trkpt>
      <trkpt lat="59.9561885" lon="17.7186998">
        <ele>52.5292</ele>
        <time>2014-06-25T19:10:10Z</time>
      </trkpt>
      <trkpt lat="59.9561942" lon="17.7186624">
        <ele>52.5292</ele>
        <time>2014-06-25T19:10:11Z</time>
      </trkpt>
      <trkpt lat="59.9562012" lon="17.7186339">
        <ele>53.9712</ele>
        <time>2014-06-25T19:10:12Z</time>
      </trkpt>
      <trkpt lat="59.9561975" lon="17.7186059">
        <ele>53.9712</ele>
        <time>2014-06-25T19:10:13Z</time>
      </trkpt>
      <trkpt lat="59.9561963" lon="17.7185763">
        <ele>53.9712</ele>
        <time>2014-06-25T19:10:14Z</time>
      </trkpt>
      <trkpt lat="59.9561985" lon="17.718541">
        <ele>54.4518</ele>
        <time>2014-06-25T19:10:15Z</time>
      </trkpt>
      <trkpt lat="59.9561996" lon="17.7185094">
        <ele>54.9324</ele>
        <time>2014-06-25T19:10:16Z</time>
      </trkpt>
      <trkpt lat="59.9561944" lon="17.7184832">
        <ele>55.4131</ele>
        <time>2014-06-25T19:10:17Z</time>
      </trkpt>
      <trkpt lat="59.9561913" lon="17.7184662">
        <ele>55.8938</ele>
        <time>2014-06-25T19:10:18Z</time>
      </trkpt>
      <trkpt lat="59.9561845" lon="17.7184437">
        <ele>56.3745</ele>
        <time>2014-06-25T19:10:19Z</time>
      </trkpt>
      <trkpt lat="59.9561727" lon="17.718411">
        <ele>56.3745</ele>
        <time>2014-06-25T19:10:20Z</time>
      </trkpt>
      <trkpt lat="59.9561618" lon="17.7183842">
        <ele>55.4131</ele>
        <time>2014-06-25T19:10:21Z</time>
      </trkpt>
      <trkpt lat="59.9561554" lon="17.7183589">
        <ele>55.8938</ele>
        <time>2014-06-25T19:10:22Z</time>
      </trkpt>
      <trkpt lat="59.9561492" lon="17.7183405">
        <ele>56.3745</ele>
        <time>2014-06-25T19:10:23Z</time>
      </trkpt>
      <trkpt lat="59.9561394" lon="17.7183178">
        <ele>55.8938</ele>
        <time>2014-06-25T19:10:24Z</time>
      </trkpt>
      <trkpt lat="59.9561343" lon="17.7182905">
        <ele>55.8938</ele>
        <time>2014-06-25T19:10:25Z</time>
      </trkpt>
      <trkpt lat="59.9561243" lon="17.7182656">
        <ele>55.4131</ele>
        <time>2014-06-25T19:10:26Z</time>
      </trkpt>
      <trkpt lat="59.9561213" lon="17.7182419">
        <ele>56.3745</ele>
        <time>2014-06-25T19:10:27Z</time>
      </trkpt>
      <trkpt lat="59.9561108" lon="17.7182133">
        <ele>55.8938</ele>
        <time>2014-06-25T19:10:28Z</time>
      </trkpt>
      <trkpt lat="59.9561002" lon="17.7181827">
        <ele>55.8938</ele>
        <time>2014-06-25T19:10:29Z</time>
      </trkpt>
      <trkpt lat="59.9560802" lon="17.7181444">
        <ele>55.8938</ele>
        <time>2014-06-25T19:10:30Z</time>
      </trkpt>
      <trkpt lat="59.9560596" lon="17.718104">
        <ele>55.4131</ele>
        <time>2014-06-25T19:10:31Z</time>
      </trkpt>
      <trkpt lat="59.9560437" lon="17.7180672">
        <ele>55.8938</ele>
        <time>2014-06-25T19:10:32Z</time>
      </trkpt>
      <trkpt lat="59.956029" lon="17.7180352">
        <ele>56.8551</ele>
        <time>2014-06-25T19:10:33Z</time>
      </trkpt>
      <trkpt lat="59.9560202" lon="17.7180166">
        <ele>57.3358</ele>
        <time>2014-06-25T19:10:34Z</time>
      </trkpt>
      <trkpt lat="59.9560062" lon="17.7179942">
        <ele>57.8165</ele>
        <time>2014-06-25T19:10:35Z</time>
      </trkpt>
      <trkpt lat="59.9559804" lon="17.7179727">
        <ele>57.8165</ele>
        <time>2014-06-25T19:10:36Z</time>
      </trkpt>
      <trkpt lat="59.9559526" lon="17.717942">
        <ele>57.8165</ele>
        <time>2014-06-25T19:10:37Z</time>
      </trkpt>
      <trkpt lat="59.9559318" lon="17.7179181">
        <ele>58.7777</ele>
        <time>2014-06-25T19:10:38Z</time>
      </trkpt>
      <trkpt lat="59.9559048" lon="17.7178888">
        <ele>59.2584</ele>
        <time>2014-06-25T19:10:39Z</time>
      </trkpt>
      <trkpt lat="59.9558944" lon="17.7178598">
        <ele>59.2584</ele>
        <time>2014-06-25T19:10:40Z</time>
      </trkpt>
      <trkpt lat="59.9558818" lon="17.7178236">
        <ele>58.7777</ele>
        <time>2014-06-25T19:10:41Z</time>
      </trkpt>
      <trkpt lat="59.9558612" lon="17.7177906">
        <ele>58.7777</ele>
        <time>2014-06-25T19:10:42Z</time>
      </trkpt>
      <trkpt lat="59.9558464" lon="17.7177607">
        <ele>58.7777</ele>
        <time>2014-06-25T19:10:43Z</time>
      </trkpt>
      <trkpt lat="59.9558335" lon="17.7177289">
        <ele>59.2584</ele>
        <time>2014-06-25T19:10:44Z</time>
      </trkpt>
      <trkpt lat="59.9558256" lon="17.717703">
        <ele>59.2584</ele>
        <time>2014-06-25T19:10:45Z</time>
      </trkpt>
      <trkpt lat="59.9558193" lon="17.7176834">
        <ele>59.2584</ele>
        <time>2014-06-25T19:10:46Z</time>
      </trkpt>
      <trkpt lat="59.9558186" lon="17.7176673">
        <ele>60.2197</ele>
        <time>2014-06-25T19:10:47Z</time>
      </trkpt>
      <trkpt lat="59.9558188" lon="17.7176527">
        <ele>60.2197</ele>
        <time>2014-06-25T19:10:48Z</time>
      </trkpt>
      <trkpt lat="59.955824" lon="17.7176362">
        <ele>60.7003</ele>
        <time>2014-06-25T19:10:49Z</time>
      </trkpt>
      <trkpt lat="59.9558205" lon="17.7176088">
        <ele>60.7003</ele>
        <time>2014-06-25T19:10:50Z</time>
      </trkpt>
      <trkpt lat="59.9558135" lon="17.7175772">
        <ele>61.181</ele>
        <time>2014-06-25T19:10:51Z</time>
      </trkpt>
      <trkpt lat="59.955806" lon="17.7175751">
        <ele>61.181</ele>
        <time>2014-06-25T19:10:52Z</time>
      </trkpt>
      <trkpt lat="59.9558037" lon="17.7175606">
        <ele>60.2197</ele>
        <time>2014-06-25T19:10:53Z</time>
      </trkpt>
      <trkpt lat="59.9558002" lon="17.7175413">
        <ele>59.7391</ele>
        <time>2014-06-25T19:10:54Z</time>
      </trkpt>
      <trkpt lat="59.9557909" lon="17.7175228">
        <ele>59.7391</ele>
        <time>2014-06-25T19:10:55Z</time>
      </trkpt>
      <trkpt lat="59.9557836" lon="17.7174975">
        <ele>59.2584</ele>
        <time>2014-06-25T19:10:56Z</time>
      </trkpt>
      <trkpt lat="59.9557774" lon="17.7174687">
        <ele>58.7777</ele>
        <time>2014-06-25T19:10:57Z</time>
      </trkpt>
      <trkpt lat="59.955765" lon="17.7174368">
        <ele>57.8165</ele>
        <time>2014-06-25T19:10:58Z</time>
      </trkpt>
      <trkpt lat="59.9557526" lon="17.7173926">
        <ele>56.8551</ele>
        <time>2014-06-25T19:10:59Z</time>
      </trkpt>
      <trkpt lat="59.9557474" lon="17.7173698">
        <ele>56.3745</ele>
        <time>2014-06-25T19:11:00Z</time>
      </trkpt>
      <trkpt lat="59.9557352" lon="17.7173487">
        <ele>55.4131</ele>
        <time>2014-06-25T19:11:01Z</time>
      </trkpt>
      <trkpt lat="59.9557198" lon="17.7173239">
        <ele>54.4518</ele>
        <time>2014-06-25T19:11:02Z</time>
      </trkpt>
      <trkpt lat="59.9557086" lon="17.7172974">
        <ele>54.9324</ele>
        <time>2014-06-25T19:11:03Z</time>
      </trkpt>
      <trkpt lat="59.9557018" lon="17.7172641">
        <ele>54.9324</ele>
        <time>2014-06-25T19:11:04Z</time>
      </trkpt>
      <trkpt lat="59.9556877" lon="17.7172238">
        <ele>54.4518</ele>
        <time>2014-06-25T19:11:05Z</time>
      </trkpt>
      <trkpt lat="59.9556752" lon="17.7171938">
        <ele>53.9712</ele>
        <time>2014-06-25T19:11:06Z</time>
      </trkpt>
      <trkpt lat="59.9556677" lon="17.717173">
        <ele>53.9712</ele>
        <time>2014-06-25T19:11:07Z</time>
      </trkpt>
      <trkpt lat="59.9556629" lon="17.7171458">
        <ele>53.4905</ele>
        <time>2014-06-25T19:11:08Z</time>
      </trkpt>
      <trkpt lat="59.955652" lon="17.7171201">
        <ele>53.4905</ele>
        <time>2014-06-25T19:11:09Z</time>
      </trkpt>
      <trkpt lat="59.9556378" lon="17.7170799">
        <ele>53.4905</ele>
        <time>2014-06-25T19:11:10Z</time>
      </trkpt>
      <trkpt lat="59.9556285" lon="17.7170386">
        <ele>53.0098</ele>
        <time>2014-06-25T19:11:11Z</time>
      </trkpt>
      <trkpt lat="59.9556252" lon="17.7169996">
        <ele>53.0098</ele>
        <time>2014-06-25T19:11:12Z</time>
      </trkpt>
      <trkpt lat="59.9556219" lon="17.7169693">
        <ele>52.0486</ele>
        <time>2014-06-25T19:11:13Z</time>
      </trkpt>
      <trkpt lat="59.9556156" lon="17.7169289">
        <ele>50.6066</ele>
        <time>2014-06-25T19:11:14Z</time>
      </trkpt>
      <trkpt lat="59.9556137" lon="17.7168925">
        <ele>51.0872</ele>
        <time>2014-06-25T19:11:15Z</time>
      </trkpt>
      <trkpt lat="59.9556033" lon="17.7168613">
        <ele>51.5679</ele>
        <time>2014-06-25T19:11:16Z</time>
      </trkpt>
      <trkpt lat="59.9555951" lon="17.7168311">
        <ele>51.5679</ele>
        <time>2014-06-25T19:11:17Z</time>
      </trkpt>
      <trkpt lat="59.9555876" lon="17.7167867">
        <ele>51.0872</ele>
        <time>2014-06-25T19:11:18Z</time>
      </trkpt>
      <trkpt lat="59.9555866" lon="17.7167535">
        <ele>50.126</ele>
        <time>2014-06-25T19:11:19Z</time>
      </trkpt>
      <trkpt lat="59.9555881" lon="17.7167291">
        <ele>50.6066</ele>
        <time>2014-06-25T19:11:20Z</time>
      </trkpt>
      <trkpt lat="59.9555944" lon="17.7167017">
        <ele>50.6066</ele>
        <time>2014-06-25T19:11:21Z</time>
      </trkpt>
      <trkpt lat="59.9556001" lon="17.7166616">
        <ele>50.6066</ele>
        <time>2014-06-25T19:11:22Z</time>
      </trkpt>
      <trkpt lat="59.9556184" lon="17.7165786">
        <ele>52.0486</ele>
        <time>2014-06-25T19:11:23Z</time>
      </trkpt>
      <trkpt lat="59.9556127" lon="17.7165384">
        <ele>53.0098</ele>
        <time>2014-06-25T19:11:24Z</time>
      </trkpt>
      <trkpt lat="59.9555976" lon="17.7164929">
        <ele>54.4518</ele>
        <time>2014-06-25T19:11:25Z</time>
      </trkpt>
      <trkpt lat="59.9555862" lon="17.7164531">
        <ele>53.4905</ele>
        <time>2014-06-25T19:11:26Z</time>
      </trkpt>
      <trkpt lat="59.9555723" lon="17.7164058">
        <ele>53.0098</ele>
        <time>2014-06-25T19:11:27Z</time>
      </trkpt>
      <trkpt lat="59.9555571" lon="17.7163562">
        <ele>53.9712</ele>
        <time>2014-06-25T19:11:28Z</time>
      </trkpt>
      <trkpt lat="59.9555423" lon="17.716319">
        <ele>54.4518</ele>
        <time>2014-06-25T19:11:29Z</time>
      </trkpt>
      <trkpt lat="59.9555413" lon="17.7162878">
        <ele>53.9712</ele>
        <time>2014-06-25T19:11:30Z</time>
      </trkpt>
      <trkpt lat="59.9555402" lon="17.7162515">
        <ele>52.5292</ele>
        <time>2014-06-25T19:11:31Z</time>
      </trkpt>
      <trkpt lat="59.955554" lon="17.716225">
        <ele>52.0486</ele>
        <time>2014-06-25T19:11:32Z</time>
      </trkpt>
      <trkpt lat="59.9555442" lon="17.7161858">
        <ele>50.6066</ele>
        <time>2014-06-25T19:11:33Z</time>
      </trkpt>
      <trkpt lat="59.9555313" lon="17.7161468">
        <ele>49.6453</ele>
        <time>2014-06-25T19:11:34Z</time>
      </trkpt>
      <trkpt lat="59.9555345" lon="17.7161097">
        <ele>49.1646</ele>
        <time>2014-06-25T19:11:35Z</time>
      </trkpt>
      <trkpt lat="59.9555376" lon="17.7160698">
        <ele>49.6453</ele>
        <time>2014-06-25T19:11:36Z</time>
      </trkpt>
      <trkpt lat="59.9555339" lon="17.7160266">
        <ele>50.126</ele>
        <time>2014-06-25T19:11:37Z</time>
      </trkpt>
      <trkpt lat="59.9555071" lon="17.7159737">
        <ele>50.126</ele>
        <time>2014-06-25T19:11:38Z</time>
      </trkpt>
      <trkpt lat="59.95548" lon="17.7159214">
        <ele>49.1646</ele>
        <time>2014-06-25T19:11:39Z</time>
      </trkpt>
      <trkpt lat="59.9554692" lon="17.7158813">
        <ele>48.684</ele>
        <time>2014-06-25T19:11:40Z</time>
      </trkpt>
      <trkpt lat="59.9554433" lon="17.7158346">
        <ele>49.1646</ele>
        <time>2014-06-25T19:11:41Z</time>
      </trkpt>
      <trkpt lat="59.9554369" lon="17.7157968">
        <ele>50.126</ele>
        <time>2014-06-25T19:11:42Z</time>
      </trkpt>
      <trkpt lat="59.9554468" lon="17.7157843">
        <ele>51.5679</ele>
        <time>2014-06-25T19:11:43Z</time>
      </trkpt>
      <trkpt lat="59.9554355" lon="17.7157543">
        <ele>52.5292</ele>
        <time>2014-06-25T19:11:44Z</time>
      </trkpt>
      <trkpt lat="59.9554268" lon="17.7157232">
        <ele>52.5292</ele>
        <time>2014-06-25T19:11:45Z</time>
      </trkpt>
      <trkpt lat="59.9554276" lon="17.7156947">
        <ele>52.0486</ele>
        <time>2014-06-25T19:11:46Z</time>
      </trkpt>
      <trkpt lat="59.9554297" lon="17.7156643">
        <ele>52.0486</ele>
        <time>2014-06-25T19:11:47Z</time>
      </trkpt>
      <trkpt lat="59.9554307" lon="17.7156326">
        <ele>52.5292</ele>
        <time>2014-06-25T19:11:48Z</time>
      </trkpt>
      <trkpt lat="59.9554268" lon="17.7155828">
        <ele>52.0486</ele>
        <time>2014-06-25T19:11:49Z</time>
      </trkpt>
      <trkpt lat="59.955435" lon="17.7155404">
        <ele>52.0486</ele>
        <time>2014-06-25T19:11:50Z</time>
      </trkpt>
      <trkpt lat="59.955435" lon="17.7155084">
        <ele>51.0872</ele>
        <time>2014-06-25T19:11:51Z</time>
      </trkpt>
      <trkpt lat="59.9554339" lon="17.7154874">
        <ele>50.6066</ele>
        <time>2014-06-25T19:11:52Z</time>
      </trkpt>
      <trkpt lat="59.9554253" lon="17.7154528">
        <ele>49.6453</ele>
        <time>2014-06-25T19:11:53Z</time>
      </trkpt>
      <trkpt lat="59.9554271" lon="17.7154254">
        <ele>49.6453</ele>
        <time>2014-06-25T19:11:54Z</time>
      </trkpt>
      <trkpt lat="59.9554289" lon="17.7153965">
        <ele>48.2034</ele>
        <time>2014-06-25T19:11:55Z</time>
      </trkpt>
      <trkpt lat="59.9554287" lon="17.7153653">
        <ele>48.2034</ele>
        <time>2014-06-25T19:11:56Z</time>
      </trkpt>
      <trkpt lat="59.9554293" lon="17.7153362">
        <ele>48.2034</ele>
        <time>2014-06-25T19:11:57Z</time>
      </trkpt>
      <trkpt lat="59.9554354" lon="17.7153078">
        <ele>48.684</ele>
        <time>2014-06-25T19:11:58Z</time>
      </trkpt>
      <trkpt lat="59.9554375" lon="17.7152825">
        <ele>48.684</ele>
        <time>2014-06-25T19:11:59Z</time>
      </trkpt>
      <trkpt lat="59.9554359" lon="17.7152538">
        <ele>48.2034</ele>
        <time>2014-06-25T19:12:00Z</time>
      </trkpt>
      <trkpt lat="59.9554255" lon="17.7152093">
        <ele>47.2418</ele>
        <time>2014-06-25T19:12:01Z</time>
      </trkpt>
      <trkpt lat="59.9554253" lon="17.7151751">
        <ele>47.2418</ele>
        <time>2014-06-25T19:12:02Z</time>
      </trkpt>
      <trkpt lat="59.9554194" lon="17.7151421">
        <ele>46.7612</ele>
        <time>2014-06-25T19:12:03Z</time>
      </trkpt>
      <trkpt lat="59.9554203" lon="17.7151176">
        <ele>47.2418</ele>
        <time>2014-06-25T19:12:04Z</time>
      </trkpt>
      <trkpt lat="59.9554216" lon="17.7150919">
        <ele>46.7612</ele>
        <time>2014-06-25T19:12:05Z</time>
      </trkpt>
      <trkpt lat="59.9554258" lon="17.7150708">
        <ele>46.7612</ele>
        <time>2014-06-25T19:12:06Z</time>
      </trkpt>
      <trkpt lat="59.9554314" lon="17.7150471">
        <ele>46.7612</ele>
        <time>2014-06-25T19:12:07Z</time>
      </trkpt>
      <trkpt lat="59.9554385" lon="17.7150176">
        <ele>46.7612</ele>
        <time>2014-06-25T19:12:08Z</time>
      </trkpt>
      <trkpt lat="59.9554506" lon="17.7149994">
        <ele>46.2806</ele>
        <time>2014-06-25T19:12:09Z</time>
      </trkpt>
      <trkpt lat="59.95545" lon="17.7149778">
        <ele>46.2806</ele>
        <time>2014-06-25T19:12:10Z</time>
      </trkpt>
      <trkpt lat="59.9554366" lon="17.7149551">
        <ele>46.2806</ele>
        <time>2014-06-25T19:12:11Z</time>
      </trkpt>
      <trkpt lat="59.9554146" lon="17.7149237">
        <ele>45.7999</ele>
        <time>2014-06-25T19:12:12Z</time>
      </trkpt>
      <trkpt lat="59.9554013" lon="17.7148897">
        <ele>46.2806</ele>
        <time>2014-06-25T19:12:13Z</time>
      </trkpt>
      <trkpt lat="59.9553911" lon="17.7148458">
        <ele>46.7612</ele>
        <time>2014-06-25T19:12:14Z</time>
      </trkpt>
      <trkpt lat="59.95537" lon="17.7147961">
        <ele>46.2806</ele>
        <time>2014-06-25T19:12:15Z</time>
      </trkpt>
      <trkpt lat="59.9553449" lon="17.7147477">
        <ele>46.7612</ele>
        <time>2014-06-25T19:12:16Z</time>
      </trkpt>
      <trkpt lat="59.9553253" lon="17.7146996">
        <ele>46.7612</ele>
        <time>2014-06-25T19:12:17Z</time>
      </trkpt>
      <trkpt lat="59.9553182" lon="17.714666">
        <ele>47.2418</ele>
        <time>2014-06-25T19:12:18Z</time>
      </trkpt>
      <trkpt lat="59.9553193" lon="17.7146378">
        <ele>47.2418</ele>
        <time>2014-06-25T19:12:19Z</time>
      </trkpt>
      <trkpt lat="59.9553313" lon="17.7146162">
        <ele>47.2418</ele>
        <time>2014-06-25T19:12:20Z</time>
      </trkpt>
      <trkpt lat="59.9553271" lon="17.7145909">
        <ele>47.2418</ele>
        <time>2014-06-25T19:12:21Z</time>
      </trkpt>
      <trkpt lat="59.9553182" lon="17.7145658">
        <ele>46.7612</ele>
        <time>2014-06-25T19:12:22Z</time>
      </trkpt>
      <trkpt lat="59.9553025" lon="17.7145323">
        <ele>46.7612</ele>
        <time>2014-06-25T19:12:23Z</time>
      </trkpt>
      <trkpt lat="59.9552924" lon="17.7144853">
        <ele>47.7225</ele>
        <time>2014-06-25T19:12:24Z</time>
      </trkpt>
      <trkpt lat="59.9552852" lon="17.7144493">
        <ele>47.2418</ele>
        <time>2014-06-25T19:12:25Z</time>
      </trkpt>
      <trkpt lat="59.9552765" lon="17.7144166">
        <ele>47.7225</ele>
        <time>2014-06-25T19:12:26Z</time>
      </trkpt>
      <trkpt lat="59.9552732" lon="17.7143893">
        <ele>47.7225</ele>
        <time>2014-06-25T19:12:27Z</time>
      </trkpt>
      <trkpt lat="59.9552682" lon="17.7143599">
        <ele>47.7225</ele>
        <time>2014-06-25T19:12:28Z</time>
      </trkpt>
      <trkpt lat="59.9552629" lon="17.7143335">
        <ele>47.7225</ele>
        <time>2014-06-25T19:12:29Z</time>
      </trkpt>
      <trkpt lat="59.9552718" lon="17.7142985">
        <ele>46.7612</ele>
        <time>2014-06-25T19:12:30Z</time>
      </trkpt>
      <trkpt lat="59.9552722" lon="17.7142641">
        <ele>47.2418</ele>
        <time>2014-06-25T19:12:31Z</time>
      </trkpt>
      <trkpt lat="59.955262" lon="17.714233">
        <ele>46.7612</ele>
        <time>2014-06-25T19:12:32Z</time>
      </trkpt>
      <trkpt lat="59.9552572" lon="17.7142008">
        <ele>47.2418</ele>
        <time>2014-06-25T19:12:33Z</time>
      </trkpt>
      <trkpt lat="59.9552464" lon="17.7141703">
        <ele>47.2418</ele>
        <time>2014-06-25T19:12:34Z</time>
      </trkpt>
      <trkpt lat="59.9552364" lon="17.714148">
        <ele>47.2418</ele>
        <time>2014-06-25T19:12:35Z</time>
      </trkpt>
      <trkpt lat="59.9552167" lon="17.7141262">
        <ele>47.2418</ele>
        <time>2014-06-25T19:12:36Z</time>
      </trkpt>
      <trkpt lat="59.9551962" lon="17.7141104">
        <ele>47.2418</ele>
        <time>2014-06-25T19:12:37Z</time>
      </trkpt>
      <trkpt lat="59.9551756" lon="17.7141086">
        <ele>46.7612</ele>
        <time>2014-06-25T19:12:38Z</time>
      </trkpt>
      <trkpt lat="59.9551546" lon="17.7141268">
        <ele>46.7612</ele>
        <time>2014-06-25T19:12:39Z</time>
      </trkpt>
      <trkpt lat="59.955138" lon="17.7141557">
        <ele>45.7999</ele>
        <time>2014-06-25T19:12:40Z</time>
      </trkpt>
      <trkpt lat="59.9551247" lon="17.7141799">
        <ele>44.8386</ele>
        <time>2014-06-25T19:12:41Z</time>
      </trkpt>
      <trkpt lat="59.9551128" lon="17.7142008">
        <ele>43.8773</ele>
        <time>2014-06-25T19:12:42Z</time>
      </trkpt>
      <trkpt lat="59.955102" lon="17.7142293">
        <ele>42.916</ele>
        <time>2014-06-25T19:12:43Z</time>
      </trkpt>
      <trkpt lat="59.9550957" lon="17.7142541">
        <ele>42.4354</ele>
        <time>2014-06-25T19:12:44Z</time>
      </trkpt>
      <trkpt lat="59.9550908" lon="17.7142903">
        <ele>41.9547</ele>
        <time>2014-06-25T19:12:45Z</time>
      </trkpt>
      <trkpt lat="59.9550817" lon="17.7143173">
        <ele>42.4354</ele>
        <time>2014-06-25T19:12:46Z</time>
      </trkpt>
      <trkpt lat="59.9550667" lon="17.7143263">
        <ele>42.4354</ele>
        <time>2014-06-25T19:12:47Z</time>
      </trkpt>
      <trkpt lat="59.955046" lon="17.7143241">
        <ele>41.9547</ele>
        <time>2014-06-25T19:12:48Z</time>
      </trkpt>
      <trkpt lat="59.9550279" lon="17.7143359">
        <ele>41.474</ele>
        <time>2014-06-25T19:12:49Z</time>
      </trkpt>
      <trkpt lat="59.9550065" lon="17.7143573">
        <ele>40.9934</ele>
        <time>2014-06-25T19:12:50Z</time>
      </trkpt>
      <trkpt lat="59.9549869" lon="17.7143852">
        <ele>41.474</ele>
        <time>2014-06-25T19:12:51Z</time>
      </trkpt>
      <trkpt lat="59.9549698" lon="17.7144007">
        <ele>40.0321</ele>
        <time>2014-06-25T19:12:52Z</time>
      </trkpt>
      <trkpt lat="59.95496" lon="17.7144256">
        <ele>40.5128</ele>
        <time>2014-06-25T19:12:53Z</time>
      </trkpt>
      <trkpt lat="59.9549479" lon="17.7144458">
        <ele>40.5128</ele>
        <time>2014-06-25T19:12:54Z</time>
      </trkpt>
      <trkpt lat="59.9549339" lon="17.714464">
        <ele>40.0321</ele>
        <time>2014-06-25T19:12:55Z</time>
      </trkpt>
      <trkpt lat="59.9549175" lon="17.7144826">
        <ele>40.0321</ele>
        <time>2014-06-25T19:12:56Z</time>
      </trkpt>
      <trkpt lat="59.9549035" lon="17.7145027">
        <ele>39.0707</ele>
        <time>2014-06-25T19:12:57Z</time>
      </trkpt>
      <trkpt lat="59.9548819" lon="17.714522">
        <ele>39.0707</ele>
        <time>2014-06-25T19:12:58Z</time>
      </trkpt>
      <trkpt lat="59.9548702" lon="17.7145406">
        <ele>38.5901</ele>
        <time>2014-06-25T19:12:59Z</time>
      </trkpt>
      <trkpt lat="59.9548548" lon="17.7145618">
        <ele>38.5901</ele>
        <time>2014-06-25T19:13:00Z</time>
      </trkpt>
      <trkpt lat="59.9548393" lon="17.7145839">
        <ele>38.5901</ele>
        <time>2014-06-25T19:13:01Z</time>
      </trkpt>
      <trkpt lat="59.9548247" lon="17.7146038">
        <ele>38.5901</ele>
        <time>2014-06-25T19:13:02Z</time>
      </trkpt>
      <trkpt lat="59.9548124" lon="17.7146298">
        <ele>38.1094</ele>
        <time>2014-06-25T19:13:03Z</time>
      </trkpt>
      <trkpt lat="59.9547963" lon="17.7146431">
        <ele>38.5901</ele>
        <time>2014-06-25T19:13:04Z</time>
      </trkpt>
      <trkpt lat="59.9547766" lon="17.7146437">
        <ele>38.1094</ele>
        <time>2014-06-25T19:13:05Z</time>
      </trkpt>
      <trkpt lat="59.9547636" lon="17.7146492">
        <ele>38.5901</ele>
        <time>2014-06-25T19:13:06Z</time>
      </trkpt>
      <trkpt lat="59.9547532" lon="17.7146566">
        <ele>39.0707</ele>
        <time>2014-06-25T19:13:07Z</time>
      </trkpt>
      <trkpt lat="59.9547409" lon="17.7146523">
        <ele>39.5513</ele>
        <time>2014-06-25T19:13:08Z</time>
      </trkpt>
      <trkpt lat="59.9547241" lon="17.7146551">
        <ele>39.5513</ele>
        <time>2014-06-25T19:13:09Z</time>
      </trkpt>
      <trkpt lat="59.9547067" lon="17.714663">
        <ele>40.0321</ele>
        <time>2014-06-25T19:13:10Z</time>
      </trkpt>
      <trkpt lat="59.9546922" lon="17.7146727">
        <ele>40.0321</ele>
        <time>2014-06-25T19:13:11Z</time>
      </trkpt>
      <trkpt lat="59.9546792" lon="17.7146858">
        <ele>40.5128</ele>
        <time>2014-06-25T19:13:12Z</time>
      </trkpt>
      <trkpt lat="59.9546648" lon="17.7146894">
        <ele>40.5128</ele>
        <time>2014-06-25T19:13:13Z</time>
      </trkpt>
      <trkpt lat="59.9546449" lon="17.7146981">
        <ele>41.474</ele>
        <time>2014-06-25T19:13:14Z</time>
      </trkpt>
      <trkpt lat="59.9546284" lon="17.7147096">
        <ele>43.3966</ele>
        <time>2014-06-25T19:13:15Z</time>
      </trkpt>
      <trkpt lat="59.9546124" lon="17.7147098">
        <ele>44.358</ele>
        <time>2014-06-25T19:13:16Z</time>
      </trkpt>
      <trkpt lat="59.9546044" lon="17.7147108">
        <ele>45.3192</ele>
        <time>2014-06-25T19:13:17Z</time>
      </trkpt>
      <trkpt lat="59.9545896" lon="17.7147167">
        <ele>45.7999</ele>
        <time>2014-06-25T19:13:18Z</time>
      </trkpt>
      <trkpt lat="59.954577" lon="17.714725">
        <ele>45.7999</ele>
        <time>2014-06-25T19:13:19Z</time>
      </trkpt>
      <trkpt lat="59.9545632" lon="17.7147229">
        <ele>45.7999</ele>
        <time>2014-06-25T19:13:20Z</time>
      </trkpt>
      <trkpt lat="59.9545409" lon="17.7147181">
        <ele>47.2418</ele>
        <time>2014-06-25T19:13:21Z</time>
      </trkpt>
      <trkpt lat="59.9545145" lon="17.714722">
        <ele>47.2418</ele>
        <time>2014-06-25T19:13:22Z</time>
      </trkpt>
      <trkpt lat="59.9544918" lon="17.7147235">
        <ele>48.2034</ele>
        <time>2014-06-25T19:13:23Z</time>
      </trkpt>
      <trkpt lat="59.9544628" lon="17.7147173">
        <ele>48.684</ele>
        <time>2014-06-25T19:13:24Z</time>
      </trkpt>
      <trkpt lat="59.9544403" lon="17.71473">
        <ele>49.6453</ele>
        <time>2014-06-25T19:13:25Z</time>
      </trkpt>
      <trkpt lat="59.9544129" lon="17.7147352">
        <ele>50.6066</ele>
        <time>2014-06-25T19:13:26Z</time>
      </trkpt>
      <trkpt lat="59.9544032" lon="17.7147535">
        <ele>51.0872</ele>
        <time>2014-06-25T19:13:27Z</time>
      </trkpt>
      <trkpt lat="59.9543897" lon="17.7147583">
        <ele>52.0486</ele>
        <time>2014-06-25T19:13:28Z</time>
      </trkpt>
      <trkpt lat="59.9543783" lon="17.7147685">
        <ele>53.4905</ele>
        <time>2014-06-25T19:13:29Z</time>
      </trkpt>
      <trkpt lat="59.9543662" lon="17.7147732">
        <ele>54.9324</ele>
        <time>2014-06-25T19:13:30Z</time>
      </trkpt>
      <trkpt lat="59.9543564" lon="17.7147798">
        <ele>54.9324</ele>
        <time>2014-06-25T19:13:31Z</time>
      </trkpt>
      <trkpt lat="59.954354" lon="17.7147878">
        <ele>54.4518</ele>
        <time>2014-06-25T19:13:32Z</time>
      </trkpt>
      <trkpt lat="59.9543404" lon="17.7147861">
        <ele>54.9324</ele>
        <time>2014-06-25T19:13:33Z</time>
      </trkpt>
      <trkpt lat="59.9543161" lon="17.7147833">
        <ele>54.4518</ele>
        <time>2014-06-25T19:13:34Z</time>
      </trkpt>
      <trkpt lat="59.9542946" lon="17.714769">
        <ele>54.4518</ele>
        <time>2014-06-25T19:13:35Z</time>
      </trkpt>
      <trkpt lat="59.9542751" lon="17.7147654">
        <ele>55.4131</ele>
        <time>2014-06-25T19:13:36Z</time>
      </trkpt>
      <trkpt lat="59.9542696" lon="17.7147716">
        <ele>57.3358</ele>
        <time>2014-06-25T19:13:37Z</time>
      </trkpt>
      <trkpt lat="59.9542596" lon="17.7147774">
        <ele>57.3358</ele>
        <time>2014-06-25T19:13:38Z</time>
      </trkpt>
      <trkpt lat="59.9542395" lon="17.7147908">
        <ele>57.8165</ele>
        <time>2014-06-25T19:13:39Z</time>
      </trkpt>
      <trkpt lat="59.9542273" lon="17.7148042">
        <ele>58.2971</ele>
        <time>2014-06-25T19:13:40Z</time>
      </trkpt>
      <trkpt lat="59.9542108" lon="17.7148126">
        <ele>57.3358</ele>
        <time>2014-06-25T19:13:41Z</time>
      </trkpt>
      <trkpt lat="59.9541851" lon="17.7148145">
        <ele>57.3358</ele>
        <time>2014-06-25T19:13:42Z</time>
      </trkpt>
      <trkpt lat="59.9541665" lon="17.7148206">
        <ele>57.3358</ele>
        <time>2014-06-25T19:13:43Z</time>
      </trkpt>
      <trkpt lat="59.9541457" lon="17.7148302">
        <ele>57.3358</ele>
        <time>2014-06-25T19:13:44Z</time>
      </trkpt>
      <trkpt lat="59.9541251" lon="17.7148268">
        <ele>56.8551</ele>
        <time>2014-06-25T19:13:45Z</time>
      </trkpt>
      <trkpt lat="59.9541072" lon="17.7148323">
        <ele>56.3745</ele>
        <time>2014-06-25T19:13:46Z</time>
      </trkpt>
      <trkpt lat="59.954088" lon="17.7148316">
        <ele>56.8551</ele>
        <time>2014-06-25T19:13:47Z</time>
      </trkpt>
      <trkpt lat="59.9540701" lon="17.7148222">
        <ele>57.8165</ele>
        <time>2014-06-25T19:13:48Z</time>
      </trkpt>
      <trkpt lat="59.954059" lon="17.7148253">
        <ele>58.7777</ele>
        <time>2014-06-25T19:13:49Z</time>
      </trkpt>
    </trkseg>
  </trk>
</gpx>